<?xml version='1.0' encoding='UTF-8'?><gpx version="1.1" creator="JPX - https://github.com/jenetics/jpx" xmlns="http://www.topografix.com/GPX/1/1"><trk><trkseg><trkpt lat="44.83050231067323" lon="4.809379853750312"><ele>96.83333333333334</ele><time>2026-04-11T08:12:33.002Z</time></trkpt><trkpt lat="44.830571689093176" lon="4.809312807211367"><ele>96.66666666666667</ele><time>2026-04-11T08:12:36.002Z</time></trkpt><trkpt lat="44.830635864783915" lon="4.809251636616476"><ele>96.5</ele><time>2026-04-11T08:12:38.002Z</time></trkpt><trkpt lat="44.83070198558838" lon="4.80918980696151"><ele>96.33333333333334</ele><time>2026-04-11T08:12:40.002Z</time></trkpt><trkpt lat="44.83078804655672" lon="4.809139618280569"><ele>96.16666666666667</ele><time>2026-04-11T08:12:42.002Z</time></trkpt><trkpt lat="44.8308657847512" lon="4.80906663601297"><ele>96.0</ele><time>2026-04-11T08:12:44.002Z</time></trkpt><trkpt lat="44.830943603396726" lon="4.809012001376319"><ele>96.19999999999999</ele><time>2026-04-11T08:12:46.002Z</time></trkpt><trkpt lat="44.83102773143482" lon="4.808991171862671"><ele>96.39999999999999</ele><time>2026-04-11T08:12:48.002Z</time></trkpt><trkpt lat="44.831121259199215" lon="4.8089486474026"><ele>96.6</ele><time>2026-04-11T08:12:50.002Z</time></trkpt><trkpt lat="44.83120669940994" lon="4.80885326864782"><ele>96.8</ele><time>2026-04-11T08:12:52.002Z</time></trkpt><trkpt lat="44.83128496478204" lon="4.808772567251447"><ele>97.0</ele><time>2026-04-11T08:12:54.002Z</time></trkpt><trkpt lat="44.83136021122142" lon="4.808677043829264"><ele>97.00000000000001</ele><time>2026-04-11T08:12:56.002Z</time></trkpt><trkpt lat="44.83142540193353" lon="4.8085929487572825"><ele>97.0</ele><time>2026-04-11T08:12:58.002Z</time></trkpt><trkpt lat="44.83149841230344" lon="4.808529482367342"><ele>97.0</ele><time>2026-04-11T08:13:00.002Z</time></trkpt><trkpt lat="44.831560795233" lon="4.808464248495831"><ele>97.0</ele><time>2026-04-11T08:13:02.002Z</time></trkpt><trkpt lat="44.83161354747311" lon="4.808411685696947"><ele>97.00000000000001</ele><time>2026-04-11T08:13:04.002Z</time></trkpt><trkpt lat="44.831686760517464" lon="4.808348142199311"><ele>97.0</ele><time>2026-04-11T08:13:07.002Z</time></trkpt><trkpt lat="44.83169787569977" lon="4.808213843481174"><ele>97.33333333333334</ele><time>2026-04-11T08:13:11.002Z</time></trkpt><trkpt lat="44.83164825092809" lon="4.808132959994693"><ele>97.66666666666667</ele><time>2026-04-11T08:13:13.002Z</time></trkpt><trkpt lat="44.83159998036776" lon="4.808045487725011"><ele>98.0</ele><time>2026-04-11T08:13:15.002Z</time></trkpt><trkpt lat="44.83154728104065" lon="4.80795266858767"><ele>98.33333333333334</ele><time>2026-04-11T08:13:17.002Z</time></trkpt><trkpt lat="44.831489033076636" lon="4.8078664035677"><ele>98.66666666666667</ele><time>2026-04-11T08:13:19.002Z</time></trkpt><trkpt lat="44.83142508521416" lon="4.807784185334239"><ele>99.0</ele><time>2026-04-11T08:13:21.002Z</time></trkpt><trkpt lat="44.831354165418766" lon="4.807724332760738"><ele>98.83333333333333</ele><time>2026-04-11T08:13:23.002Z</time></trkpt><trkpt lat="44.83128704518543" lon="4.807649644680136"><ele>98.66666666666666</ele><time>2026-04-11T08:13:25.002Z</time></trkpt><trkpt lat="44.831220105116" lon="4.807582886418509"><ele>98.5</ele><time>2026-04-11T08:13:27.002Z</time></trkpt><trkpt lat="44.831154318848725" lon="4.807515966897054"><ele>98.33333333333333</ele><time>2026-04-11T08:13:29.002Z</time></trkpt><trkpt lat="44.83109592779617" lon="4.807453400593644"><ele>98.16666666666666</ele><time>2026-04-11T08:13:31.002Z</time></trkpt><trkpt lat="44.83102450174581" lon="4.807404572817573"><ele>98.0</ele><time>2026-04-11T08:13:33.002Z</time></trkpt><trkpt lat="44.83095202331423" lon="4.80734731458802"><ele>97.99999999999999</ele><time>2026-04-11T08:13:35.002Z</time></trkpt><trkpt lat="44.83087067846516" lon="4.807282451036694"><ele>98.0</ele><time>2026-04-11T08:13:37.002Z</time></trkpt><trkpt lat="44.83079739475226" lon="4.807229343258541"><ele>98.0</ele><time>2026-04-11T08:13:39.002Z</time></trkpt><trkpt lat="44.83071849872608" lon="4.807155264122314"><ele>98.0</ele><time>2026-04-11T08:13:41.002Z</time></trkpt><trkpt lat="44.83064371549698" lon="4.807088637832153"><ele>97.99999999999999</ele><time>2026-04-11T08:13:43.002Z</time></trkpt><trkpt lat="44.830579539057496" lon="4.807035093646748"><ele>98.0</ele><time>2026-04-11T08:13:45.002Z</time></trkpt><trkpt lat="44.830512501327576" lon="4.806970385479515"><ele>98.0</ele><time>2026-04-11T08:13:47.002Z</time></trkpt><trkpt lat="44.83046760548074" lon="4.806858895571876"><ele>98.0</ele><time>2026-04-11T08:13:49.002Z</time></trkpt><trkpt lat="44.83040434271812" lon="4.806789285475793"><ele>98.0</ele><time>2026-04-11T08:13:51.002Z</time></trkpt><trkpt lat="44.83031597455257" lon="4.806722601079374"><ele>98.0</ele><time>2026-04-11T08:13:53.002Z</time></trkpt><trkpt lat="44.83024487001692" lon="4.806650217511718"><ele>98.0</ele><time>2026-04-11T08:13:55.002Z</time></trkpt><trkpt lat="44.83016359657314" lon="4.80658481978736"><ele>98.60000000000001</ele><time>2026-04-11T08:13:57.002Z</time></trkpt><trkpt lat="44.83008100189688" lon="4.806516067836211"><ele>99.2</ele><time>2026-04-11T08:13:59.002Z</time></trkpt><trkpt lat="44.8299945273066" lon="4.80643897345722"><ele>99.8</ele><time>2026-04-11T08:14:01.002Z</time></trkpt><trkpt lat="44.82990910713692" lon="4.8063659707717985"><ele>100.4</ele><time>2026-04-11T08:14:03.002Z</time></trkpt><trkpt lat="44.8298204739824" lon="4.806292117248408"><ele>101.0</ele><time>2026-04-11T08:14:05.002Z</time></trkpt><trkpt lat="44.829736653680115" lon="4.806222151929248"><ele>101.0</ele><time>2026-04-11T08:14:07.002Z</time></trkpt><trkpt lat="44.82965180802771" lon="4.806158515024248"><ele>101.0</ele><time>2026-04-11T08:14:09.002Z</time></trkpt><trkpt lat="44.82956930816107" lon="4.8060901947656145"><ele>101.0</ele><time>2026-04-11T08:14:11.002Z</time></trkpt><trkpt lat="44.82947757968905" lon="4.806030677432658"><ele>101.0</ele><time>2026-04-11T08:14:13.002Z</time></trkpt><trkpt lat="44.829392385388346" lon="4.805967683247198"><ele>101.0</ele><time>2026-04-11T08:14:15.002Z</time></trkpt><trkpt lat="44.8293047365735" lon="4.8059116498672925"><ele>102.19999999999999</ele><time>2026-04-11T08:14:17.002Z</time></trkpt><trkpt lat="44.82922059672871" lon="4.805854083593959"><ele>103.39999999999999</ele><time>2026-04-11T08:14:19.002Z</time></trkpt><trkpt lat="44.82913222989946" lon="4.805789121659732"><ele>104.6</ele><time>2026-04-11T08:14:21.002Z</time></trkpt><trkpt lat="44.82904170771749" lon="4.80573464369922"><ele>105.8</ele><time>2026-04-11T08:14:23.002Z</time></trkpt><trkpt lat="44.82895642252078" lon="4.80567048491181"><ele>107.0</ele><time>2026-04-11T08:14:25.002Z</time></trkpt><trkpt lat="44.82887074842826" lon="4.805624173594604"><ele>107.0</ele><time>2026-04-11T08:14:27.002Z</time></trkpt><trkpt lat="44.82878722762517" lon="4.8055557042421695"><ele>106.99999999999999</ele><time>2026-04-11T08:14:29.002Z</time></trkpt><trkpt lat="44.8287056405837" lon="4.805497172682712"><ele>106.99999999999999</ele><time>2026-04-11T08:14:31.002Z</time></trkpt><trkpt lat="44.82862896040325" lon="4.80544385310166"><ele>107.0</ele><time>2026-04-11T08:14:33.002Z</time></trkpt><trkpt lat="44.82855207107799" lon="4.805388221687146"><ele>107.0</ele><time>2026-04-11T08:14:35.002Z</time></trkpt><trkpt lat="44.82847327522898" lon="4.805324938854786"><ele>107.8</ele><time>2026-04-11T08:14:37.002Z</time></trkpt><trkpt lat="44.82838984557706" lon="4.805255218369473"><ele>108.6</ele><time>2026-04-11T08:14:39.002Z</time></trkpt><trkpt lat="44.82831609810292" lon="4.805184835864317"><ele>109.39999999999999</ele><time>2026-04-11T08:14:41.002Z</time></trkpt><trkpt lat="44.82825125553921" lon="4.805099553416058"><ele>110.19999999999999</ele><time>2026-04-11T08:14:43.002Z</time></trkpt><trkpt lat="44.828176161354044" lon="4.805041837504939"><ele>111.0</ele><time>2026-04-11T08:14:45.002Z</time></trkpt><trkpt lat="44.828092658822285" lon="4.804982693029191"><ele>111.0</ele><time>2026-04-11T08:14:47.002Z</time></trkpt><trkpt lat="44.82801103874807" lon="4.8049053762108365"><ele>111.0</ele><time>2026-04-11T08:14:49.002Z</time></trkpt><trkpt lat="44.827930126876915" lon="4.80485800483884"><ele>111.0</ele><time>2026-04-11T08:14:51.002Z</time></trkpt><trkpt lat="44.82784912269567" lon="4.804786681377399"><ele>111.0</ele><time>2026-04-11T08:14:53.002Z</time></trkpt><trkpt lat="44.82776593987233" lon="4.804720425126147"><ele>111.0</ele><time>2026-04-11T08:14:55.002Z</time></trkpt><trkpt lat="44.827686300540165" lon="4.804646632239549"><ele>110.8</ele><time>2026-04-11T08:14:57.002Z</time></trkpt><trkpt lat="44.827610507687396" lon="4.804564049836638"><ele>110.6</ele><time>2026-04-11T08:14:59.002Z</time></trkpt><trkpt lat="44.82753637111933" lon="4.804486215869942"><ele>110.4</ele><time>2026-04-11T08:15:01.002Z</time></trkpt><trkpt lat="44.82745356976723" lon="4.80441361973727"><ele>110.2</ele><time>2026-04-11T08:15:03.002Z</time></trkpt><trkpt lat="44.82738035401969" lon="4.804333900422109"><ele>110.0</ele><time>2026-04-11T08:15:05.002Z</time></trkpt><trkpt lat="44.827300384119106" lon="4.804252582647061"><ele>110.0</ele><time>2026-04-11T08:15:07.002Z</time></trkpt><trkpt lat="44.82722505061373" lon="4.804149758346048"><ele>110.0</ele><time>2026-04-11T08:15:09.002Z</time></trkpt><trkpt lat="44.82715704949011" lon="4.8040618581691055"><ele>110.0</ele><time>2026-04-11T08:15:11.002Z</time></trkpt><trkpt lat="44.82707898131605" lon="4.803959119590888"><ele>110.0</ele><time>2026-04-11T08:15:13.002Z</time></trkpt><trkpt lat="44.82699852721312" lon="4.803862565047492"><ele>110.0</ele><time>2026-04-11T08:15:15.002Z</time></trkpt><trkpt lat="44.82692741743805" lon="4.8037729844242385"><ele>110.0</ele><time>2026-04-11T08:15:17.002Z</time></trkpt><trkpt lat="44.82685490789569" lon="4.8036801704275724"><ele>110.0</ele><time>2026-04-11T08:15:19.002Z</time></trkpt><trkpt lat="44.82678172129251" lon="4.803578155377831"><ele>110.0</ele><time>2026-04-11T08:15:21.002Z</time></trkpt><trkpt lat="44.826714579591936" lon="4.803474787440725"><ele>110.0</ele><time>2026-04-11T08:15:23.002Z</time></trkpt><trkpt lat="44.82664338058078" lon="4.803387397664402"><ele>110.0</ele><time>2026-04-11T08:15:25.002Z</time></trkpt><trkpt lat="44.82658050608902" lon="4.803285038652345"><ele>108.99999999999999</ele><time>2026-04-11T08:15:27.002Z</time></trkpt><trkpt lat="44.826528857938655" lon="4.803195398333262"><ele>108.0</ele><time>2026-04-11T08:15:29.002Z</time></trkpt><trkpt lat="44.826597066972504" lon="4.803186067374901"><ele>107.0</ele><time>2026-04-11T08:15:37.002Z</time></trkpt><trkpt lat="44.82667099702283" lon="4.803274361706467"><ele>106.0</ele><time>2026-04-11T08:15:40.002Z</time></trkpt><trkpt lat="44.826743735683074" lon="4.803368652868135"><ele>104.99999999999999</ele><time>2026-04-11T08:15:43.002Z</time></trkpt><trkpt lat="44.8267904148331" lon="4.803428427370977"><ele>104.0</ele><time>2026-04-11T08:15:45.002Z</time></trkpt><trkpt lat="44.82683990967025" lon="4.803493980714579"><ele>104.99999999999999</ele><time>2026-04-11T08:15:47.002Z</time></trkpt><trkpt lat="44.826905778845365" lon="4.803575567277729"><ele>106.0</ele><time>2026-04-11T08:15:50.002Z</time></trkpt><trkpt lat="44.82697150467079" lon="4.803654304607145"><ele>107.0</ele><time>2026-04-11T08:15:53.002Z</time></trkpt><trkpt lat="44.82703497406354" lon="4.803726539323208"><ele>108.0</ele><time>2026-04-11T08:15:56.002Z</time></trkpt><trkpt lat="44.82708663571801" lon="4.803801569285029"><ele>108.99999999999999</ele><time>2026-04-11T08:16:16.003Z</time></trkpt><trkpt lat="44.827151175036136" lon="4.803863666509354"><ele>110.0</ele><time>2026-04-11T08:16:19.003Z</time></trkpt><trkpt lat="44.82722491268323" lon="4.803938878479442"><ele>109.99999999999999</ele><time>2026-04-11T08:16:22.003Z</time></trkpt><trkpt lat="44.82727187682239" lon="4.804003796325562"><ele>110.0</ele><time>2026-04-11T08:16:24.003Z</time></trkpt><trkpt lat="44.82733928803661" lon="4.804083767724065"><ele>110.0</ele><time>2026-04-11T08:16:27.003Z</time></trkpt><trkpt lat="44.827417594948145" lon="4.804155147194894"><ele>110.0</ele><time>2026-04-11T08:16:30.003Z</time></trkpt><trkpt lat="44.82747239678927" lon="4.804202087209481"><ele>109.99999999999999</ele><time>2026-04-11T08:16:32.003Z</time></trkpt><trkpt lat="44.82754422759222" lon="4.804274141340444"><ele>110.0</ele><time>2026-04-11T08:16:35.003Z</time></trkpt><trkpt lat="44.82760038092944" lon="4.8043153773300595"><ele>110.16666666666666</ele><time>2026-04-11T08:16:37.003Z</time></trkpt><trkpt lat="44.827654705330794" lon="4.804365864356606"><ele>110.33333333333333</ele><time>2026-04-11T08:16:39.003Z</time></trkpt><trkpt lat="44.82773840544667" lon="4.8044217147323565"><ele>110.5</ele><time>2026-04-11T08:16:42.003Z</time></trkpt><trkpt lat="44.827801049031784" lon="4.804457319399017"><ele>110.66666666666666</ele><time>2026-04-11T08:16:44.003Z</time></trkpt><trkpt lat="44.827870214863964" lon="4.804485067422038"><ele>110.83333333333333</ele><time>2026-04-11T08:16:46.003Z</time></trkpt><trkpt lat="44.8279321417161" lon="4.804518412834578"><ele>111.0</ele><time>2026-04-11T08:16:48.003Z</time></trkpt><trkpt lat="44.828019051626335" lon="4.804553177580241"><ele>111.0</ele><time>2026-04-11T08:16:51.003Z</time></trkpt><trkpt lat="44.8281062062325" lon="4.804591435603651"><ele>111.0</ele><time>2026-04-11T08:16:54.003Z</time></trkpt><trkpt lat="44.828171600152544" lon="4.804605453095943"><ele>111.0</ele><time>2026-04-11T08:16:56.003Z</time></trkpt><trkpt lat="44.82826545054022" lon="4.804648054566088"><ele>111.0</ele><time>2026-04-11T08:16:59.003Z</time></trkpt><trkpt lat="44.82834911158601" lon="4.804703086163735"><ele>111.0</ele><time>2026-04-11T08:17:02.003Z</time></trkpt><trkpt lat="44.82840647305957" lon="4.804776683967606"><ele>111.0</ele><time>2026-04-11T08:17:04.003Z</time></trkpt><trkpt lat="44.82847056555296" lon="4.804849420140266"><ele>110.33333333333333</ele><time>2026-04-11T08:17:06.003Z</time></trkpt><trkpt lat="44.82853656114796" lon="4.804930636263536"><ele>109.66666666666666</ele><time>2026-04-11T08:17:08.003Z</time></trkpt><trkpt lat="44.828599151119626" lon="4.804980819090233"><ele>109.0</ele><time>2026-04-11T08:17:10.003Z</time></trkpt><trkpt lat="44.82865507244731" lon="4.8050541078276465"><ele>108.33333333333333</ele><time>2026-04-11T08:17:12.003Z</time></trkpt><trkpt lat="44.828718215284184" lon="4.805108933629877"><ele>107.66666666666666</ele><time>2026-04-11T08:17:14.003Z</time></trkpt><trkpt lat="44.82877341599994" lon="4.805185965823434"><ele>107.0</ele><time>2026-04-11T08:17:16.003Z</time></trkpt><trkpt lat="44.828835457065814" lon="4.805238592768741"><ele>107.00000000000001</ele><time>2026-04-11T08:17:18.003Z</time></trkpt><trkpt lat="44.82890090535819" lon="4.805284296361991"><ele>107.0</ele><time>2026-04-11T08:17:20.003Z</time></trkpt><trkpt lat="44.82897507206423" lon="4.805304477989157"><ele>107.0</ele><time>2026-04-11T08:17:22.003Z</time></trkpt><trkpt lat="44.82903967065772" lon="4.805320691273065"><ele>107.0</ele><time>2026-04-11T08:17:24.003Z</time></trkpt><trkpt lat="44.82910416176641" lon="4.805328974773163"><ele>107.0</ele><time>2026-04-11T08:17:26.003Z</time></trkpt><trkpt lat="44.8291663217819" lon="4.805354549727069"><ele>107.00000000000001</ele><time>2026-04-11T08:17:28.003Z</time></trkpt><trkpt lat="44.82923882022394" lon="4.805392866976742"><ele>107.0</ele><time>2026-04-11T08:17:31.003Z</time></trkpt><trkpt lat="44.82930233718258" lon="4.805422558395448"><ele>108.71428571428572</ele><time>2026-04-11T08:17:34.003Z</time></trkpt><trkpt lat="44.82936631445207" lon="4.805475533439595"><ele>110.42857142857143</ele><time>2026-04-11T08:17:37.003Z</time></trkpt><trkpt lat="44.829435889257745" lon="4.80551662417877"><ele>112.14285714285714</ele><time>2026-04-11T08:17:40.003Z</time></trkpt><trkpt lat="44.82949725102919" lon="4.805562293536318"><ele>113.85714285714286</ele><time>2026-04-11T08:17:43.003Z</time></trkpt><trkpt lat="44.82956700508998" lon="4.805607187751239"><ele>115.57142857142857</ele><time>2026-04-11T08:17:46.003Z</time></trkpt><trkpt lat="44.82963569230225" lon="4.805648651283647"><ele>117.28571428571429</ele><time>2026-04-11T08:17:49.003Z</time></trkpt><trkpt lat="44.82970472946224" lon="4.8057000696528025"><ele>119.0</ele><time>2026-04-11T08:17:52.003Z</time></trkpt><trkpt lat="44.82977369926864" lon="4.805748669950618"><ele>119.0</ele><time>2026-04-11T08:17:55.003Z</time></trkpt><trkpt lat="44.82984848117497" lon="4.805796093570138"><ele>119.0</ele><time>2026-04-11T08:17:58.003Z</time></trkpt><trkpt lat="44.829917259442325" lon="4.805845040930222"><ele>119.0</ele><time>2026-04-11T08:18:01.003Z</time></trkpt><trkpt lat="44.82998518663415" lon="4.805885245931149"><ele>119.0</ele><time>2026-04-11T08:18:04.003Z</time></trkpt><trkpt lat="44.83005109772294" lon="4.805919950043149"><ele>119.0</ele><time>2026-04-11T08:18:07.003Z</time></trkpt><trkpt lat="44.83012001857927" lon="4.805943171896217"><ele>119.0</ele><time>2026-04-11T08:18:10.003Z</time></trkpt><trkpt lat="44.83018865194202" lon="4.805952955234831"><ele>119.0</ele><time>2026-04-11T08:18:13.003Z</time></trkpt><trkpt lat="44.830252486357985" lon="4.805961738671306"><ele>117.57142857142857</ele><time>2026-04-11T08:18:16.003Z</time></trkpt><trkpt lat="44.83033106216791" lon="4.805977886100593"><ele>116.14285714285714</ele><time>2026-04-11T08:18:20.003Z</time></trkpt><trkpt lat="44.83040130085061" lon="4.805998622744914"><ele>114.71428571428572</ele><time>2026-04-11T08:18:24.003Z</time></trkpt><trkpt lat="44.83046312660504" lon="4.8060209459927785"><ele>113.28571428571428</ele><time>2026-04-11T08:18:28.003Z</time></trkpt><trkpt lat="44.830532855527906" lon="4.806049459962644"><ele>111.85714285714286</ele><time>2026-04-11T08:18:32.003Z</time></trkpt><trkpt lat="44.83060173596964" lon="4.806085737954603"><ele>110.42857142857143</ele><time>2026-04-11T08:18:36.003Z</time></trkpt><trkpt lat="44.83066861072545" lon="4.806104429244864"><ele>109.0</ele><time>2026-04-11T08:18:39.003Z</time></trkpt><trkpt lat="44.83075085852028" lon="4.806110593373663"><ele>109.0</ele><time>2026-04-11T08:18:43.003Z</time></trkpt><trkpt lat="44.83081633085641" lon="4.806094154374712"><ele>109.0</ele><time>2026-04-11T08:18:46.003Z</time></trkpt><trkpt lat="44.830900817567546" lon="4.806061578509592"><ele>109.0</ele><time>2026-04-11T08:18:50.003Z</time></trkpt><trkpt lat="44.83097859039356" lon="4.8060449881481695"><ele>109.0</ele><time>2026-04-11T08:18:54.003Z</time></trkpt><trkpt lat="44.83104233138297" lon="4.806023146146626"><ele>109.0</ele><time>2026-04-11T08:18:57.003Z</time></trkpt><trkpt lat="44.83110385660905" lon="4.8060028012793135"><ele>109.0</ele><time>2026-04-11T08:19:00.003Z</time></trkpt><trkpt lat="44.83118212866986" lon="4.805972238900585"><ele>109.0</ele><time>2026-04-11T08:19:04.003Z</time></trkpt><trkpt lat="44.83124408348603" lon="4.805941638114704"><ele>113.16666666666667</ele><time>2026-04-11T08:19:07.003Z</time></trkpt><trkpt lat="44.831312804993885" lon="4.8059199707898355"><ele>117.33333333333334</ele><time>2026-04-11T08:19:10.003Z</time></trkpt><trkpt lat="44.83137988029357" lon="4.805890527039748"><ele>121.5</ele><time>2026-04-11T08:19:13.003Z</time></trkpt><trkpt lat="44.83144499302839" lon="4.805858142433253"><ele>125.66666666666666</ele><time>2026-04-11T08:19:16.003Z</time></trkpt><trkpt lat="44.831504270912696" lon="4.805817199956035"><ele>129.83333333333331</ele><time>2026-04-11T08:19:19.003Z</time></trkpt><trkpt lat="44.83158585299143" lon="4.805758352493683"><ele>134.0</ele><time>2026-04-11T08:19:23.003Z</time></trkpt><trkpt lat="44.83165410684284" lon="4.805680118779766"><ele>134.0</ele><time>2026-04-11T08:19:27.003Z</time></trkpt><trkpt lat="44.831710882491016" lon="4.805606437912083"><ele>134.0</ele><time>2026-04-11T08:19:31.003Z</time></trkpt><trkpt lat="44.83176004225726" lon="4.80554719080766"><ele>134.0</ele><time>2026-04-11T08:19:34.003Z</time></trkpt><trkpt lat="44.83181595522745" lon="4.805478740917944"><ele>134.0</ele><time>2026-04-11T08:19:38.003Z</time></trkpt><trkpt lat="44.83188632318025" lon="4.805474731678159"><ele>134.0</ele><time>2026-04-11T08:19:43.003Z</time></trkpt><trkpt lat="44.83194420154568" lon="4.805541530447319"><ele>134.0</ele><time>2026-04-11T08:19:48.003Z</time></trkpt><trkpt lat="44.83197125705627" lon="4.8056297963319645"><ele>134.0</ele><time>2026-04-11T08:19:52.003Z</time></trkpt><trkpt lat="44.832014643916125" lon="4.805716419345456"><ele>134.71428571428572</ele><time>2026-04-11T08:19:56.003Z</time></trkpt><trkpt lat="44.832047355840515" lon="4.8058024162179835"><ele>135.42857142857142</ele><time>2026-04-11T08:20:00.003Z</time></trkpt><trkpt lat="44.83208715648975" lon="4.805882685819718"><ele>136.14285714285714</ele><time>2026-04-11T08:20:04.003Z</time></trkpt><trkpt lat="44.83213237981872" lon="4.805952669564996"><ele>136.85714285714286</ele><time>2026-04-11T08:20:08.004Z</time></trkpt><trkpt lat="44.83221110791634" lon="4.805976248038134"><ele>137.57142857142858</ele><time>2026-04-11T08:20:13.004Z</time></trkpt><trkpt lat="44.83228926166935" lon="4.805951434404773"><ele>138.28571428571428</ele><time>2026-04-11T08:20:18.004Z</time></trkpt><trkpt lat="44.8323609236182" lon="4.805919873318264"><ele>139.0</ele><time>2026-04-11T08:20:22.004Z</time></trkpt><trkpt lat="44.832431334682056" lon="4.805889163632449"><ele>139.0</ele><time>2026-04-11T08:20:26.004Z</time></trkpt><trkpt lat="44.83249411350938" lon="4.805858000039577"><ele>139.0</ele><time>2026-04-11T08:20:30.004Z</time></trkpt><trkpt lat="44.832563210133024" lon="4.805825660205368"><ele>139.0</ele><time>2026-04-11T08:20:34.004Z</time></trkpt><trkpt lat="44.8326305296302" lon="4.80579358770007"><ele>139.0</ele><time>2026-04-11T08:20:38.004Z</time></trkpt><trkpt lat="44.83269930815304" lon="4.805762971870471"><ele>139.0</ele><time>2026-04-11T08:20:42.004Z</time></trkpt><trkpt lat="44.832757618497055" lon="4.80572603674906"><ele>139.0</ele><time>2026-04-11T08:20:46.004Z</time></trkpt><trkpt lat="44.832824187647745" lon="4.805690534892889"><ele>139.0</ele><time>2026-04-11T08:20:50.004Z</time></trkpt><trkpt lat="44.83289185119497" lon="4.805641746606404"><ele>138.42857142857142</ele><time>2026-04-11T08:20:55.004Z</time></trkpt><trkpt lat="44.83294827497568" lon="4.805598941904036"><ele>137.85714285714286</ele><time>2026-04-11T08:20:59.004Z</time></trkpt><trkpt lat="44.83299450273678" lon="4.8055210964849016"><ele>137.28571428571428</ele><time>2026-04-11T08:21:03.004Z</time></trkpt><trkpt lat="44.83301208611244" lon="4.805433638525162"><ele>136.71428571428572</ele><time>2026-04-11T08:21:08.004Z</time></trkpt><trkpt lat="44.83301289260122" lon="4.805335052012705"><ele>136.14285714285714</ele><time>2026-04-11T08:21:12.004Z</time></trkpt><trkpt lat="44.833007267605694" lon="4.805234609610381"><ele>135.57142857142856</ele><time>2026-04-11T08:21:17.004Z</time></trkpt><trkpt lat="44.832992484008656" lon="4.805121681087134"><ele>135.0</ele><time>2026-04-11T08:21:23.004Z</time></trkpt><trkpt lat="44.83298253090663" lon="4.805027391883171"><ele>136.83333333333334</ele><time>2026-04-11T08:21:27.004Z</time></trkpt><trkpt lat="44.83296956762706" lon="4.804939575486053"><ele>138.66666666666666</ele><time>2026-04-11T08:21:31.004Z</time></trkpt><trkpt lat="44.83292416841081" lon="4.804864966782986"><ele>140.5</ele><time>2026-04-11T08:21:35.004Z</time></trkpt><trkpt lat="44.83285900356031" lon="4.804801452216871"><ele>142.33333333333331</ele><time>2026-04-11T08:21:40.004Z</time></trkpt><trkpt lat="44.83278289469222" lon="4.804747614475832"><ele>144.16666666666666</ele><time>2026-04-11T08:21:45.004Z</time></trkpt><trkpt lat="44.83270541219508" lon="4.804726546835657"><ele>146.0</ele><time>2026-04-11T08:21:49.004Z</time></trkpt><trkpt lat="44.832639543115604" lon="4.8046624371426025"><ele>146.57142857142856</ele><time>2026-04-11T08:21:53.004Z</time></trkpt><trkpt lat="44.83258650059098" lon="4.8045678429016805"><ele>147.14285714285714</ele><time>2026-04-11T08:21:57.004Z</time></trkpt><trkpt lat="44.832549638277655" lon="4.804480205180744"><ele>147.71428571428572</ele><time>2026-04-11T08:22:01.004Z</time></trkpt><trkpt lat="44.83251868348952" lon="4.804393305730113"><ele>148.28571428571428</ele><time>2026-04-11T08:22:05.004Z</time></trkpt><trkpt lat="44.83248870574153" lon="4.804314942477129"><ele>148.85714285714286</ele><time>2026-04-11T08:22:09.004Z</time></trkpt><trkpt lat="44.83246557781487" lon="4.804224031566788"><ele>149.42857142857142</ele><time>2026-04-11T08:22:13.004Z</time></trkpt><trkpt lat="44.83244099726415" lon="4.804137541832408"><ele>150.0</ele><time>2026-04-11T08:22:17.004Z</time></trkpt><trkpt lat="44.832404772985065" lon="4.804050430952734"><ele>151.7142857142857</ele><time>2026-04-11T08:22:22.004Z</time></trkpt><trkpt lat="44.832374362442884" lon="4.803953829547886"><ele>153.42857142857142</ele><time>2026-04-11T08:22:26.004Z</time></trkpt><trkpt lat="44.83231544211411" lon="4.8038860764743445"><ele>155.14285714285714</ele><time>2026-04-11T08:22:31.004Z</time></trkpt><trkpt lat="44.83224474585375" lon="4.803886894322712"><ele>156.85714285714283</ele><time>2026-04-11T08:22:36.004Z</time></trkpt><trkpt lat="44.83219794454798" lon="4.8039467634490585"><ele>158.57142857142856</ele><time>2026-04-11T08:22:41.004Z</time></trkpt><trkpt lat="44.832182742102404" lon="4.804052123928666"><ele>160.28571428571428</ele><time>2026-04-11T08:22:46.004Z</time></trkpt><trkpt lat="44.832156851388035" lon="4.804148927330929"><ele>162.0</ele><time>2026-04-11T08:22:52.004Z</time></trkpt><trkpt lat="44.832086530501726" lon="4.804202624219352"><ele>162.0</ele><time>2026-04-11T08:22:57.004Z</time></trkpt><trkpt lat="44.832017742621204" lon="4.804201475321917"><ele>162.0</ele><time>2026-04-11T08:23:00.004Z</time></trkpt><trkpt lat="44.83194444846141" lon="4.804147388517745"><ele>162.0</ele><time>2026-04-11T08:23:04.004Z</time></trkpt><trkpt lat="44.831885542293364" lon="4.804078539146876"><ele>162.0</ele><time>2026-04-11T08:23:08.004Z</time></trkpt><trkpt lat="44.831822679991824" lon="4.80401400424174"><ele>162.0</ele><time>2026-04-11T08:23:12.004Z</time></trkpt><trkpt lat="44.83175815147892" lon="4.803939811749999"><ele>162.0</ele><time>2026-04-11T08:23:16.004Z</time></trkpt><trkpt lat="44.83169244647176" lon="4.803882157005403"><ele>161.57142857142858</ele><time>2026-04-11T08:23:20.004Z</time></trkpt><trkpt lat="44.83164142255035" lon="4.80382237056435"><ele>161.14285714285714</ele><time>2026-04-11T08:23:23.004Z</time></trkpt><trkpt lat="44.831588422703696" lon="4.803766860023512"><ele>160.71428571428572</ele><time>2026-04-11T08:23:26.004Z</time></trkpt><trkpt lat="44.83153190474708" lon="4.803685926722409"><ele>160.28571428571428</ele><time>2026-04-11T08:23:30.004Z</time></trkpt><trkpt lat="44.831462693834304" lon="4.803625609788959"><ele>159.85714285714286</ele><time>2026-04-11T08:23:34.004Z</time></trkpt><trkpt lat="44.83140016349372" lon="4.803598327854722"><ele>159.42857142857142</ele><time>2026-04-11T08:23:37.004Z</time></trkpt><trkpt lat="44.83133068710538" lon="4.803587971899332"><ele>159.0</ele><time>2026-04-11T08:23:40.004Z</time></trkpt><trkpt lat="44.83126014230021" lon="4.803626056041315"><ele>159.0</ele><time>2026-04-11T08:23:44.004Z</time></trkpt><trkpt lat="44.83119774177288" lon="4.803689225817598"><ele>159.0</ele><time>2026-04-11T08:23:48.004Z</time></trkpt><trkpt lat="44.8311120910245" lon="4.803710746836971"><ele>159.0</ele><time>2026-04-11T08:23:52.004Z</time></trkpt><trkpt lat="44.83102950310668" lon="4.803698048213547"><ele>159.0</ele><time>2026-04-11T08:23:56.005Z</time></trkpt><trkpt lat="44.830972298564525" lon="4.803656762679315"><ele>159.0</ele><time>2026-04-11T08:23:59.005Z</time></trkpt><trkpt lat="44.83091529634681" lon="4.803594584338527"><ele>159.0</ele><time>2026-04-11T08:24:03.005Z</time></trkpt><trkpt lat="44.83083970596514" lon="4.803544785642956"><ele>159.85714285714286</ele><time>2026-04-11T08:24:07.005Z</time></trkpt><trkpt lat="44.83076583492592" lon="4.803554826636996"><ele>160.71428571428572</ele><time>2026-04-11T08:24:11.005Z</time></trkpt><trkpt lat="44.83070908598255" lon="4.803600619999776"><ele>161.57142857142858</ele><time>2026-04-11T08:24:15.005Z</time></trkpt><trkpt lat="44.83062852134393" lon="4.803631694859529"><ele>162.42857142857144</ele><time>2026-04-11T08:24:19.005Z</time></trkpt><trkpt lat="44.83056254445652" lon="4.803627209638552"><ele>163.28571428571428</ele><time>2026-04-11T08:24:22.005Z</time></trkpt><trkpt lat="44.83049023817179" lon="4.803607997153944"><ele>164.14285714285717</ele><time>2026-04-11T08:24:26.005Z</time></trkpt><trkpt lat="44.83042119281557" lon="4.80354906689171"><ele>165.0</ele><time>2026-04-11T08:24:30.005Z</time></trkpt><trkpt lat="44.83035796310811" lon="4.803470794182936"><ele>166.33333333333334</ele><time>2026-04-11T08:24:34.005Z</time></trkpt><trkpt lat="44.83030361529328" lon="4.803387164022741"><ele>167.66666666666666</ele><time>2026-04-11T08:24:38.005Z</time></trkpt><trkpt lat="44.83024110417508" lon="4.803310601538297"><ele>169.0</ele><time>2026-04-11T08:24:42.005Z</time></trkpt><trkpt lat="44.830178847915676" lon="4.803270094962018"><ele>170.33333333333331</ele><time>2026-04-11T08:24:45.005Z</time></trkpt><trkpt lat="44.83011245002791" lon="4.803230231198313"><ele>171.66666666666666</ele><time>2026-04-11T08:24:48.005Z</time></trkpt><trkpt lat="44.830036203562095" lon="4.80320714370113"><ele>173.0</ele><time>2026-04-11T08:24:52.005Z</time></trkpt><trkpt lat="44.829963300365726" lon="4.803162769254922"><ele>173.0</ele><time>2026-04-11T08:24:56.005Z</time></trkpt><trkpt lat="44.82989331602955" lon="4.8031180573811865"><ele>173.0</ele><time>2026-04-11T08:24:59.005Z</time></trkpt><trkpt lat="44.829829121942154" lon="4.803075213643422"><ele>173.0</ele><time>2026-04-11T08:25:02.005Z</time></trkpt><trkpt lat="44.82976671887501" lon="4.8030413060136805"><ele>173.0</ele><time>2026-04-11T08:25:05.005Z</time></trkpt><trkpt lat="44.82969072692195" lon="4.803015979842374"><ele>173.0</ele><time>2026-04-11T08:25:09.005Z</time></trkpt><trkpt lat="44.82960718858608" lon="4.802979864738988"><ele>173.0</ele><time>2026-04-11T08:25:13.005Z</time></trkpt><trkpt lat="44.82952699218672" lon="4.802934399986365"><ele>173.0</ele><time>2026-04-11T08:25:17.005Z</time></trkpt><trkpt lat="44.82945076618686" lon="4.8028981777259165"><ele>173.0</ele><time>2026-04-11T08:25:21.005Z</time></trkpt><trkpt lat="44.82939060183735" lon="4.8028706356535675"><ele>173.0</ele><time>2026-04-11T08:25:24.005Z</time></trkpt><trkpt lat="44.82931448340483" lon="4.802841335189828"><ele>173.0</ele><time>2026-04-11T08:25:28.005Z</time></trkpt><trkpt lat="44.82924870880247" lon="4.802810065881969"><ele>173.0</ele><time>2026-04-11T08:25:31.005Z</time></trkpt><trkpt lat="44.82918924171153" lon="4.802777701594087"><ele>173.0</ele><time>2026-04-11T08:25:34.005Z</time></trkpt><trkpt lat="44.8291314010538" lon="4.802738725187131"><ele>173.0</ele><time>2026-04-11T08:25:37.005Z</time></trkpt><trkpt lat="44.82907154221865" lon="4.802668948902874"><ele>175.57142857142856</ele><time>2026-04-11T08:25:41.005Z</time></trkpt><trkpt lat="44.82900292695232" lon="4.802607451812887"><ele>178.14285714285717</ele><time>2026-04-11T08:25:45.005Z</time></trkpt><trkpt lat="44.828936674529785" lon="4.8025344642662064"><ele>180.71428571428572</ele><time>2026-04-11T08:25:49.005Z</time></trkpt><trkpt lat="44.82887118248301" lon="4.802474266915892"><ele>183.28571428571428</ele><time>2026-04-11T08:25:53.005Z</time></trkpt><trkpt lat="44.82881836625341" lon="4.802417642636115"><ele>185.85714285714283</ele><time>2026-04-11T08:25:56.005Z</time></trkpt><trkpt lat="44.828762990511976" lon="4.80237156880274"><ele>188.42857142857144</ele><time>2026-04-11T08:25:59.005Z</time></trkpt><trkpt lat="44.828709532684464" lon="4.802319004527826"><ele>191.0</ele><time>2026-04-11T08:26:02.005Z</time></trkpt><trkpt lat="44.82864675701672" lon="4.802258873054919"><ele>191.0</ele><time>2026-04-11T08:26:06.005Z</time></trkpt><trkpt lat="44.82857509678602" lon="4.802198525055739"><ele>191.0</ele><time>2026-04-11T08:26:10.005Z</time></trkpt><trkpt lat="44.82850124516923" lon="4.80215383021911"><ele>191.0</ele><time>2026-04-11T08:26:14.005Z</time></trkpt><trkpt lat="44.8284464187972" lon="4.802105947876648"><ele>191.0</ele><time>2026-04-11T08:26:17.005Z</time></trkpt><trkpt lat="44.82838955651887" lon="4.802063767028798"><ele>191.0</ele><time>2026-04-11T08:26:20.005Z</time></trkpt><trkpt lat="44.82833409957997" lon="4.802020852647538"><ele>191.0</ele><time>2026-04-11T08:26:23.005Z</time></trkpt><trkpt lat="44.82827025791251" lon="4.801950147758273"><ele>191.0</ele><time>2026-04-11T08:26:27.005Z</time></trkpt><trkpt lat="44.82821901729844" lon="4.80186112045754"><ele>191.42857142857144</ele><time>2026-04-11T08:26:31.005Z</time></trkpt><trkpt lat="44.82818123821463" lon="4.801766127096043"><ele>191.85714285714283</ele><time>2026-04-11T08:26:35.005Z</time></trkpt><trkpt lat="44.82815975505264" lon="4.8016616712912965"><ele>192.28571428571428</ele><time>2026-04-11T08:26:39.005Z</time></trkpt><trkpt lat="44.828141738910475" lon="4.801563228980635"><ele>192.71428571428572</ele><time>2026-04-11T08:26:43.005Z</time></trkpt><trkpt lat="44.82812139950782" lon="4.801455027126987"><ele>193.14285714285717</ele><time>2026-04-11T08:26:47.005Z</time></trkpt><trkpt lat="44.82812343420679" lon="4.801361105150394"><ele>193.57142857142856</ele><time>2026-04-11T08:26:51.005Z</time></trkpt><trkpt lat="44.828131596811644" lon="4.801258783033173"><ele>194.0</ele><time>2026-04-11T08:26:55.005Z</time></trkpt><trkpt lat="44.82813846645246" lon="4.8011645636515325"><ele>194.0</ele><time>2026-04-11T08:26:59.005Z</time></trkpt><trkpt lat="44.82816793166515" lon="4.801057024518533"><ele>194.0</ele><time>2026-04-11T08:27:03.005Z</time></trkpt><trkpt lat="44.82816779713572" lon="4.800952501205586"><ele>194.0</ele><time>2026-04-11T08:27:07.005Z</time></trkpt><trkpt lat="44.82816676700925" lon="4.800863020855685"><ele>194.0</ele><time>2026-04-11T08:27:10.005Z</time></trkpt><trkpt lat="44.82816225947057" lon="4.800767393527588"><ele>194.0</ele><time>2026-04-11T08:27:13.005Z</time></trkpt><trkpt lat="44.82814325901984" lon="4.800670377713732"><ele>194.0</ele><time>2026-04-11T08:27:17.005Z</time></trkpt><trkpt lat="44.828133863033784" lon="4.800577120554773"><ele>194.0</ele><time>2026-04-11T08:27:21.005Z</time></trkpt><trkpt lat="44.82811538466941" lon="4.800490917244564"><ele>195.50000000000003</ele><time>2026-04-11T08:27:25.005Z</time></trkpt><trkpt lat="44.828092128367004" lon="4.800404107279754"><ele>197.0</ele><time>2026-04-11T08:27:29.005Z</time></trkpt><trkpt lat="44.828036513998754" lon="4.80032458073304"><ele>198.5</ele><time>2026-04-11T08:27:33.005Z</time></trkpt><trkpt lat="44.82796446296957" lon="4.800296895631148"><ele>200.0</ele><time>2026-04-11T08:27:38.005Z</time></trkpt><trkpt lat="44.827889895828605" lon="4.800288684131876"><ele>201.50000000000003</ele><time>2026-04-11T08:27:44.006Z</time></trkpt><trkpt lat="44.82781371014251" lon="4.8002746884685115"><ele>203.0</ele><time>2026-04-11T08:27:50.006Z</time></trkpt><trkpt lat="44.827744064460305" lon="4.80021539464925"><ele>204.85714285714286</ele><time>2026-04-11T08:27:55.006Z</time></trkpt><trkpt lat="44.82770716189713" lon="4.8001348836854865"><ele>206.71428571428572</ele><time>2026-04-11T08:27:59.006Z</time></trkpt><trkpt lat="44.82769190242834" lon="4.8000452769279525"><ele>208.57142857142856</ele><time>2026-04-11T08:28:03.006Z</time></trkpt><trkpt lat="44.82769914124009" lon="4.7999500657163905"><ele>210.42857142857144</ele><time>2026-04-11T08:28:07.006Z</time></trkpt><trkpt lat="44.82771152686568" lon="4.799845028503478"><ele>212.28571428571428</ele><time>2026-04-11T08:28:12.006Z</time></trkpt><trkpt lat="44.827719022539874" lon="4.799752756191114"><ele>214.14285714285714</ele><time>2026-04-11T08:28:16.006Z</time></trkpt><trkpt lat="44.827724340989484" lon="4.799657204410885"><ele>216.0</ele><time>2026-04-11T08:28:20.006Z</time></trkpt><trkpt lat="44.82774439544235" lon="4.799562712077183"><ele>216.0</ele><time>2026-04-11T08:28:24.006Z</time></trkpt><trkpt lat="44.827782309270304" lon="4.799489172544977"><ele>216.0</ele><time>2026-04-11T08:28:28.006Z</time></trkpt><trkpt lat="44.82784165152944" lon="4.799437089978917"><ele>216.0</ele><time>2026-04-11T08:28:32.006Z</time></trkpt><trkpt lat="44.827898745784815" lon="4.799389799578876"><ele>216.0</ele><time>2026-04-11T08:28:36.006Z</time></trkpt><trkpt lat="44.8279651238602" lon="4.799369689408763"><ele>216.0</ele><time>2026-04-11T08:28:40.006Z</time></trkpt><trkpt lat="44.828030195525166" lon="4.799369140059371"><ele>216.0</ele><time>2026-04-11T08:28:44.006Z</time></trkpt><trkpt lat="44.828103927938045" lon="4.799374463771862"><ele>216.0</ele><time>2026-04-11T08:28:49.006Z</time></trkpt><trkpt lat="44.8281654760775" lon="4.7994085963847635"><ele>216.0</ele><time>2026-04-11T08:28:54.006Z</time></trkpt><trkpt lat="44.82823842320487" lon="4.799431840050933"><ele>216.0</ele><time>2026-04-11T08:28:59.006Z</time></trkpt><trkpt lat="44.82831358757349" lon="4.79944458052564"><ele>216.0</ele><time>2026-04-11T08:29:04.006Z</time></trkpt><trkpt lat="44.828388390124246" lon="4.79945564866963"><ele>216.0</ele><time>2026-04-11T08:29:09.006Z</time></trkpt><trkpt lat="44.828458613905994" lon="4.799444194141476"><ele>216.0</ele><time>2026-04-11T08:29:13.006Z</time></trkpt><trkpt lat="44.8285333600736" lon="4.7994357261054565"><ele>216.0</ele><time>2026-04-11T08:29:17.006Z</time></trkpt><trkpt lat="44.82860468032368" lon="4.7994130169167715"><ele>216.0</ele><time>2026-04-11T08:29:21.006Z</time></trkpt><trkpt lat="44.82867497561865" lon="4.79938279426157"><ele>217.71428571428572</ele><time>2026-04-11T08:29:25.006Z</time></trkpt><trkpt lat="44.82873996190299" lon="4.7993299453358755"><ele>219.42857142857142</ele><time>2026-04-11T08:29:29.006Z</time></trkpt><trkpt lat="44.82879398317467" lon="4.7992568574281"><ele>221.14285714285714</ele><time>2026-04-11T08:29:33.006Z</time></trkpt><trkpt lat="44.828816122288494" lon="4.799159014996617"><ele>222.85714285714283</ele><time>2026-04-11T08:29:38.006Z</time></trkpt><trkpt lat="44.82882957678612" lon="4.799070067660462"><ele>224.57142857142856</ele><time>2026-04-11T08:29:42.006Z</time></trkpt><trkpt lat="44.828853278823665" lon="4.798975107034776"><ele>226.28571428571428</ele><time>2026-04-11T08:29:47.006Z</time></trkpt><trkpt lat="44.828885107735665" lon="4.79889312109981"><ele>228.0</ele><time>2026-04-11T08:29:51.006Z</time></trkpt><trkpt lat="44.82890574967534" lon="4.798792675559769"><ele>228.0</ele><time>2026-04-11T08:29:56.006Z</time></trkpt><trkpt lat="44.82893108620987" lon="4.798711100888187"><ele>227.99999999999997</ele><time>2026-04-11T08:30:00.006Z</time></trkpt><trkpt lat="44.8289614846974" lon="4.798614786023307"><ele>228.0</ele><time>2026-04-11T08:30:04.006Z</time></trkpt><trkpt lat="44.829005284047746" lon="4.798533940644981"><ele>228.0</ele><time>2026-04-11T08:30:08.006Z</time></trkpt><trkpt lat="44.829050714041614" lon="4.798452236325332"><ele>227.99999999999997</ele><time>2026-04-11T08:30:12.006Z</time></trkpt><trkpt lat="44.829097980521006" lon="4.798384950501219"><ele>228.0</ele><time>2026-04-11T08:30:16.006Z</time></trkpt><trkpt lat="44.829144589615744" lon="4.7983154184586025"><ele>228.0</ele><time>2026-04-11T08:30:20.006Z</time></trkpt><trkpt lat="44.82919208656939" lon="4.798251329965519"><ele>226.57142857142856</ele><time>2026-04-11T08:30:24.006Z</time></trkpt><trkpt lat="44.829243927260855" lon="4.798185507404537"><ele>225.1428571428571</ele><time>2026-04-11T08:30:28.006Z</time></trkpt><trkpt lat="44.829295869786236" lon="4.79811119287333"><ele>223.71428571428572</ele><time>2026-04-11T08:30:32.007Z</time></trkpt><trkpt lat="44.82933502121898" lon="4.798039402257757"><ele>222.28571428571428</ele><time>2026-04-11T08:30:36.007Z</time></trkpt><trkpt lat="44.82937494051163" lon="4.797968131344578"><ele>220.85714285714286</ele><time>2026-04-11T08:30:40.007Z</time></trkpt><trkpt lat="44.82943139315446" lon="4.797887476902915"><ele>219.42857142857144</ele><time>2026-04-11T08:30:45.007Z</time></trkpt><trkpt lat="44.829482825764046" lon="4.797827360742506"><ele>218.0</ele><time>2026-04-11T08:30:49.007Z</time></trkpt><trkpt lat="44.829534969241486" lon="4.797765317289384"><ele>219.57142857142858</ele><time>2026-04-11T08:30:53.007Z</time></trkpt><trkpt lat="44.82959432364065" lon="4.797710858520525"><ele>221.14285714285717</ele><time>2026-04-11T08:30:57.007Z</time></trkpt><trkpt lat="44.82966055500629" lon="4.797662370730826"><ele>222.71428571428572</ele><time>2026-04-11T08:31:02.007Z</time></trkpt><trkpt lat="44.829722527869414" lon="4.797623103387923"><ele>224.28571428571428</ele><time>2026-04-11T08:31:06.007Z</time></trkpt><trkpt lat="44.829796695885754" lon="4.7976081583322925"><ele>225.85714285714286</ele><time>2026-04-11T08:31:11.007Z</time></trkpt><trkpt lat="44.82987182039619" lon="4.797583817441236"><ele>227.42857142857142</ele><time>2026-04-11T08:31:16.006Z</time></trkpt><trkpt lat="44.829938075335576" lon="4.797559762445657"><ele>229.0</ele><time>2026-04-11T08:31:20.006Z</time></trkpt><trkpt lat="44.83001520628485" lon="4.797540689010255"><ele>229.0</ele><time>2026-04-11T08:31:25.006Z</time></trkpt><trkpt lat="44.83008099653814" lon="4.797529400177251"><ele>229.0</ele><time>2026-04-11T08:31:29.006Z</time></trkpt><trkpt lat="44.83015380554649" lon="4.797520913878153"><ele>229.0</ele><time>2026-04-11T08:31:34.006Z</time></trkpt><trkpt lat="44.830216835018916" lon="4.797528619925377"><ele>229.0</ele><time>2026-04-11T08:31:38.006Z</time></trkpt><trkpt lat="44.83028974979065" lon="4.797527311218727"><ele>229.0</ele><time>2026-04-11T08:31:43.006Z</time></trkpt><trkpt lat="44.83035586945828" lon="4.797499884332035"><ele>229.0</ele><time>2026-04-11T08:31:47.006Z</time></trkpt><trkpt lat="44.83042117139931" lon="4.797443436283809"><ele>229.0</ele><time>2026-04-11T08:31:52.006Z</time></trkpt><trkpt lat="44.83047482795884" lon="4.797382099659082"><ele>231.71428571428572</ele><time>2026-04-11T08:31:56.006Z</time></trkpt><trkpt lat="44.8305150103909" lon="4.797310745428863"><ele>234.42857142857144</ele><time>2026-04-11T08:32:00.006Z</time></trkpt><trkpt lat="44.83056027395189" lon="4.797232850158362"><ele>237.14285714285717</ele><time>2026-04-11T08:32:05.006Z</time></trkpt><trkpt lat="44.83060360787774" lon="4.797163778116976"><ele>239.85714285714286</ele><time>2026-04-11T08:32:09.006Z</time></trkpt><trkpt lat="44.83065024368415" lon="4.797096820252766"><ele>242.5714285714286</ele><time>2026-04-11T08:32:13.006Z</time></trkpt><trkpt lat="44.83070470964836" lon="4.797041837165291"><ele>245.2857142857143</ele><time>2026-04-11T08:32:17.006Z</time></trkpt><trkpt lat="44.83075153598773" lon="4.796975428497553"><ele>248.0</ele><time>2026-04-11T08:32:21.006Z</time></trkpt><trkpt lat="44.83080742446079" lon="4.796929309642115"><ele>248.0</ele><time>2026-04-11T08:32:25.006Z</time></trkpt><trkpt lat="44.83087083907409" lon="4.796896326228328"><ele>248.00000000000003</ele><time>2026-04-11T08:32:29.006Z</time></trkpt><trkpt lat="44.830934016014574" lon="4.79688520771891"><ele>248.0</ele><time>2026-04-11T08:32:33.006Z</time></trkpt><trkpt lat="44.83101130579918" lon="4.796912126730308"><ele>248.0</ele><time>2026-04-11T08:32:38.006Z</time></trkpt><trkpt lat="44.83107623644657" lon="4.796927595259722"><ele>248.00000000000003</ele><time>2026-04-11T08:32:43.006Z</time></trkpt><trkpt lat="44.831154575301476" lon="4.79693445952378"><ele>248.0</ele><time>2026-04-11T08:32:48.006Z</time></trkpt><trkpt lat="44.83122211292332" lon="4.7969326117692015"><ele>248.0</ele><time>2026-04-11T08:32:52.006Z</time></trkpt><trkpt lat="44.831300305947416" lon="4.79692218313196"><ele>248.33333333333334</ele><time>2026-04-11T08:32:57.006Z</time></trkpt><trkpt lat="44.83136202962014" lon="4.796902174435385"><ele>248.66666666666669</ele><time>2026-04-11T08:33:01.006Z</time></trkpt><trkpt lat="44.831438670062504" lon="4.796898179085559"><ele>249.0</ele><time>2026-04-11T08:33:06.006Z</time></trkpt><trkpt lat="44.831509773114284" lon="4.796858294415331"><ele>249.33333333333331</ele><time>2026-04-11T08:33:10.006Z</time></trkpt><trkpt lat="44.83159134491598" lon="4.7968211335588675"><ele>249.66666666666666</ele><time>2026-04-11T08:33:15.006Z</time></trkpt><trkpt lat="44.831673426594065" lon="4.796782055195859"><ele>250.0</ele><time>2026-04-11T08:33:20.006Z</time></trkpt><trkpt lat="44.831749596710964" lon="4.796778020775087"><ele>252.0</ele><time>2026-04-11T08:33:25.007Z</time></trkpt><trkpt lat="44.83181863052893" lon="4.796771663953324"><ele>254.0</ele><time>2026-04-11T08:33:29.007Z</time></trkpt><trkpt lat="44.831888544111166" lon="4.79677651995199"><ele>256.0</ele><time>2026-04-11T08:33:34.006Z</time></trkpt><trkpt lat="44.831955953422224" lon="4.796759779780979"><ele>258.0</ele><time>2026-04-11T08:33:38.006Z</time></trkpt><trkpt lat="44.832029195709374" lon="4.796724913733565"><ele>260.0</ele><time>2026-04-11T08:33:43.006Z</time></trkpt><trkpt lat="44.83209246414191" lon="4.796679172922361"><ele>262.0</ele><time>2026-04-11T08:33:47.006Z</time></trkpt><trkpt lat="44.832151147620834" lon="4.796641488796456"><ele>264.0</ele><time>2026-04-11T08:33:51.006Z</time></trkpt><trkpt lat="44.832226524346396" lon="4.7966129259673185"><ele>264.0</ele><time>2026-04-11T08:33:56.007Z</time></trkpt><trkpt lat="44.83229100727645" lon="4.796600233094159"><ele>264.0</ele><time>2026-04-11T08:34:00.007Z</time></trkpt><trkpt lat="44.83236723199271" lon="4.7965823276430575"><ele>264.0</ele><time>2026-04-11T08:34:05.007Z</time></trkpt><trkpt lat="44.83242691290111" lon="4.796549786575792"><ele>264.0</ele><time>2026-04-11T08:34:09.007Z</time></trkpt><trkpt lat="44.83245439134758" lon="4.796452751043008"><ele>264.0</ele><time>2026-04-11T08:34:14.007Z</time></trkpt><trkpt lat="44.83241483782488" lon="4.796365054879225"><ele>264.0</ele><time>2026-04-11T08:34:20.007Z</time></trkpt><trkpt lat="44.832363408430204" lon="4.796306960961486"><ele>264.0</ele><time>2026-04-11T08:34:24.007Z</time></trkpt><trkpt lat="44.83229898371845" lon="4.796246631440868"><ele>264.0</ele><time>2026-04-11T08:34:29.007Z</time></trkpt><trkpt lat="44.832252962364905" lon="4.796178312414755"><ele>264.0</ele><time>2026-04-11T08:34:33.007Z</time></trkpt><trkpt lat="44.83221321080504" lon="4.79609859074146"><ele>264.0</ele><time>2026-04-11T08:34:37.007Z</time></trkpt><trkpt lat="44.83217867358462" lon="4.796020533225434"><ele>264.0</ele><time>2026-04-11T08:34:41.007Z</time></trkpt><trkpt lat="44.83214167980863" lon="4.795942239462208"><ele>264.0</ele><time>2026-04-11T08:34:45.007Z</time></trkpt><trkpt lat="44.832092648073605" lon="4.795878366281763"><ele>264.0</ele><time>2026-04-11T08:34:49.007Z</time></trkpt><trkpt lat="44.832034315391546" lon="4.795842153427921"><ele>264.0</ele><time>2026-04-11T08:34:53.007Z</time></trkpt><trkpt lat="44.8319720355341" lon="4.795797469505042"><ele>265.42857142857144</ele><time>2026-04-11T08:34:57.007Z</time></trkpt><trkpt lat="44.83190626994222" lon="4.7957423968752675"><ele>266.8571428571429</ele><time>2026-04-11T08:35:03.007Z</time></trkpt><trkpt lat="44.8318348364604" lon="4.7956797528119495"><ele>268.28571428571433</ele><time>2026-04-11T08:35:08.007Z</time></trkpt><trkpt lat="44.83179082294546" lon="4.795609340863089"><ele>269.7142857142857</ele><time>2026-04-11T08:35:12.007Z</time></trkpt><trkpt lat="44.83176547619558" lon="4.79552555103625"><ele>271.14285714285717</ele><time>2026-04-11T08:35:16.007Z</time></trkpt><trkpt lat="44.831757500383944" lon="4.795434389483048"><ele>272.5714285714286</ele><time>2026-04-11T08:35:20.007Z</time></trkpt><trkpt lat="44.83178239442277" lon="4.7953302808041505"><ele>274.0</ele><time>2026-04-11T08:35:25.007Z</time></trkpt><trkpt lat="44.831815341350826" lon="4.79523389031891"><ele>274.00000000000006</ele><time>2026-04-11T08:35:30.007Z</time></trkpt><trkpt lat="44.83186851955792" lon="4.7951824877663975"><ele>274.0</ele><time>2026-04-11T08:35:34.007Z</time></trkpt><trkpt lat="44.83193599454613" lon="4.795137214215989"><ele>274.0</ele><time>2026-04-11T08:35:39.007Z</time></trkpt><trkpt lat="44.83199896181664" lon="4.795097436439885"><ele>274.0</ele><time>2026-04-11T08:35:44.007Z</time></trkpt><trkpt lat="44.832060842912185" lon="4.795074313477631"><ele>274.0</ele><time>2026-04-11T08:35:48.007Z</time></trkpt><trkpt lat="44.83212716079836" lon="4.795045604163453"><ele>274.00000000000006</ele><time>2026-04-11T08:35:53.007Z</time></trkpt><trkpt lat="44.832197862367295" lon="4.795022310264773"><ele>274.0</ele><time>2026-04-11T08:35:58.007Z</time></trkpt><trkpt lat="44.83226898591929" lon="4.795002135791458"><ele>273.7142857142857</ele><time>2026-04-11T08:36:03.007Z</time></trkpt><trkpt lat="44.832333432868545" lon="4.79499970100713"><ele>273.42857142857144</ele><time>2026-04-11T08:36:07.007Z</time></trkpt><trkpt lat="44.83240620749467" lon="4.795000579727526"><ele>273.1428571428571</ele><time>2026-04-11T08:36:12.007Z</time></trkpt><trkpt lat="44.83247470399582" lon="4.795003287930373"><ele>272.8571428571429</ele><time>2026-04-11T08:36:16.007Z</time></trkpt><trkpt lat="44.83254526592932" lon="4.795015197014816"><ele>272.57142857142856</ele><time>2026-04-11T08:36:21.007Z</time></trkpt><trkpt lat="44.832620515411875" lon="4.79501883079592"><ele>272.2857142857143</ele><time>2026-04-11T08:36:26.007Z</time></trkpt><trkpt lat="44.83268506150369" lon="4.79501678441253"><ele>272.0</ele><time>2026-04-11T08:36:30.007Z</time></trkpt><trkpt lat="44.832753042928005" lon="4.795024004143402"><ele>272.85714285714283</ele><time>2026-04-11T08:36:34.007Z</time></trkpt><trkpt lat="44.83282636339756" lon="4.795029876686591"><ele>273.7142857142857</ele><time>2026-04-11T08:36:39.007Z</time></trkpt><trkpt lat="44.83289362456294" lon="4.795042876294362"><ele>274.57142857142856</ele><time>2026-04-11T08:36:43.007Z</time></trkpt><trkpt lat="44.83295814974967" lon="4.7950554909245575"><ele>275.42857142857144</ele><time>2026-04-11T08:36:49.007Z</time></trkpt><trkpt lat="44.833021578440984" lon="4.795078846592512"><ele>276.2857142857143</ele><time>2026-04-11T08:36:53.007Z</time></trkpt><trkpt lat="44.83305812511847" lon="4.795155381253287"><ele>277.1428571428571</ele><time>2026-04-11T08:36:57.007Z</time></trkpt><trkpt lat="44.83299420013333" lon="4.795208183195378"><ele>278.0</ele><time>2026-04-11T08:37:03.007Z</time></trkpt><trkpt lat="44.832926999659634" lon="4.795231657811808"><ele>279.85714285714283</ele><time>2026-04-11T08:37:08.007Z</time></trkpt><trkpt lat="44.83285901638431" lon="4.795251243804729"><ele>281.7142857142857</ele><time>2026-04-11T08:37:12.007Z</time></trkpt><trkpt lat="44.83280046368821" lon="4.795289053506694"><ele>283.57142857142856</ele><time>2026-04-11T08:37:16.007Z</time></trkpt><trkpt lat="44.83274899986889" lon="4.79534407890062"><ele>285.42857142857144</ele><time>2026-04-11T08:37:20.007Z</time></trkpt><trkpt lat="44.83271452069615" lon="4.795423321088692"><ele>287.2857142857143</ele><time>2026-04-11T08:37:24.007Z</time></trkpt><trkpt lat="44.83271015236457" lon="4.795517713361056"><ele>289.1428571428571</ele><time>2026-04-11T08:37:28.007Z</time></trkpt><trkpt lat="44.832745659241695" lon="4.7956124680619885"><ele>291.0</ele><time>2026-04-11T08:37:33.006Z</time></trkpt><trkpt lat="44.832805325763054" lon="4.7956529700354"><ele>291.0</ele><time>2026-04-11T08:37:38.007Z</time></trkpt><trkpt lat="44.83287539719014" lon="4.795692414967613"><ele>291.0</ele><time>2026-04-11T08:37:43.007Z</time></trkpt><trkpt lat="44.83294295046829" lon="4.795732110219615"><ele>291.0</ele><time>2026-04-11T08:37:48.007Z</time></trkpt><trkpt lat="44.83301219531063" lon="4.795774599899952"><ele>291.0</ele><time>2026-04-11T08:37:53.007Z</time></trkpt><trkpt lat="44.833078188224896" lon="4.795817532677432"><ele>291.0</ele><time>2026-04-11T08:37:58.007Z</time></trkpt><trkpt lat="44.833142037966944" lon="4.79585543370293"><ele>291.0</ele><time>2026-04-11T08:38:03.007Z</time></trkpt><trkpt lat="44.83320712978238" lon="4.795905100481703"><ele>291.0</ele><time>2026-04-11T08:38:08.007Z</time></trkpt><trkpt lat="44.83326966595691" lon="4.795949824178141"><ele>291.0</ele><time>2026-04-11T08:38:13.007Z</time></trkpt><trkpt lat="44.83334962660304" lon="4.79595528611706"><ele>291.0</ele><time>2026-04-11T08:40:09.007Z</time></trkpt><trkpt lat="44.833312917666994" lon="4.796031786946198"><ele>291.0</ele><time>2026-04-11T08:40:41.007Z</time></trkpt><trkpt lat="44.833367659821995" lon="4.796079270031283"><ele>291.0</ele><time>2026-04-11T08:42:27.007Z</time></trkpt><trkpt lat="44.833419871104745" lon="4.796132374342841"><ele>291.0</ele><time>2026-04-11T08:42:33.007Z</time></trkpt><trkpt lat="44.83348386881418" lon="4.796193317770491"><ele>291.0</ele><time>2026-04-11T08:42:39.007Z</time></trkpt><trkpt lat="44.83353954452037" lon="4.7962560832565035"><ele>291.0</ele><time>2026-04-11T08:42:44.007Z</time></trkpt><trkpt lat="44.83360253374257" lon="4.796297978337974"><ele>294.42857142857144</ele><time>2026-04-11T08:42:49.007Z</time></trkpt><trkpt lat="44.833660694847275" lon="4.79634793183834"><ele>297.85714285714283</ele><time>2026-04-11T08:42:54.007Z</time></trkpt><trkpt lat="44.83371814526258" lon="4.796412553192616"><ele>301.2857142857143</ele><time>2026-04-11T08:42:59.007Z</time></trkpt><trkpt lat="44.83377298308716" lon="4.79648917106365"><ele>304.7142857142857</ele><time>2026-04-11T08:43:04.007Z</time></trkpt><trkpt lat="44.83383523371059" lon="4.7965679452673085"><ele>308.1428571428571</ele><time>2026-04-11T08:43:09.007Z</time></trkpt><trkpt lat="44.8338869090144" lon="4.7966387093380085"><ele>311.57142857142856</ele><time>2026-04-11T08:43:14.007Z</time></trkpt><trkpt lat="44.83393814079995" lon="4.796698653375359"><ele>315.0</ele><time>2026-04-11T08:43:18.007Z</time></trkpt><trkpt lat="44.83398406411883" lon="4.7967707799912125"><ele>315.0</ele><time>2026-04-11T08:43:22.007Z</time></trkpt><trkpt lat="44.83403990292583" lon="4.796823467410228"><ele>315.0</ele><time>2026-04-11T08:43:26.007Z</time></trkpt><trkpt lat="44.834089451153794" lon="4.79689087265649"><ele>315.0</ele><time>2026-04-11T08:43:31.007Z</time></trkpt><trkpt lat="44.83413372282849" lon="4.796955669845186"><ele>315.0</ele><time>2026-04-11T08:43:35.007Z</time></trkpt><trkpt lat="44.83416827155411" lon="4.797053434209711"><ele>315.0</ele><time>2026-04-11T08:43:40.007Z</time></trkpt><trkpt lat="44.834164415139284" lon="4.797155444691524"><ele>315.0</ele><time>2026-04-11T08:43:44.007Z</time></trkpt><trkpt lat="44.83413055540033" lon="4.7972542837664784"><ele>315.0</ele><time>2026-04-11T08:43:49.006Z</time></trkpt><trkpt lat="44.834089179000884" lon="4.7973481340460085"><ele>316.0</ele><time>2026-04-11T08:43:54.006Z</time></trkpt><trkpt lat="44.83404592930809" lon="4.797435075734671"><ele>317.0</ele><time>2026-04-11T08:43:59.006Z</time></trkpt><trkpt lat="44.833998736345045" lon="4.79751680809125"><ele>318.0</ele><time>2026-04-11T08:44:04.006Z</time></trkpt><trkpt lat="44.83395642348483" lon="4.797596566391723"><ele>319.0</ele><time>2026-04-11T08:44:09.006Z</time></trkpt><trkpt lat="44.83391820640875" lon="4.797670025583617"><ele>320.0</ele><time>2026-04-11T08:44:13.006Z</time></trkpt><trkpt lat="44.83387905518182" lon="4.797744775156583"><ele>321.0</ele><time>2026-04-11T08:44:17.006Z</time></trkpt><trkpt lat="44.83383563737457" lon="4.7978277256193484"><ele>322.0</ele><time>2026-04-11T08:44:22.006Z</time></trkpt><trkpt lat="44.83379198694811" lon="4.797900765390769"><ele>321.2857142857143</ele><time>2026-04-11T08:44:26.006Z</time></trkpt><trkpt lat="44.83375260227855" lon="4.797977719580964"><ele>320.57142857142856</ele><time>2026-04-11T08:44:30.006Z</time></trkpt><trkpt lat="44.833705738954606" lon="4.798063122837114"><ele>319.8571428571429</ele><time>2026-04-11T08:44:35.006Z</time></trkpt><trkpt lat="44.833673655448315" lon="4.798152515857529"><ele>319.1428571428571</ele><time>2026-04-11T08:44:45.006Z</time></trkpt><trkpt lat="44.833648981987686" lon="4.798236642478128"><ele>318.42857142857144</ele><time>2026-04-11T08:44:52.006Z</time></trkpt><trkpt lat="44.833627224242925" lon="4.798333905564019"><ele>317.7142857142857</ele><time>2026-04-11T08:44:59.006Z</time></trkpt><trkpt lat="44.833614668187856" lon="4.798422515589381"><ele>317.0</ele><time>2026-04-11T08:45:05.006Z</time></trkpt><trkpt lat="44.83360599378936" lon="4.798514486607974"><ele>317.0</ele><time>2026-04-11T08:45:11.006Z</time></trkpt><trkpt lat="44.83360872005635" lon="4.798603869722628"><ele>317.0</ele><time>2026-04-11T08:45:17.006Z</time></trkpt><trkpt lat="44.833624346203266" lon="4.798698325536702"><ele>317.0</ele><time>2026-04-11T08:45:23.006Z</time></trkpt><trkpt lat="44.8336658288801" lon="4.798769741435734"><ele>317.0</ele><time>2026-04-11T08:45:30.006Z</time></trkpt><trkpt lat="44.83372665103126" lon="4.798823325200835"><ele>317.0</ele><time>2026-04-11T08:45:53.006Z</time></trkpt><trkpt lat="44.83379872685933" lon="4.798816475334085"><ele>317.0</ele><time>2026-04-11T08:46:00.006Z</time></trkpt><trkpt lat="44.833861808217534" lon="4.798774318125789"><ele>317.0</ele><time>2026-04-11T08:46:06.006Z</time></trkpt><trkpt lat="44.8339239660956" lon="4.798730972840028"><ele>317.0</ele><time>2026-04-11T08:46:12.006Z</time></trkpt><trkpt lat="44.833986467387675" lon="4.798696701495994"><ele>317.0</ele><time>2026-04-11T08:46:57.006Z</time></trkpt><trkpt lat="44.834044687644784" lon="4.798645183242883"><ele>317.0</ele><time>2026-04-11T08:47:03.006Z</time></trkpt><trkpt lat="44.834108944079" lon="4.7985891458032315"><ele>317.0</ele><time>2026-04-11T08:47:09.006Z</time></trkpt><trkpt lat="44.83416986146923" lon="4.798541556610552"><ele>317.0</ele><time>2026-04-11T08:47:15.006Z</time></trkpt><trkpt lat="44.83423754213321" lon="4.798507907398964"><ele>317.0</ele><time>2026-04-11T08:47:21.006Z</time></trkpt><trkpt lat="44.834307049790716" lon="4.79847499165916"><ele>317.0</ele><time>2026-04-11T08:47:27.006Z</time></trkpt><trkpt lat="44.83436536017433" lon="4.798438987908996"><ele>319.0</ele><time>2026-04-11T08:47:32.006Z</time></trkpt><trkpt lat="44.834426253995794" lon="4.79837990786071"><ele>321.0</ele><time>2026-04-11T08:47:38.006Z</time></trkpt><trkpt lat="44.83448172322367" lon="4.798312925271855"><ele>323.0</ele><time>2026-04-11T08:47:45.006Z</time></trkpt><trkpt lat="44.83453437546834" lon="4.798247577097296"><ele>325.0</ele><time>2026-04-11T08:47:51.006Z</time></trkpt><trkpt lat="44.83458339857183" lon="4.798186733165481"><ele>327.0</ele><time>2026-04-11T08:47:57.006Z</time></trkpt><trkpt lat="44.834633737021505" lon="4.798124256722998"><ele>329.0</ele><time>2026-04-11T08:48:03.006Z</time></trkpt><trkpt lat="44.83468249926117" lon="4.798063736563968"><ele>331.0</ele><time>2026-04-11T08:48:10.006Z</time></trkpt><trkpt lat="44.83473179029136" lon="4.798002560117692"><ele>331.0</ele><time>2026-04-11T08:48:17.006Z</time></trkpt><trkpt lat="44.83478506258437" lon="4.797934897669022"><ele>331.0</ele><time>2026-04-11T08:48:24.006Z</time></trkpt><trkpt lat="44.834833180486456" lon="4.797872845178324"><ele>331.0</ele><time>2026-04-11T08:48:31.006Z</time></trkpt><trkpt lat="44.83486095173479" lon="4.797786093818323"><ele>331.0</ele><time>2026-04-11T08:49:03.006Z</time></trkpt><trkpt lat="44.83491176719964" lon="4.7977134035404285"><ele>331.0</ele><time>2026-04-11T08:49:10.006Z</time></trkpt><trkpt lat="44.83496906732013" lon="4.797655933118451"><ele>331.0</ele><time>2026-04-11T08:49:17.007Z</time></trkpt><trkpt lat="44.83502394439233" lon="4.797598149854288"><ele>331.0</ele><time>2026-04-11T08:49:23.007Z</time></trkpt><trkpt lat="44.83506165465598" lon="4.79751793506537"><ele>332.7142857142857</ele><time>2026-04-11T08:49:30.007Z</time></trkpt><trkpt lat="44.83510325144828" lon="4.797451110709045"><ele>334.42857142857144</ele><time>2026-04-11T08:50:05.007Z</time></trkpt><trkpt lat="44.83514304772101" lon="4.7973649303355925"><ele>336.1428571428571</ele><time>2026-04-11T08:50:11.007Z</time></trkpt><trkpt lat="44.8351810786096" lon="4.797273392559922"><ele>337.8571428571429</ele><time>2026-04-11T08:50:17.006Z</time></trkpt><trkpt lat="44.835220468065465" lon="4.797201419358895"><ele>339.57142857142856</ele><time>2026-04-11T08:50:22.007Z</time></trkpt><trkpt lat="44.8352584525406" lon="4.797127790313349"><ele>341.2857142857143</ele><time>2026-04-11T08:50:28.007Z</time></trkpt><trkpt lat="44.83529982080068" lon="4.797055026464404"><ele>343.0</ele><time>2026-04-11T08:50:34.007Z</time></trkpt><trkpt lat="44.83535311611201" lon="4.796991277850046"><ele>345.2857142857143</ele><time>2026-04-11T08:50:40.007Z</time></trkpt><trkpt lat="44.83541402176691" lon="4.796956399173261"><ele>347.57142857142856</ele><time>2026-04-11T08:50:47.007Z</time></trkpt><trkpt lat="44.83548699797303" lon="4.796964059966884"><ele>349.8571428571429</ele><time>2026-04-11T08:51:14.007Z</time></trkpt><trkpt lat="44.83554162775164" lon="4.797025200426272"><ele>352.1428571428571</ele><time>2026-04-11T08:51:20.007Z</time></trkpt><trkpt lat="44.835592077428956" lon="4.797081769664677"><ele>354.42857142857144</ele><time>2026-04-11T08:51:25.007Z</time></trkpt><trkpt lat="44.83564483219524" lon="4.797142444209385"><ele>356.7142857142857</ele><time>2026-04-11T08:51:31.007Z</time></trkpt><trkpt lat="44.83571059000916" lon="4.797171576230136"><ele>359.0</ele><time>2026-04-11T08:51:39.007Z</time></trkpt><trkpt lat="44.83578231670055" lon="4.797165621030426"><ele>359.0</ele><time>2026-04-11T08:51:44.007Z</time></trkpt><trkpt lat="44.83585141234981" lon="4.7971197461216555"><ele>359.0</ele><time>2026-04-11T08:51:49.007Z</time></trkpt><trkpt lat="44.83590213424217" lon="4.797052621953512"><ele>359.0</ele><time>2026-04-11T08:51:55.007Z</time></trkpt><trkpt lat="44.835947787182306" lon="4.796988517264635"><ele>359.0</ele><time>2026-04-11T08:52:01.007Z</time></trkpt><trkpt lat="44.835994191880445" lon="4.796918847682132"><ele>359.0</ele><time>2026-04-11T08:52:06.007Z</time></trkpt><trkpt lat="44.83603966530947" lon="4.796852046842293"><ele>359.0</ele><time>2026-04-11T08:52:23.007Z</time></trkpt><trkpt lat="44.83608717010816" lon="4.796782103683167"><ele>359.0</ele><time>2026-04-11T08:52:33.007Z</time></trkpt><trkpt lat="44.83614563662887" lon="4.796708794102349"><ele>360.2857142857143</ele><time>2026-04-11T08:52:40.007Z</time></trkpt><trkpt lat="44.836202028106726" lon="4.7966588511851205"><ele>361.57142857142856</ele><time>2026-04-11T08:52:46.007Z</time></trkpt><trkpt lat="44.836271805511856" lon="4.79662968010041"><ele>362.8571428571429</ele><time>2026-04-11T08:52:53.007Z</time></trkpt><trkpt lat="44.8363419338326" lon="4.796619843658335"><ele>364.1428571428571</ele><time>2026-04-11T08:52:59.007Z</time></trkpt><trkpt lat="44.836408745417" lon="4.796598817393415"><ele>365.4285714285714</ele><time>2026-04-11T08:53:04.007Z</time></trkpt><trkpt lat="44.83646982662773" lon="4.796566738651095"><ele>366.7142857142857</ele><time>2026-04-11T08:53:09.007Z</time></trkpt><trkpt lat="44.83652860517429" lon="4.796528763889982"><ele>368.0</ele><time>2026-04-11T08:53:16.007Z</time></trkpt><trkpt lat="44.83659022558259" lon="4.7964812897489075"><ele>368.0</ele><time>2026-04-11T08:55:44.007Z</time></trkpt><trkpt lat="44.8366418410026" lon="4.796430107321964"><ele>368.0</ele><time>2026-04-11T08:55:48.007Z</time></trkpt><trkpt lat="44.83669693847396" lon="4.7963684136960865"><ele>368.0</ele><time>2026-04-11T08:55:52.007Z</time></trkpt><trkpt lat="44.83674721388952" lon="4.7963090547163505"><ele>368.0</ele><time>2026-04-11T08:55:56.007Z</time></trkpt><trkpt lat="44.83680749337184" lon="4.796262000183386"><ele>368.0</ele><time>2026-04-11T08:56:00.007Z</time></trkpt><trkpt lat="44.83687154375773" lon="4.796221188186033"><ele>368.0</ele><time>2026-04-11T08:56:04.007Z</time></trkpt><trkpt lat="44.83693544046473" lon="4.796180271306261"><ele>368.0</ele><time>2026-04-11T08:56:09.007Z</time></trkpt><trkpt lat="44.83699902210747" lon="4.796136476917594"><ele>368.42857142857144</ele><time>2026-04-11T08:56:13.007Z</time></trkpt><trkpt lat="44.837059952260404" lon="4.796068856305256"><ele>368.85714285714283</ele><time>2026-04-11T08:56:18.007Z</time></trkpt><trkpt lat="44.83712388714539" lon="4.7960101220962255"><ele>369.2857142857143</ele><time>2026-04-11T08:56:23.007Z</time></trkpt><trkpt lat="44.83719093720923" lon="4.795963381068386"><ele>369.7142857142857</ele><time>2026-04-11T08:56:27.006Z</time></trkpt><trkpt lat="44.83723914820017" lon="4.795903501379791"><ele>370.1428571428571</ele><time>2026-04-11T08:56:31.007Z</time></trkpt><trkpt lat="44.83729333515733" lon="4.795840783495299"><ele>370.57142857142856</ele><time>2026-04-11T08:56:36.006Z</time></trkpt><trkpt lat="44.837349915675155" lon="4.795767449106545"><ele>371.0</ele><time>2026-04-11T08:56:41.006Z</time></trkpt><trkpt lat="44.83739842951514" lon="4.795686617590865"><ele>371.0</ele><time>2026-04-11T08:56:44.006Z</time></trkpt><trkpt lat="44.83744149507613" lon="4.795570748983362"><ele>371.0</ele><time>2026-04-11T08:56:47.006Z</time></trkpt><trkpt lat="44.83746239299995" lon="4.7954730801257455"><ele>371.0</ele><time>2026-04-11T08:56:49.006Z</time></trkpt><trkpt lat="44.83748723738165" lon="4.79535360648776"><ele>371.0</ele><time>2026-04-11T08:56:51.006Z</time></trkpt><trkpt lat="44.8375074621034" lon="4.795236198482349"><ele>371.0</ele><time>2026-04-11T08:56:53.006Z</time></trkpt><trkpt lat="44.83753162811423" lon="4.795125106745169"><ele>371.0</ele><time>2026-04-11T08:56:55.006Z</time></trkpt><trkpt lat="44.83756373452124" lon="4.795015612376529"><ele>371.42857142857144</ele><time>2026-04-11T08:56:57.006Z</time></trkpt><trkpt lat="44.837600144335525" lon="4.794923491175901"><ele>371.8571428571429</ele><time>2026-04-11T08:56:59.006Z</time></trkpt><trkpt lat="44.837633965531005" lon="4.794848475981635"><ele>372.2857142857143</ele><time>2026-04-11T08:57:01.006Z</time></trkpt><trkpt lat="44.8376867973257" lon="4.794765137176085"><ele>372.7142857142857</ele><time>2026-04-11T08:57:04.006Z</time></trkpt><trkpt lat="44.83772461264802" lon="4.794690188122734"><ele>373.14285714285717</ele><time>2026-04-11T08:57:07.006Z</time></trkpt><trkpt lat="44.837787005991146" lon="4.794608390082276"><ele>373.57142857142856</ele><time>2026-04-11T08:57:10.006Z</time></trkpt><trkpt lat="44.83784229446147" lon="4.794535601770532"><ele>374.0</ele><time>2026-04-11T08:57:13.006Z</time></trkpt><trkpt lat="44.83788728374838" lon="4.794446292109231"><ele>374.85714285714283</ele><time>2026-04-11T08:57:16.006Z</time></trkpt><trkpt lat="44.83792731024246" lon="4.794359572299531"><ele>375.7142857142857</ele><time>2026-04-11T08:57:19.006Z</time></trkpt><trkpt lat="44.837963856769875" lon="4.794265376910929"><ele>376.57142857142856</ele><time>2026-04-11T08:57:22.006Z</time></trkpt><trkpt lat="44.8379954002212" lon="4.794182845420188"><ele>377.42857142857144</ele><time>2026-04-11T08:57:25.006Z</time></trkpt><trkpt lat="44.838035399205054" lon="4.794098368514556"><ele>378.28571428571433</ele><time>2026-04-11T08:57:29.006Z</time></trkpt><trkpt lat="44.8380699834079" lon="4.794016144974002"><ele>379.14285714285717</ele><time>2026-04-11T08:57:33.007Z</time></trkpt><trkpt lat="44.83811435474885" lon="4.793914960507015"><ele>380.0</ele><time>2026-04-11T08:57:37.007Z</time></trkpt><trkpt lat="44.838164371178735" lon="4.793831676948675"><ele>380.0</ele><time>2026-04-11T08:57:41.007Z</time></trkpt><trkpt lat="44.838199559737056" lon="4.793741241593727"><ele>380.0</ele><time>2026-04-11T08:57:45.007Z</time></trkpt><trkpt lat="44.83824628071182" lon="4.793675832555367"><ele>380.0</ele><time>2026-04-11T08:57:48.007Z</time></trkpt><trkpt lat="44.83829410904603" lon="4.793589134485122"><ele>380.0</ele><time>2026-04-11T08:57:52.007Z</time></trkpt><trkpt lat="44.8383361322006" lon="4.793510906699191"><ele>380.0</ele><time>2026-04-11T08:57:56.007Z</time></trkpt><trkpt lat="44.838375296335414" lon="4.793438869019341"><ele>380.0</ele><time>2026-04-11T08:58:00.007Z</time></trkpt><trkpt lat="44.83839915579282" lon="4.793344970101051"><ele>380.0</ele><time>2026-04-11T08:58:04.007Z</time></trkpt><trkpt lat="44.838435598668084" lon="4.793252718920406"><ele>382.42857142857144</ele><time>2026-04-11T08:58:09.007Z</time></trkpt><trkpt lat="44.8384879861586" lon="4.7931715075645025"><ele>384.8571428571429</ele><time>2026-04-11T08:58:14.007Z</time></trkpt><trkpt lat="44.838542502498846" lon="4.793094757239066"><ele>387.2857142857143</ele><time>2026-04-11T08:58:18.007Z</time></trkpt><trkpt lat="44.8386184338472" lon="4.7930399378789765"><ele>389.7142857142857</ele><time>2026-04-11T08:58:23.007Z</time></trkpt><trkpt lat="44.83867545562579" lon="4.792985040493416"><ele>392.1428571428571</ele><time>2026-04-11T08:58:27.007Z</time></trkpt><trkpt lat="44.83872572236337" lon="4.792915802312792"><ele>394.57142857142856</ele><time>2026-04-11T08:58:32.006Z</time></trkpt><trkpt lat="44.838774140019666" lon="4.792848526627967"><ele>397.0</ele><time>2026-04-11T08:58:36.006Z</time></trkpt><trkpt lat="44.83882968911313" lon="4.792770503090171"><ele>397.00000000000006</ele><time>2026-04-11T08:58:41.006Z</time></trkpt><trkpt lat="44.83887695465126" lon="4.792703764337153"><ele>397.0</ele><time>2026-04-11T08:58:45.006Z</time></trkpt><trkpt lat="44.838927340972155" lon="4.7926286637343205"><ele>397.0</ele><time>2026-04-11T08:58:49.006Z</time></trkpt><trkpt lat="44.83898188561569" lon="4.792547099415849"><ele>397.0</ele><time>2026-04-11T08:58:53.006Z</time></trkpt><trkpt lat="44.83902700064857" lon="4.7924600128319925"><ele>397.00000000000006</ele><time>2026-04-11T08:58:57.006Z</time></trkpt><trkpt lat="44.83907532941892" lon="4.792365507439869"><ele>397.0</ele><time>2026-04-11T08:59:01.006Z</time></trkpt><trkpt lat="44.83911416946693" lon="4.792275655759871"><ele>397.57142857142856</ele><time>2026-04-11T08:59:05.006Z</time></trkpt><trkpt lat="44.83914791440884" lon="4.792184744177518"><ele>398.1428571428571</ele><time>2026-04-11T08:59:09.006Z</time></trkpt><trkpt lat="44.83917138980765" lon="4.792096184095739"><ele>398.7142857142857</ele><time>2026-04-11T08:59:13.006Z</time></trkpt><trkpt lat="44.83918922472405" lon="4.792001932306794"><ele>399.2857142857143</ele><time>2026-04-11T08:59:17.006Z</time></trkpt><trkpt lat="44.83920142604552" lon="4.7919046511707455"><ele>399.8571428571429</ele><time>2026-04-11T08:59:21.006Z</time></trkpt><trkpt lat="44.8392059701887" lon="4.791807270153506"><ele>400.42857142857144</ele><time>2026-04-11T08:59:25.006Z</time></trkpt><trkpt lat="44.83920400009802" lon="4.791708263022816"><ele>401.0</ele><time>2026-04-11T08:59:29.006Z</time></trkpt><trkpt lat="44.83920270215751" lon="4.791608810099856"><ele>401.2857142857143</ele><time>2026-04-11T08:59:33.006Z</time></trkpt><trkpt lat="44.83919871415459" lon="4.791508995147006"><ele>401.57142857142856</ele><time>2026-04-11T08:59:37.006Z</time></trkpt><trkpt lat="44.8391959671733" lon="4.791415039044761"><ele>401.8571428571429</ele><time>2026-04-11T08:59:41.006Z</time></trkpt><trkpt lat="44.83919845664181" lon="4.791311348990374"><ele>402.1428571428571</ele><time>2026-04-11T08:59:46.006Z</time></trkpt><trkpt lat="44.83917898277267" lon="4.791225157176015"><ele>402.4285714285714</ele><time>2026-04-11T09:00:21.006Z</time></trkpt><trkpt lat="44.83920502989677" lon="4.791121655518389"><ele>402.7142857142857</ele><time>2026-04-11T09:00:25.006Z</time></trkpt><trkpt lat="44.83924136276717" lon="4.791033180602681"><ele>403.0</ele><time>2026-04-11T09:00:29.006Z</time></trkpt><trkpt lat="44.839285712830666" lon="4.790968361406996"><ele>402.2857142857143</ele><time>2026-04-11T09:00:32.006Z</time></trkpt><trkpt lat="44.839336800452955" lon="4.790914773260267"><ele>401.57142857142856</ele><time>2026-04-11T09:00:35.006Z</time></trkpt><trkpt lat="44.839400819009825" lon="4.79087008481481"><ele>400.85714285714283</ele><time>2026-04-11T09:00:38.006Z</time></trkpt><trkpt lat="44.839486478568226" lon="4.790815119304502"><ele>400.1428571428571</ele><time>2026-04-11T09:00:41.006Z</time></trkpt><trkpt lat="44.83955283182674" lon="4.7907773722168905"><ele>399.42857142857144</ele><time>2026-04-11T09:00:43.005Z</time></trkpt><trkpt lat="44.839618961372516" lon="4.790739879107612"><ele>398.71428571428567</ele><time>2026-04-11T09:00:45.005Z</time></trkpt><trkpt lat="44.839681024319304" lon="4.790706079778036"><ele>398.0</ele><time>2026-04-11T09:00:47.006Z</time></trkpt><trkpt lat="44.839742562567544" lon="4.79067256619952"><ele>397.99999999999994</ele><time>2026-04-11T09:00:49.005Z</time></trkpt><trkpt lat="44.8398350180728" lon="4.79061710747915"><ele>398.0</ele><time>2026-04-11T09:00:52.005Z</time></trkpt><trkpt lat="44.83992135552115" lon="4.790579948186912"><ele>398.0</ele><time>2026-04-11T09:00:55.005Z</time></trkpt><trkpt lat="44.84001425195264" lon="4.790555651458454"><ele>398.0</ele><time>2026-04-11T09:00:58.005Z</time></trkpt><trkpt lat="44.84008612337708" lon="4.7905355681065895"><ele>397.99999999999994</ele><time>2026-04-11T09:01:01.005Z</time></trkpt><trkpt lat="44.84017046015138" lon="4.790506811925776"><ele>398.0</ele><time>2026-04-11T09:01:04.005Z</time></trkpt><trkpt lat="44.84024202500196" lon="4.790468630458368"><ele>396.8333333333333</ele><time>2026-04-11T09:01:06.005Z</time></trkpt><trkpt lat="44.84031484868127" lon="4.790410149989619"><ele>395.66666666666663</ele><time>2026-04-11T09:01:08.005Z</time></trkpt><trkpt lat="44.8403865676383" lon="4.790336003383339"><ele>394.5</ele><time>2026-04-11T09:01:10.005Z</time></trkpt><trkpt lat="44.84044866479095" lon="4.790267691815874"><ele>393.33333333333337</ele><time>2026-04-11T09:01:12.005Z</time></trkpt><trkpt lat="44.840502316220295" lon="4.7901878197621635"><ele>392.1666666666667</ele><time>2026-04-11T09:01:14.005Z</time></trkpt><trkpt lat="44.84054991794097" lon="4.790106911136756"><ele>391.0</ele><time>2026-04-11T09:01:16.005Z</time></trkpt><trkpt lat="44.84059666276952" lon="4.790038256443062"><ele>391.00000000000006</ele><time>2026-04-11T09:01:18.005Z</time></trkpt><trkpt lat="44.84065170484812" lon="4.78993663929578"><ele>391.0</ele><time>2026-04-11T09:01:21.005Z</time></trkpt><trkpt lat="44.840688731821686" lon="4.7898644599548765"><ele>391.0</ele><time>2026-04-11T09:01:23.005Z</time></trkpt><trkpt lat="44.84074336815429" lon="4.789770976539266"><ele>391.0</ele><time>2026-04-11T09:01:26.005Z</time></trkpt><trkpt lat="44.840802702923135" lon="4.789676943794153"><ele>391.00000000000006</ele><time>2026-04-11T09:01:29.005Z</time></trkpt><trkpt lat="44.84087006843919" lon="4.789618262776517"><ele>391.0</ele><time>2026-04-11T09:01:32.005Z</time></trkpt><trkpt lat="44.84093924939275" lon="4.789559658131103"><ele>391.33333333333337</ele><time>2026-04-11T09:01:35.005Z</time></trkpt><trkpt lat="44.841000881610306" lon="4.789503675550053"><ele>391.6666666666667</ele><time>2026-04-11T09:01:38.005Z</time></trkpt><trkpt lat="44.84108327306349" lon="4.789482004000789"><ele>392.0</ele><time>2026-04-11T09:01:41.005Z</time></trkpt><trkpt lat="44.84115576152222" lon="4.789445113329261"><ele>392.33333333333337</ele><time>2026-04-11T09:01:44.005Z</time></trkpt><trkpt lat="44.841226288424224" lon="4.789405654463688"><ele>392.6666666666667</ele><time>2026-04-11T09:01:47.005Z</time></trkpt><trkpt lat="44.84128018647576" lon="4.789359284651697"><ele>393.0</ele><time>2026-04-11T09:01:50.005Z</time></trkpt><trkpt lat="44.84135762313455" lon="4.7893207115461935"><ele>393.0</ele><time>2026-04-11T09:01:53.005Z</time></trkpt><trkpt lat="44.84141774555297" lon="4.789277083550276"><ele>393.0</ele><time>2026-04-11T09:01:55.005Z</time></trkpt><trkpt lat="44.841502331938514" lon="4.789231440200691"><ele>393.0</ele><time>2026-04-11T09:01:58.005Z</time></trkpt><trkpt lat="44.841581597502305" lon="4.789183635746963"><ele>393.0</ele><time>2026-04-11T09:02:01.006Z</time></trkpt><trkpt lat="44.84163902195256" lon="4.789143294165387"><ele>393.0</ele><time>2026-04-11T09:02:15.006Z</time></trkpt><trkpt lat="44.84170755228739" lon="4.789069878888982"><ele>393.0</ele><time>2026-04-11T09:02:57.005Z</time></trkpt><trkpt lat="44.84176022550529" lon="4.789017823023113"><ele>392.0</ele><time>2026-04-11T09:03:00.005Z</time></trkpt><trkpt lat="44.841825913594505" lon="4.788918036140345"><ele>391.0</ele><time>2026-04-11T09:03:03.005Z</time></trkpt><trkpt lat="44.84189073387812" lon="4.788824148938953"><ele>390.0</ele><time>2026-04-11T09:03:05.005Z</time></trkpt><trkpt lat="44.84195054381386" lon="4.788716901404419"><ele>389.0</ele><time>2026-04-11T09:03:07.005Z</time></trkpt><trkpt lat="44.8420179445009" lon="4.788605745945748"><ele>388.0</ele><time>2026-04-11T09:03:09.005Z</time></trkpt><trkpt lat="44.84208117514837" lon="4.788484424982743"><ele>388.00000000000006</ele><time>2026-04-11T09:03:11.005Z</time></trkpt><trkpt lat="44.84213860015322" lon="4.788382215135566"><ele>388.0</ele><time>2026-04-11T09:03:13.005Z</time></trkpt><trkpt lat="44.84219974078622" lon="4.788277581904842"><ele>388.0</ele><time>2026-04-11T09:03:15.005Z</time></trkpt><trkpt lat="44.842247914834296" lon="4.788177737789543"><ele>388.0</ele><time>2026-04-11T09:03:17.005Z</time></trkpt><trkpt lat="44.8422990480785" lon="4.788100082524596"><ele>388.00000000000006</ele><time>2026-04-11T09:03:19.005Z</time></trkpt><trkpt lat="44.84235002319031" lon="4.788034268358892"><ele>388.0</ele><time>2026-04-11T09:03:21.005Z</time></trkpt><trkpt lat="44.84241540416665" lon="4.787950908783687"><ele>388.0</ele><time>2026-04-11T09:03:24.005Z</time></trkpt><trkpt lat="44.84246416159516" lon="4.787891714149975"><ele>388.0</ele><time>2026-04-11T09:03:26.005Z</time></trkpt><trkpt lat="44.84252491830098" lon="4.787821878583411"><ele>388.0</ele><time>2026-04-11T09:03:29.005Z</time></trkpt><trkpt lat="44.84257635242532" lon="4.787758748122191"><ele>388.0</ele><time>2026-04-11T09:03:32.005Z</time></trkpt><trkpt lat="44.84262243080472" lon="4.787666531310682"><ele>388.0</ele><time>2026-04-11T09:03:36.005Z</time></trkpt><trkpt lat="44.84266915629724" lon="4.787600462546866"><ele>388.0</ele><time>2026-04-11T09:03:39.005Z</time></trkpt><trkpt lat="44.84272243406488" lon="4.7875280335349295"><ele>388.0</ele><time>2026-04-11T09:03:42.005Z</time></trkpt><trkpt lat="44.84277016277522" lon="4.787446093424972"><ele>387.1428571428571</ele><time>2026-04-11T09:03:45.005Z</time></trkpt><trkpt lat="44.84281796105292" lon="4.787365703215873"><ele>386.28571428571433</ele><time>2026-04-11T09:03:48.005Z</time></trkpt><trkpt lat="44.842862281593476" lon="4.787278340259727"><ele>385.42857142857144</ele><time>2026-04-11T09:03:51.006Z</time></trkpt><trkpt lat="44.842905671782006" lon="4.787199582963363"><ele>384.57142857142856</ele><time>2026-04-11T09:03:55.006Z</time></trkpt><trkpt lat="44.84295535307267" lon="4.787116290035599"><ele>383.71428571428567</ele><time>2026-04-11T09:03:59.006Z</time></trkpt><trkpt lat="44.84300158505802" lon="4.7870351827075615"><ele>382.8571428571429</ele><time>2026-04-11T09:04:03.006Z</time></trkpt><trkpt lat="44.84304199688719" lon="4.786965970918336"><ele>382.0</ele><time>2026-04-11T09:04:06.006Z</time></trkpt><trkpt lat="44.84308345094005" lon="4.786878554064586"><ele>383.7142857142857</ele><time>2026-04-11T09:04:10.006Z</time></trkpt><trkpt lat="44.84313104767817" lon="4.786795850202877"><ele>385.4285714285714</ele><time>2026-04-11T09:04:14.006Z</time></trkpt><trkpt lat="44.843176142981655" lon="4.7867136658601765"><ele>387.1428571428571</ele><time>2026-04-11T09:04:18.006Z</time></trkpt><trkpt lat="44.843223614281754" lon="4.786647198264426"><ele>388.8571428571429</ele><time>2026-04-11T09:04:22.006Z</time></trkpt><trkpt lat="44.843263904907694" lon="4.786563886669404"><ele>390.57142857142856</ele><time>2026-04-11T09:04:26.006Z</time></trkpt><trkpt lat="44.843307718147" lon="4.786473160548406"><ele>392.2857142857143</ele><time>2026-04-11T09:04:30.006Z</time></trkpt><trkpt lat="44.843356610408044" lon="4.7864073196247094"><ele>394.0</ele><time>2026-04-11T09:04:34.006Z</time></trkpt><trkpt lat="44.84340940518099" lon="4.786347946780987"><ele>394.57142857142856</ele><time>2026-04-11T09:04:38.006Z</time></trkpt><trkpt lat="44.84346514718456" lon="4.7862837257567366"><ele>395.14285714285717</ele><time>2026-04-11T09:04:42.006Z</time></trkpt><trkpt lat="44.84350971822887" lon="4.786220634345344"><ele>395.71428571428567</ele><time>2026-04-11T09:04:46.006Z</time></trkpt><trkpt lat="44.84356778357513" lon="4.78615753136092"><ele>396.2857142857143</ele><time>2026-04-11T09:04:50.005Z</time></trkpt><trkpt lat="44.843624480814874" lon="4.786101397516432"><ele>396.85714285714283</ele><time>2026-04-11T09:04:54.005Z</time></trkpt><trkpt lat="44.84368631990081" lon="4.786045142107887"><ele>397.4285714285714</ele><time>2026-04-11T09:04:58.006Z</time></trkpt><trkpt lat="44.84374387222559" lon="4.7859979720931705"><ele>398.0</ele><time>2026-04-11T09:05:02.005Z</time></trkpt><trkpt lat="44.843801045556845" lon="4.785956040959116"><ele>398.85714285714283</ele><time>2026-04-11T09:05:12.005Z</time></trkpt><trkpt lat="44.84385934540479" lon="4.7859112835530615"><ele>399.7142857142857</ele><time>2026-04-11T09:05:19.005Z</time></trkpt><trkpt lat="44.843921783447215" lon="4.7858906056117245"><ele>400.57142857142856</ele><time>2026-04-11T09:05:25.005Z</time></trkpt><trkpt lat="44.84398540796013" lon="4.785858775369974"><ele>401.42857142857144</ele><time>2026-04-11T09:05:31.005Z</time></trkpt><trkpt lat="44.84404432999035" lon="4.78582650947784"><ele>402.2857142857143</ele><time>2026-04-11T09:05:37.005Z</time></trkpt><trkpt lat="44.84410727938326" lon="4.785788494935747"><ele>403.1428571428571</ele><time>2026-04-11T09:05:43.005Z</time></trkpt><trkpt lat="44.84417071749592" lon="4.785755660021637"><ele>404.0</ele><time>2026-04-11T09:05:49.005Z</time></trkpt><trkpt lat="44.84423233600219" lon="4.785718638146845"><ele>404.0</ele><time>2026-04-11T09:05:55.005Z</time></trkpt><trkpt lat="44.84429479013105" lon="4.785689740992768"><ele>404.0</ele><time>2026-04-11T09:06:01.005Z</time></trkpt><trkpt lat="44.84436034488283" lon="4.785658487316704"><ele>404.0</ele><time>2026-04-11T09:06:07.005Z</time></trkpt><trkpt lat="44.84443530333144" lon="4.785629666085885"><ele>404.0</ele><time>2026-04-11T09:06:13.005Z</time></trkpt><trkpt lat="44.84450534467536" lon="4.785616859537145"><ele>404.0</ele><time>2026-04-11T09:06:19.006Z</time></trkpt><trkpt lat="44.84457163315542" lon="4.785608023406251"><ele>404.0</ele><time>2026-04-11T09:07:06.005Z</time></trkpt><trkpt lat="44.84464756260493" lon="4.785625152168259"><ele>404.0</ele><time>2026-04-11T09:07:10.005Z</time></trkpt><trkpt lat="44.8447096858113" lon="4.785646984365809"><ele>405.2857142857143</ele><time>2026-04-11T09:07:13.005Z</time></trkpt><trkpt lat="44.84478755545892" lon="4.785675494587035"><ele>406.57142857142856</ele><time>2026-04-11T09:07:17.005Z</time></trkpt><trkpt lat="44.84487139120417" lon="4.785688495821141"><ele>407.8571428571429</ele><time>2026-04-11T09:07:21.005Z</time></trkpt><trkpt lat="44.84493636678787" lon="4.78569913661283"><ele>409.1428571428571</ele><time>2026-04-11T09:07:24.005Z</time></trkpt><trkpt lat="44.845001390321" lon="4.785704518234671"><ele>410.42857142857144</ele><time>2026-04-11T09:07:27.005Z</time></trkpt><trkpt lat="44.84507061835457" lon="4.785708114743919"><ele>411.7142857142857</ele><time>2026-04-11T09:07:30.005Z</time></trkpt><trkpt lat="44.84513334940592" lon="4.785690871885222"><ele>413.0</ele><time>2026-04-11T09:07:33.005Z</time></trkpt><trkpt lat="44.845197084749465" lon="4.7856774400763795"><ele>413.0</ele><time>2026-04-11T09:07:36.005Z</time></trkpt><trkpt lat="44.84527653810068" lon="4.785658766471808"><ele>413.0</ele><time>2026-04-11T09:07:40.005Z</time></trkpt><trkpt lat="44.84533883639109" lon="4.785635908140181"><ele>413.0</ele><time>2026-04-11T09:07:43.005Z</time></trkpt><trkpt lat="44.845400587036394" lon="4.785613348786238"><ele>413.0</ele><time>2026-04-11T09:07:46.005Z</time></trkpt><trkpt lat="44.84547676441263" lon="4.785569100878555"><ele>413.0</ele><time>2026-04-11T09:07:50.005Z</time></trkpt><trkpt lat="44.84554295592512" lon="4.7855181294478495"><ele>413.0</ele><time>2026-04-11T09:07:54.005Z</time></trkpt><trkpt lat="44.845600333968164" lon="4.785461059091101"><ele>413.0</ele><time>2026-04-11T09:07:58.005Z</time></trkpt><trkpt lat="44.84565474172656" lon="4.785408296522464"><ele>413.0</ele><time>2026-04-11T09:08:02.005Z</time></trkpt><trkpt lat="44.84572067755427" lon="4.785359887774536"><ele>413.0</ele><time>2026-04-11T09:08:06.005Z</time></trkpt><trkpt lat="44.8457917512358" lon="4.785308923863983"><ele>413.0</ele><time>2026-04-11T09:08:10.005Z</time></trkpt><trkpt lat="44.845856508269875" lon="4.785268590123073"><ele>413.0</ele><time>2026-04-11T09:08:14.005Z</time></trkpt><trkpt lat="44.84592737701324" lon="4.785224283984374"><ele>413.0</ele><time>2026-04-11T09:08:18.005Z</time></trkpt><trkpt lat="44.8459958660947" lon="4.7851854709738255"><ele>413.0</ele><time>2026-04-11T09:08:22.005Z</time></trkpt><trkpt lat="44.8460587573016" lon="4.785151243564512"><ele>413.0</ele><time>2026-04-11T09:08:26.005Z</time></trkpt><trkpt lat="44.846112842992554" lon="4.785090607904282"><ele>415.14285714285717</ele><time>2026-04-11T09:08:30.005Z</time></trkpt><trkpt lat="44.84618027596141" lon="4.785040438192337"><ele>417.2857142857143</ele><time>2026-04-11T09:08:35.005Z</time></trkpt><trkpt lat="44.84624031900426" lon="4.785007463924284"><ele>419.42857142857144</ele><time>2026-04-11T09:08:39.005Z</time></trkpt><trkpt lat="44.84630073115889" lon="4.784970148070715"><ele>421.57142857142856</ele><time>2026-04-11T09:08:43.005Z</time></trkpt><trkpt lat="44.84637476931142" lon="4.784936016392793"><ele>423.7142857142857</ele><time>2026-04-11T09:08:48.005Z</time></trkpt><trkpt lat="44.846440987956974" lon="4.78491077613675"><ele>425.8571428571429</ele><time>2026-04-11T09:08:52.005Z</time></trkpt><trkpt lat="44.84650662780877" lon="4.784888603504814"><ele>428.0</ele><time>2026-04-11T09:08:56.005Z</time></trkpt><trkpt lat="44.84657053174206" lon="4.784872930567458"><ele>428.00000000000006</ele><time>2026-04-11T09:09:01.005Z</time></trkpt><trkpt lat="44.84663182790008" lon="4.784850058234174"><ele>428.0</ele><time>2026-04-11T09:09:05.005Z</time></trkpt><trkpt lat="44.84669390145104" lon="4.7848186286677095"><ele>428.0</ele><time>2026-04-11T09:09:10.005Z</time></trkpt><trkpt lat="44.846757713532554" lon="4.784797188692499"><ele>428.0</ele><time>2026-04-11T09:09:15.005Z</time></trkpt><trkpt lat="44.84682904271818" lon="4.7847751589434"><ele>428.0</ele><time>2026-04-11T09:09:20.005Z</time></trkpt><trkpt lat="44.84689299463967" lon="4.784750106438183"><ele>428.00000000000006</ele><time>2026-04-11T09:09:24.005Z</time></trkpt><trkpt lat="44.84696276638256" lon="4.784722221214734"><ele>428.0</ele><time>2026-04-11T09:09:28.005Z</time></trkpt><trkpt lat="44.847032678696436" lon="4.784692201033533"><ele>429.14285714285717</ele><time>2026-04-11T09:09:32.005Z</time></trkpt><trkpt lat="44.8470986727744" lon="4.784661723321217"><ele>430.2857142857143</ele><time>2026-04-11T09:09:36.005Z</time></trkpt><trkpt lat="44.84716451891182" lon="4.784630458618948"><ele>431.42857142857144</ele><time>2026-04-11T09:09:40.005Z</time></trkpt><trkpt lat="44.84723193565346" lon="4.784597707872096"><ele>432.57142857142856</ele><time>2026-04-11T09:09:44.005Z</time></trkpt><trkpt lat="44.84729760312153" lon="4.784564364455678"><ele>433.7142857142857</ele><time>2026-04-11T09:09:48.005Z</time></trkpt><trkpt lat="44.84737587945778" lon="4.7845222860249805"><ele>434.8571428571429</ele><time>2026-04-11T09:09:52.005Z</time></trkpt><trkpt lat="44.84743281719469" lon="4.784474294279411"><ele>436.0</ele><time>2026-04-11T09:09:55.005Z</time></trkpt><trkpt lat="44.84750891803676" lon="4.784421379435296"><ele>436.0</ele><time>2026-04-11T09:09:58.005Z</time></trkpt><trkpt lat="44.84757792546535" lon="4.784360727907443"><ele>436.0</ele><time>2026-04-11T09:10:01.005Z</time></trkpt><trkpt lat="44.84763763642101" lon="4.784293248107206"><ele>436.0</ele><time>2026-04-11T09:10:04.005Z</time></trkpt><trkpt lat="44.847691761662745" lon="4.784207117312617"><ele>436.0</ele><time>2026-04-11T09:10:08.005Z</time></trkpt><trkpt lat="44.847721215982375" lon="4.784124601278114"><ele>436.0</ele><time>2026-04-11T09:10:11.005Z</time></trkpt><trkpt lat="44.847741593836396" lon="4.784034629570649"><ele>436.0</ele><time>2026-04-11T09:10:14.005Z</time></trkpt><trkpt lat="44.84777371454393" lon="4.783948553648949"><ele>436.0</ele><time>2026-04-11T09:10:17.005Z</time></trkpt><trkpt lat="44.84780669315438" lon="4.7838406748759486"><ele>436.00000000000006</ele><time>2026-04-11T09:10:21.005Z</time></trkpt><trkpt lat="44.84783809729212" lon="4.7837284896107715"><ele>436.0</ele><time>2026-04-11T09:10:25.005Z</time></trkpt><trkpt lat="44.847852049649994" lon="4.7836358147637865"><ele>436.0</ele><time>2026-04-11T09:10:29.005Z</time></trkpt><trkpt lat="44.847884158000355" lon="4.783538309865889"><ele>436.0</ele><time>2026-04-11T09:10:33.005Z</time></trkpt><trkpt lat="44.84791961721957" lon="4.7834599985801125"><ele>436.00000000000006</ele><time>2026-04-11T09:10:37.005Z</time></trkpt><trkpt lat="44.84796290301836" lon="4.783377473085734"><ele>436.0</ele><time>2026-04-11T09:10:41.005Z</time></trkpt><trkpt lat="44.84801119747129" lon="4.783280317536755"><ele>436.0</ele><time>2026-04-11T09:10:45.005Z</time></trkpt><trkpt lat="44.848057776105115" lon="4.78321604212674"><ele>436.0</ele><time>2026-04-11T09:10:48.005Z</time></trkpt><trkpt lat="44.84811880271054" lon="4.783147239606473"><ele>436.0</ele><time>2026-04-11T09:10:52.005Z</time></trkpt><trkpt lat="44.84818373287472" lon="4.783068846061059"><ele>436.0</ele><time>2026-04-11T09:10:56.005Z</time></trkpt><trkpt lat="44.84824174633811" lon="4.782987350274147"><ele>436.0</ele><time>2026-04-11T09:10:59.005Z</time></trkpt><trkpt lat="44.84828861145849" lon="4.782922741785253"><ele>436.0</ele><time>2026-04-11T09:11:02.005Z</time></trkpt><trkpt lat="44.84834418845218" lon="4.782856655491145"><ele>436.0</ele><time>2026-04-11T09:12:57.998Z</time></trkpt><trkpt lat="44.84840007577188" lon="4.782765024318073"><ele>436.0</ele><time>2026-04-11T09:13:01.998Z</time></trkpt><trkpt lat="44.848442755189446" lon="4.782692020211616"><ele>436.0</ele><time>2026-04-11T09:13:04.997Z</time></trkpt><trkpt lat="44.84849240152736" lon="4.782616011872869"><ele>436.0</ele><time>2026-04-11T09:13:07.997Z</time></trkpt><trkpt lat="44.84853235385802" lon="4.782534699295028"><ele>436.0</ele><time>2026-04-11T09:13:10.995Z</time></trkpt><trkpt lat="44.848571599546226" lon="4.782464882524391"><ele>436.0</ele><time>2026-04-11T09:13:13.995Z</time></trkpt><trkpt lat="44.84859807581877" lon="4.7823753082005265"><ele>436.0</ele><time>2026-04-11T09:13:16.995Z</time></trkpt><trkpt lat="44.848624617096" lon="4.782275879384579"><ele>436.0</ele><time>2026-04-11T09:13:19.995Z</time></trkpt><trkpt lat="44.84865458921805" lon="4.782186671205732"><ele>436.57142857142856</ele><time>2026-04-11T09:13:22.994Z</time></trkpt><trkpt lat="44.84868553008293" lon="4.782084998891384"><ele>437.14285714285717</ele><time>2026-04-11T09:13:26.994Z</time></trkpt><trkpt lat="44.84872301662928" lon="4.781983835775486"><ele>437.71428571428567</ele><time>2026-04-11T09:13:30.994Z</time></trkpt><trkpt lat="44.84875977146309" lon="4.781894983869428"><ele>438.2857142857143</ele><time>2026-04-11T09:13:34.994Z</time></trkpt><trkpt lat="44.84880586586523" lon="4.781808201214915"><ele>438.85714285714283</ele><time>2026-04-11T09:13:38.994Z</time></trkpt><trkpt lat="44.848856477252674" lon="4.781747810776158"><ele>439.4285714285714</ele><time>2026-04-11T09:13:42.994Z</time></trkpt><trkpt lat="44.84892223374279" lon="4.781702222624878"><ele>440.0</ele><time>2026-04-11T09:13:46.994Z</time></trkpt><trkpt lat="44.84898298240107" lon="4.781676566552663"><ele>440.1428571428571</ele><time>2026-04-11T09:13:50.994Z</time></trkpt><trkpt lat="44.84904652689659" lon="4.781651706207339"><ele>440.2857142857143</ele><time>2026-04-11T09:13:54.994Z</time></trkpt><trkpt lat="44.849112758319826" lon="4.781621294183561"><ele>440.42857142857144</ele><time>2026-04-11T09:13:58.994Z</time></trkpt><trkpt lat="44.84917852543466" lon="4.781590644589888"><ele>440.57142857142856</ele><time>2026-04-11T09:14:02.994Z</time></trkpt><trkpt lat="44.849242366741755" lon="4.781568869474358"><ele>440.7142857142857</ele><time>2026-04-11T09:14:06.994Z</time></trkpt><trkpt lat="44.8493030288864" lon="4.781525911821151"><ele>440.85714285714283</ele><time>2026-04-11T09:14:10.994Z</time></trkpt><trkpt lat="44.849366554825096" lon="4.781489838493358"><ele>441.0</ele><time>2026-04-11T09:14:14.994Z</time></trkpt><trkpt lat="44.84942617938665" lon="4.781440293325114"><ele>442.1428571428571</ele><time>2026-04-11T09:14:18.994Z</time></trkpt><trkpt lat="44.849494510081804" lon="4.781377817210411"><ele>443.2857142857143</ele><time>2026-04-11T09:14:23.994Z</time></trkpt><trkpt lat="44.8495493759609" lon="4.78133210061377"><ele>444.42857142857144</ele><time>2026-04-11T09:14:27.994Z</time></trkpt><trkpt lat="44.849613738290635" lon="4.78127800634967"><ele>445.57142857142856</ele><time>2026-04-11T09:14:31.994Z</time></trkpt><trkpt lat="44.8496683038925" lon="4.781230147137298"><ele>446.71428571428567</ele><time>2026-04-11T09:14:35.994Z</time></trkpt><trkpt lat="44.84972208073232" lon="4.781182979752043"><ele>447.85714285714283</ele><time>2026-04-11T09:14:39.994Z</time></trkpt><trkpt lat="44.84978251516405" lon="4.781115064067442"><ele>449.0</ele><time>2026-04-11T09:14:44.994Z</time></trkpt><trkpt lat="44.84984240686347" lon="4.781077442308423"><ele>448.99999999999994</ele><time>2026-04-11T09:14:48.994Z</time></trkpt><trkpt lat="44.84990397250321" lon="4.78102344339942"><ele>449.0</ele><time>2026-04-11T09:14:52.994Z</time></trkpt><trkpt lat="44.84996831159431" lon="4.780965859836788"><ele>449.0</ele><time>2026-04-11T09:14:56.994Z</time></trkpt><trkpt lat="44.850033711577375" lon="4.780905571620362"><ele>449.0</ele><time>2026-04-11T09:15:00.994Z</time></trkpt><trkpt lat="44.85009149185286" lon="4.780848663828985"><ele>448.99999999999994</ele><time>2026-04-11T09:15:04.994Z</time></trkpt><trkpt lat="44.85015099414715" lon="4.78078064597705"><ele>449.0</ele><time>2026-04-11T09:15:08.994Z</time></trkpt><trkpt lat="44.85020696399294" lon="4.780707750056391"><ele>449.99999999999994</ele><time>2026-04-11T09:15:12.994Z</time></trkpt><trkpt lat="44.850262195869966" lon="4.780631032907499"><ele>451.0</ele><time>2026-04-11T09:15:16.992Z</time></trkpt><trkpt lat="44.85031618282519" lon="4.780550124307823"><ele>452.0</ele><time>2026-04-11T09:15:20.993Z</time></trkpt><trkpt lat="44.850363443790854" lon="4.780468647547163"><ele>453.0</ele><time>2026-04-11T09:15:24.993Z</time></trkpt><trkpt lat="44.85041766234695" lon="4.780390195132167"><ele>453.99999999999994</ele><time>2026-04-11T09:15:28.993Z</time></trkpt><trkpt lat="44.8504606039533" lon="4.780306946521933"><ele>455.0</ele><time>2026-04-11T09:15:32.993Z</time></trkpt><trkpt lat="44.850492811894625" lon="4.780219962195565"><ele>455.2857142857143</ele><time>2026-04-11T09:15:36.993Z</time></trkpt><trkpt lat="44.850529372437954" lon="4.780144071062506"><ele>455.57142857142856</ele><time>2026-04-11T09:15:41.993Z</time></trkpt><trkpt lat="44.85057184192853" lon="4.780063738958736"><ele>455.8571428571429</ele><time>2026-04-11T09:15:47.993Z</time></trkpt><trkpt lat="44.85062595773451" lon="4.779997970241813"><ele>456.14285714285717</ele><time>2026-04-11T09:15:53.993Z</time></trkpt><trkpt lat="44.850663639726896" lon="4.779908925594185"><ele>456.42857142857144</ele><time>2026-04-11T09:16:36.993Z</time></trkpt><trkpt lat="44.85071966954534" lon="4.779868104911839"><ele>456.7142857142858</ele><time>2026-04-11T09:17:52.992Z</time></trkpt><trkpt lat="44.85065582785154" lon="4.779790542960594"><ele>457.00000000000006</ele><time>2026-04-11T09:19:50.99Z</time></trkpt><trkpt lat="44.85061876417226" lon="4.77971856396337"><ele>457.00000000000006</ele><time>2026-04-11T09:19:53.99Z</time></trkpt><trkpt lat="44.85058159686568" lon="4.779617220647476"><ele>457.0</ele><time>2026-04-11T09:19:57.99Z</time></trkpt><trkpt lat="44.850537434061" lon="4.779518504791678"><ele>457.0</ele><time>2026-04-11T09:20:01.99Z</time></trkpt><trkpt lat="44.85049359331983" lon="4.779427114166543"><ele>457.0</ele><time>2026-04-11T09:20:05.99Z</time></trkpt><trkpt lat="44.85044554450859" lon="4.7793334114722175"><ele>457.00000000000006</ele><time>2026-04-11T09:20:09.99Z</time></trkpt><trkpt lat="44.850394659707526" lon="4.779240209217719"><ele>457.0</ele><time>2026-04-11T09:20:13.99Z</time></trkpt><trkpt lat="44.85034851622867" lon="4.779153733526353"><ele>456.4285714285715</ele><time>2026-04-11T09:20:17.99Z</time></trkpt><trkpt lat="44.850301927244885" lon="4.779069691674599"><ele>455.8571428571429</ele><time>2026-04-11T09:20:21.99Z</time></trkpt><trkpt lat="44.850268316221566" lon="4.778993545959266"><ele>455.2857142857143</ele><time>2026-04-11T09:20:24.99Z</time></trkpt><trkpt lat="44.85022490102641" lon="4.778906776004131"><ele>454.7142857142857</ele><time>2026-04-11T09:20:28.99Z</time></trkpt><trkpt lat="44.85017840217234" lon="4.77881519112029"><ele>454.1428571428571</ele><time>2026-04-11T09:20:32.99Z</time></trkpt><trkpt lat="44.85013462941994" lon="4.77872487767198"><ele>453.5714285714285</ele><time>2026-04-11T09:20:36.99Z</time></trkpt><trkpt lat="44.850089657981634" lon="4.778641416939376"><ele>452.99999999999994</ele><time>2026-04-11T09:20:40.99Z</time></trkpt><trkpt lat="44.85004422892872" lon="4.778551420517902"><ele>454.8571428571428</ele><time>2026-04-11T09:20:44.99Z</time></trkpt><trkpt lat="44.85001251303392" lon="4.778445211127022"><ele>456.71428571428567</ele><time>2026-04-11T09:20:48.99Z</time></trkpt><trkpt lat="44.8499819306406" lon="4.778350516464344"><ele>458.57142857142856</ele><time>2026-04-11T09:20:52.99Z</time></trkpt><trkpt lat="44.849951136708945" lon="4.778256188984295"><ele>460.4285714285714</ele><time>2026-04-11T09:20:57.99Z</time></trkpt><trkpt lat="44.84993108727306" lon="4.778171258725153"><ele>462.2857142857142</ele><time>2026-04-11T09:22:39.989Z</time></trkpt><trkpt lat="44.84992814902757" lon="4.77807728342163"><ele>464.14285714285717</ele><time>2026-04-11T09:22:42.989Z</time></trkpt><trkpt lat="44.84992571334168" lon="4.777966301984414"><ele>466.0</ele><time>2026-04-11T09:22:45.989Z</time></trkpt><trkpt lat="44.84992009338866" lon="4.777870610960509"><ele>466.00000000000006</ele><time>2026-04-11T09:22:47.989Z</time></trkpt><trkpt lat="44.84991564007791" lon="4.777760854095281"><ele>466.0</ele><time>2026-04-11T09:22:49.989Z</time></trkpt><trkpt lat="44.849910005058156" lon="4.777651623676758"><ele>466.0</ele><time>2026-04-11T09:22:51.989Z</time></trkpt><trkpt lat="44.84991203567154" lon="4.77754588147385"><ele>466.0</ele><time>2026-04-11T09:22:53.989Z</time></trkpt><trkpt lat="44.84990694704499" lon="4.777441196184272"><ele>466.00000000000006</ele><time>2026-04-11T09:22:55.989Z</time></trkpt><trkpt lat="44.84990543477089" lon="4.777331030477307"><ele>466.0</ele><time>2026-04-11T09:22:57.989Z</time></trkpt><trkpt lat="44.849907755641624" lon="4.777221520670605"><ele>466.1666666666667</ele><time>2026-04-11T09:22:59.989Z</time></trkpt><trkpt lat="44.84990220325982" lon="4.777112627995241"><ele>466.33333333333337</ele><time>2026-04-11T09:23:01.989Z</time></trkpt><trkpt lat="44.849898884791116" lon="4.777002551156463"><ele>466.5</ele><time>2026-04-11T09:23:03.989Z</time></trkpt><trkpt lat="44.84989891729427" lon="4.776894766041852"><ele>466.66666666666663</ele><time>2026-04-11T09:23:05.989Z</time></trkpt><trkpt lat="44.84990624526514" lon="4.776776768660747"><ele>466.8333333333333</ele><time>2026-04-11T09:23:07.989Z</time></trkpt><trkpt lat="44.849900997762575" lon="4.776673130707604"><ele>467.0</ele><time>2026-04-11T09:23:09.989Z</time></trkpt><trkpt lat="44.84989950223428" lon="4.776571383380748"><ele>467.16666666666663</ele><time>2026-04-11T09:23:11.989Z</time></trkpt><trkpt lat="44.84990108822432" lon="4.776468813018811"><ele>467.3333333333333</ele><time>2026-04-11T09:23:13.989Z</time></trkpt><trkpt lat="44.84989545289858" lon="4.776376965875206"><ele>467.5</ele><time>2026-04-11T09:23:15.989Z</time></trkpt><trkpt lat="44.8499005872517" lon="4.776253131550414"><ele>467.66666666666663</ele><time>2026-04-11T09:23:18.989Z</time></trkpt><trkpt lat="44.849903192773205" lon="4.776139866518801"><ele>467.8333333333333</ele><time>2026-04-11T09:23:21.989Z</time></trkpt><trkpt lat="44.84990643567714" lon="4.776029868025508"><ele>468.0</ele><time>2026-04-11T09:23:24.989Z</time></trkpt><trkpt lat="44.84990782135713" lon="4.775915275683385"><ele>468.42857142857144</ele><time>2026-04-11T09:23:27.989Z</time></trkpt><trkpt lat="44.84989749994621" lon="4.775810714068497"><ele>468.8571428571429</ele><time>2026-04-11T09:23:30.989Z</time></trkpt><trkpt lat="44.84989156504363" lon="4.775710793784304"><ele>469.28571428571433</ele><time>2026-04-11T09:23:33.989Z</time></trkpt><trkpt lat="44.84988705681115" lon="4.77562135386648"><ele>469.7142857142858</ele><time>2026-04-11T09:23:36.989Z</time></trkpt><trkpt lat="44.84987199096175" lon="4.775529717525817"><ele>470.14285714285717</ele><time>2026-04-11T09:23:39.986Z</time></trkpt><trkpt lat="44.84987583105277" lon="4.775432552328071"><ele>470.57142857142867</ele><time>2026-04-11T09:23:42.987Z</time></trkpt><trkpt lat="44.84987790448151" lon="4.775332752252505"><ele>471.00000000000006</ele><time>2026-04-11T09:23:47.987Z</time></trkpt><trkpt lat="44.84987889905608" lon="4.77523731597221"><ele>471.00000000000006</ele><time>2026-04-11T09:23:51.987Z</time></trkpt><trkpt lat="44.849880579958516" lon="4.775141602234212"><ele>471.0</ele><time>2026-04-11T09:23:54.987Z</time></trkpt><trkpt lat="44.84989208314349" lon="4.775028836513611"><ele>471.00000000000006</ele><time>2026-04-11T09:24:48.987Z</time></trkpt><trkpt lat="44.849877332632126" lon="4.774924218585611"><ele>471.00000000000006</ele><time>2026-04-11T09:24:52.987Z</time></trkpt><trkpt lat="44.84986990315158" lon="4.774817471819928"><ele>471.0</ele><time>2026-04-11T09:24:56.987Z</time></trkpt><trkpt lat="44.84987411014434" lon="4.7747014926538"><ele>471.00000000000006</ele><time>2026-04-11T09:25:00.987Z</time></trkpt><trkpt lat="44.84987492898923" lon="4.774609435446682"><ele>471.00000000000006</ele><time>2026-04-11T09:25:03.987Z</time></trkpt><trkpt lat="44.84988624403379" lon="4.774502003851419"><ele>471.0</ele><time>2026-04-11T09:25:06.987Z</time></trkpt><trkpt lat="44.84988798981744" lon="4.774395487711722"><ele>471.0</ele><time>2026-04-11T09:25:09.987Z</time></trkpt><trkpt lat="44.84991282515975" lon="4.774288747679834"><ele>471.0</ele><time>2026-04-11T09:25:12.987Z</time></trkpt><trkpt lat="44.849927528047935" lon="4.774154622303199"><ele>471.0</ele><time>2026-04-11T09:25:15.987Z</time></trkpt><trkpt lat="44.84993810817046" lon="4.774061796089374"><ele>471.0</ele><time>2026-04-11T09:25:17.987Z</time></trkpt><trkpt lat="44.84995147003756" lon="4.773959483797616"><ele>471.0</ele><time>2026-04-11T09:25:19.987Z</time></trkpt><trkpt lat="44.84996542619978" lon="4.773848507070286"><ele>470.8571428571429</ele><time>2026-04-11T09:25:21.987Z</time></trkpt><trkpt lat="44.849981744768435" lon="4.773750348483455"><ele>470.7142857142857</ele><time>2026-04-11T09:25:23.987Z</time></trkpt><trkpt lat="44.84999563751696" lon="4.77365512569213"><ele>470.57142857142856</ele><time>2026-04-11T09:25:25.987Z</time></trkpt><trkpt lat="44.85000765198347" lon="4.773564821155134"><ele>470.42857142857144</ele><time>2026-04-11T09:25:27.987Z</time></trkpt><trkpt lat="44.85002546824376" lon="4.773478483526073"><ele>470.2857142857142</ele><time>2026-04-11T09:25:29.987Z</time></trkpt><trkpt lat="44.85004155602559" lon="4.773388917771779"><ele>470.1428571428571</ele><time>2026-04-11T09:25:31.987Z</time></trkpt><trkpt lat="44.85005292629894" lon="4.773298616097925"><ele>470.0</ele><time>2026-04-11T09:25:33.987Z</time></trkpt><trkpt lat="44.85006646136494" lon="4.773182279514073"><ele>469.85714285714283</ele><time>2026-04-11T09:25:36.987Z</time></trkpt><trkpt lat="44.85007103545987" lon="4.773074890670314"><ele>469.71428571428567</ele><time>2026-04-11T09:25:39.987Z</time></trkpt><trkpt lat="44.85006578099835" lon="4.772983195546976"><ele>469.57142857142856</ele><time>2026-04-11T09:25:42.987Z</time></trkpt><trkpt lat="44.85005546379114" lon="4.772879153019272"><ele>469.42857142857144</ele><time>2026-04-11T09:25:55.985Z</time></trkpt><trkpt lat="44.850076036382596" lon="4.772986881948195"><ele>469.2857142857143</ele><time>2026-04-11T09:26:37.985Z</time></trkpt><trkpt lat="44.850081014755716" lon="4.773081805654046"><ele>469.1428571428571</ele><time>2026-04-11T09:26:39.985Z</time></trkpt><trkpt lat="44.850079434023854" lon="4.773202312737479"><ele>469.0</ele><time>2026-04-11T09:26:41.985Z</time></trkpt><trkpt lat="44.85004939296652" lon="4.773326835383252"><ele>469.0</ele><time>2026-04-11T09:26:43.985Z</time></trkpt><trkpt lat="44.85002418312311" lon="4.773457205132679"><ele>469.0</ele><time>2026-04-11T09:26:45.985Z</time></trkpt><trkpt lat="44.85000654910366" lon="4.773589078572923"><ele>469.0</ele><time>2026-04-11T09:26:47.985Z</time></trkpt><trkpt lat="44.84998778357528" lon="4.773718929596055"><ele>469.0</ele><time>2026-04-11T09:26:49.985Z</time></trkpt><trkpt lat="44.84997451263573" lon="4.773848072338818"><ele>469.0</ele><time>2026-04-11T09:26:51.985Z</time></trkpt><trkpt lat="44.849956721616586" lon="4.7739778348582815"><ele>469.1666666666667</ele><time>2026-04-11T09:26:53.985Z</time></trkpt><trkpt lat="44.84994028181576" lon="4.774107231284724"><ele>469.33333333333337</ele><time>2026-04-11T09:26:55.985Z</time></trkpt><trkpt lat="44.84992652094676" lon="4.7742296600091025"><ele>469.5</ele><time>2026-04-11T09:26:57.985Z</time></trkpt><trkpt lat="44.849906464546066" lon="4.774343418877106"><ele>469.66666666666663</ele><time>2026-04-11T09:26:59.985Z</time></trkpt><trkpt lat="44.8498964432807" lon="4.7744684896412855"><ele>469.8333333333333</ele><time>2026-04-11T09:27:01.985Z</time></trkpt><trkpt lat="44.8498852047989" lon="4.774598950348887"><ele>470.0</ele><time>2026-04-11T09:27:03.985Z</time></trkpt><trkpt lat="44.849878026154244" lon="4.774723689419059"><ele>470.16666666666663</ele><time>2026-04-11T09:27:05.985Z</time></trkpt><trkpt lat="44.84987495841724" lon="4.774848705155025"><ele>470.3333333333333</ele><time>2026-04-11T09:27:07.985Z</time></trkpt><trkpt lat="44.849873356589285" lon="4.77497280485336"><ele>470.5</ele><time>2026-04-11T09:27:09.985Z</time></trkpt><trkpt lat="44.84987949195065" lon="4.7750965700615815"><ele>470.66666666666663</ele><time>2026-04-11T09:27:11.985Z</time></trkpt><trkpt lat="44.849878494381905" lon="4.775219078163233"><ele>470.8333333333333</ele><time>2026-04-11T09:27:13.985Z</time></trkpt><trkpt lat="44.84988499893318" lon="4.775330240286296"><ele>471.0</ele><time>2026-04-11T09:27:15.985Z</time></trkpt><trkpt lat="44.84988512077904" lon="4.77543389628297"><ele>471.0</ele><time>2026-04-11T09:27:17.985Z</time></trkpt><trkpt lat="44.84988988320694" lon="4.775528507488067"><ele>471.0</ele><time>2026-04-11T09:27:19.985Z</time></trkpt><trkpt lat="44.84989264369191" lon="4.7756504528874855"><ele>471.0</ele><time>2026-04-11T09:27:22.985Z</time></trkpt><trkpt lat="44.84989743938252" lon="4.775755129496777"><ele>471.0</ele><time>2026-04-11T09:27:24.985Z</time></trkpt><trkpt lat="44.84990269967344" lon="4.775903658920995"><ele>471.0</ele><time>2026-04-11T09:27:26.985Z</time></trkpt><trkpt lat="44.849905531199084" lon="4.7759929425881475"><ele>471.0</ele><time>2026-04-11T09:27:27.985Z</time></trkpt><trkpt lat="44.8499060281362" lon="4.776094592614043"><ele>470.5</ele><time>2026-04-11T09:27:28.985Z</time></trkpt><trkpt lat="44.84990260368916" lon="4.776199463903693"><ele>470.0</ele><time>2026-04-11T09:27:29.985Z</time></trkpt><trkpt lat="44.849900897983886" lon="4.776317080440071"><ele>469.5</ele><time>2026-04-11T09:27:30.985Z</time></trkpt><trkpt lat="44.84990100384685" lon="4.776435986934857"><ele>469.0</ele><time>2026-04-11T09:27:31.985Z</time></trkpt><trkpt lat="44.84990546046943" lon="4.776553939725199"><ele>468.5</ele><time>2026-04-11T09:27:32.985Z</time></trkpt><trkpt lat="44.84990690144175" lon="4.776674165917414"><ele>468.0</ele><time>2026-04-11T09:27:33.985Z</time></trkpt><trkpt lat="44.84990997509677" lon="4.776788773615872"><ele>467.8333333333333</ele><time>2026-04-11T09:27:34.985Z</time></trkpt><trkpt lat="44.84991388554904" lon="4.776902469900133"><ele>467.66666666666663</ele><time>2026-04-11T09:27:35.985Z</time></trkpt><trkpt lat="44.84991813078784" lon="4.777012340242732"><ele>467.5</ele><time>2026-04-11T09:27:36.985Z</time></trkpt><trkpt lat="44.849924631989836" lon="4.77711914417024"><ele>467.3333333333333</ele><time>2026-04-11T09:27:37.985Z</time></trkpt><trkpt lat="44.84992791824451" lon="4.777225496809627"><ele>467.16666666666663</ele><time>2026-04-11T09:27:38.985Z</time></trkpt><trkpt lat="44.84992906171657" lon="4.77732897343403"><ele>467.0</ele><time>2026-04-11T09:27:39.985Z</time></trkpt><trkpt lat="44.84992939672491" lon="4.7774331436629485"><ele>466.99999999999994</ele><time>2026-04-11T09:27:40.985Z</time></trkpt><trkpt lat="44.84993184026637" lon="4.777528394246806"><ele>467.0</ele><time>2026-04-11T09:27:41.985Z</time></trkpt><trkpt lat="44.84993004139333" lon="4.777623967375043"><ele>466.99999999999994</ele><time>2026-04-11T09:27:42.985Z</time></trkpt><trkpt lat="44.84993469220302" lon="4.777716338022279"><ele>466.99999999999994</ele><time>2026-04-11T09:27:43.985Z</time></trkpt><trkpt lat="44.84993680342735" lon="4.777809821146948"><ele>467.0</ele><time>2026-04-11T09:27:44.985Z</time></trkpt><trkpt lat="44.849926016364236" lon="4.777901990436788"><ele>466.99999999999994</ele><time>2026-04-11T09:27:45.985Z</time></trkpt><trkpt lat="44.84993129216527" lon="4.778065331375197"><ele>466.99999999999994</ele><time>2026-04-11T09:27:47.985Z</time></trkpt><trkpt lat="44.8499508976616" lon="4.778214347748317"><ele>466.8333333333333</ele><time>2026-04-11T09:27:49.985Z</time></trkpt><trkpt lat="44.84997821844261" lon="4.778366183959676"><ele>466.66666666666663</ele><time>2026-04-11T09:27:51.985Z</time></trkpt><trkpt lat="44.8500199970257" lon="4.778524092296793"><ele>466.5</ele><time>2026-04-11T09:27:53.985Z</time></trkpt><trkpt lat="44.85005321489016" lon="4.7786050681524594"><ele>466.33333333333337</ele><time>2026-04-11T09:27:54.985Z</time></trkpt><trkpt lat="44.850094433320656" lon="4.778690912688264"><ele>466.1666666666667</ele><time>2026-04-11T09:27:55.985Z</time></trkpt><trkpt lat="44.85013631139214" lon="4.778780031306398"><ele>466.0</ele><time>2026-04-11T09:27:56.985Z</time></trkpt><trkpt lat="44.850184953016694" lon="4.778872000230488"><ele>466.00000000000006</ele><time>2026-04-11T09:27:57.985Z</time></trkpt><trkpt lat="44.85024701742792" lon="4.778978200219257"><ele>466.0</ele><time>2026-04-11T09:27:58.985Z</time></trkpt><trkpt lat="44.850300884485065" lon="4.779077828614097"><ele>466.0</ele><time>2026-04-11T09:27:59.985Z</time></trkpt><trkpt lat="44.85035183955087" lon="4.779173549563576"><ele>466.0</ele><time>2026-04-11T09:28:00.984Z</time></trkpt><trkpt lat="44.85040202918047" lon="4.7792614746305695"><ele>466.00000000000006</ele><time>2026-04-11T09:28:01.984Z</time></trkpt><trkpt lat="44.85044486293475" lon="4.779340821581198"><ele>466.0</ele><time>2026-04-11T09:28:02.985Z</time></trkpt><trkpt lat="44.850484236808725" lon="4.7794122285983205"><ele>464.50000000000006</ele><time>2026-04-11T09:28:03.984Z</time></trkpt><trkpt lat="44.850525596785275" lon="4.779483913900985"><ele>463.0</ele><time>2026-04-11T09:28:04.984Z</time></trkpt><trkpt lat="44.850547086527605" lon="4.779655314935102"><ele>461.5</ele><time>2026-04-11T09:28:06.984Z</time></trkpt><trkpt lat="44.85055551922489" lon="4.77974528207025"><ele>460.0</ele><time>2026-04-11T09:28:07.984Z</time></trkpt><trkpt lat="44.85055764651013" lon="4.779842034986307"><ele>458.50000000000006</ele><time>2026-04-11T09:28:08.984Z</time></trkpt><trkpt lat="44.850550669259185" lon="4.77993570929748"><ele>457.0</ele><time>2026-04-11T09:28:09.984Z</time></trkpt><trkpt lat="44.8505394173502" lon="4.780044162016674"><ele>457.00000000000006</ele><time>2026-04-11T09:28:10.984Z</time></trkpt><trkpt lat="44.85051497771534" lon="4.780133858932917"><ele>457.0</ele><time>2026-04-11T09:28:11.984Z</time></trkpt><trkpt lat="44.85048835911271" lon="4.780219525144151"><ele>457.00000000000006</ele><time>2026-04-11T09:28:12.984Z</time></trkpt><trkpt lat="44.85045995548699" lon="4.780309504248786"><ele>457.00000000000006</ele><time>2026-04-11T09:28:13.984Z</time></trkpt><trkpt lat="44.85043356135367" lon="4.780390847854275"><ele>457.0</ele><time>2026-04-11T09:28:14.984Z</time></trkpt><trkpt lat="44.85039809109618" lon="4.780464526014895"><ele>457.00000000000006</ele><time>2026-04-11T09:28:15.984Z</time></trkpt><trkpt lat="44.850355577949315" lon="4.780534355873087"><ele>457.00000000000006</ele><time>2026-04-11T09:28:16.984Z</time></trkpt><trkpt lat="44.850313749750434" lon="4.780602072477663"><ele>456.6666666666667</ele><time>2026-04-11T09:28:17.984Z</time></trkpt><trkpt lat="44.85026638019957" lon="4.780667791974834"><ele>456.33333333333337</ele><time>2026-04-11T09:28:18.984Z</time></trkpt><trkpt lat="44.85021879395775" lon="4.780737539547334"><ele>456.0</ele><time>2026-04-11T09:28:19.984Z</time></trkpt><trkpt lat="44.85017134298844" lon="4.780798623023942"><ele>455.66666666666663</ele><time>2026-04-11T09:28:20.984Z</time></trkpt><trkpt lat="44.85006966570935" lon="4.780907908983087"><ele>455.3333333333333</ele><time>2026-04-11T09:28:22.984Z</time></trkpt><trkpt lat="44.85000938311262" lon="4.780964422727422"><ele>455.0</ele><time>2026-04-11T09:28:23.984Z</time></trkpt><trkpt lat="44.84995157521308" lon="4.781019375677621"><ele>453.8</ele><time>2026-04-11T09:28:24.984Z</time></trkpt><trkpt lat="44.84986201394093" lon="4.781100396782091"><ele>452.6</ele><time>2026-04-11T09:28:26.984Z</time></trkpt><trkpt lat="44.8497805475413" lon="4.781144584209752"><ele>451.4</ele><time>2026-04-11T09:28:28.984Z</time></trkpt><trkpt lat="44.84971220769788" lon="4.781214328248443"><ele>450.2</ele><time>2026-04-11T09:28:30.984Z</time></trkpt><trkpt lat="44.849636029537315" lon="4.781277747371607"><ele>449.0</ele><time>2026-04-11T09:28:32.984Z</time></trkpt><trkpt lat="44.849549699330915" lon="4.781346626993896"><ele>449.0</ele><time>2026-04-11T09:28:34.984Z</time></trkpt><trkpt lat="44.84944470616903" lon="4.7814360705335455"><ele>449.0</ele><time>2026-04-11T09:28:36.984Z</time></trkpt><trkpt lat="44.849361051463426" lon="4.781503346629292"><ele>449.0</ele><time>2026-04-11T09:28:38.984Z</time></trkpt><trkpt lat="44.8492772568613" lon="4.781554377165751"><ele>449.0</ele><time>2026-04-11T09:28:40.984Z</time></trkpt><trkpt lat="44.84918112296034" lon="4.781595359325677"><ele>449.0</ele><time>2026-04-11T09:28:42.984Z</time></trkpt><trkpt lat="44.8490764964825" lon="4.78162661385667"><ele>447.66666666666663</ele><time>2026-04-11T09:28:44.984Z</time></trkpt><trkpt lat="44.84898535585048" lon="4.781658889090316"><ele>446.3333333333333</ele><time>2026-04-11T09:28:46.984Z</time></trkpt><trkpt lat="44.848905854100046" lon="4.781707595043194"><ele>445.0</ele><time>2026-04-11T09:28:48.984Z</time></trkpt><trkpt lat="44.84884112165557" lon="4.781769212110951"><ele>443.66666666666663</ele><time>2026-04-11T09:28:50.984Z</time></trkpt><trkpt lat="44.848790230972725" lon="4.781823269805991"><ele>442.3333333333333</ele><time>2026-04-11T09:28:52.984Z</time></trkpt><trkpt lat="44.84874138126532" lon="4.781907785034368"><ele>441.0</ele><time>2026-04-11T09:28:54.984Z</time></trkpt><trkpt lat="44.84870192904323" lon="4.782010793843192"><ele>440.8333333333333</ele><time>2026-04-11T09:28:56.984Z</time></trkpt><trkpt lat="44.84867735409324" lon="4.782110499519935"><ele>440.66666666666663</ele><time>2026-04-11T09:28:58.984Z</time></trkpt><trkpt lat="44.848646198899004" lon="4.782212725860693"><ele>440.5</ele><time>2026-04-11T09:29:00.984Z</time></trkpt><trkpt lat="44.84861923713518" lon="4.782310091193371"><ele>440.3333333333333</ele><time>2026-04-11T09:29:02.984Z</time></trkpt><trkpt lat="44.84859073857435" lon="4.782410088121319"><ele>440.16666666666663</ele><time>2026-04-11T09:29:04.984Z</time></trkpt><trkpt lat="44.84855912050501" lon="4.782506480837871"><ele>440.0</ele><time>2026-04-11T09:29:06.984Z</time></trkpt><trkpt lat="44.848508730900726" lon="4.78260733288309"><ele>439.2</ele><time>2026-04-11T09:29:08.984Z</time></trkpt><trkpt lat="44.84843484448779" lon="4.782681881249714"><ele>438.4</ele><time>2026-04-11T09:29:10.984Z</time></trkpt><trkpt lat="44.84836598755531" lon="4.782770234105362"><ele>437.6</ele><time>2026-04-11T09:29:12.984Z</time></trkpt><trkpt lat="44.848301185693465" lon="4.782854006859168"><ele>436.8</ele><time>2026-04-11T09:29:14.984Z</time></trkpt><trkpt lat="44.84823730666658" lon="4.78296473174075"><ele>436.0</ele><time>2026-04-11T09:29:16.984Z</time></trkpt><trkpt lat="44.84818360738447" lon="4.783067807518906"><ele>436.0</ele><time>2026-04-11T09:29:18.984Z</time></trkpt><trkpt lat="44.84811134931855" lon="4.783158104490196"><ele>436.0</ele><time>2026-04-11T09:29:20.984Z</time></trkpt><trkpt lat="44.8480478151056" lon="4.78324618916285"><ele>436.0</ele><time>2026-04-11T09:29:22.984Z</time></trkpt><trkpt lat="44.84798352192138" lon="4.783324737002778"><ele>436.0</ele><time>2026-04-11T09:29:24.984Z</time></trkpt><trkpt lat="44.84792842164569" lon="4.7834238468806625"><ele>436.0</ele><time>2026-04-11T09:29:26.984Z</time></trkpt><trkpt lat="44.84788003390288" lon="4.783535006983816"><ele>435.4</ele><time>2026-04-11T09:29:28.984Z</time></trkpt><trkpt lat="44.84783678560224" lon="4.783671821209228"><ele>434.8</ele><time>2026-04-11T09:29:30.984Z</time></trkpt><trkpt lat="44.84779234028173" lon="4.783840742565517"><ele>434.19999999999993</ele><time>2026-04-11T09:29:32.984Z</time></trkpt><trkpt lat="44.847771893101644" lon="4.783926977105112"><ele>433.59999999999997</ele><time>2026-04-11T09:29:33.984Z</time></trkpt><trkpt lat="44.84772023788768" lon="4.784086894415219"><ele>433.0</ele><time>2026-04-11T09:29:35.984Z</time></trkpt><trkpt lat="44.847676891626726" lon="4.784239213163356"><ele>433.50000000000006</ele><time>2026-04-11T09:29:37.984Z</time></trkpt><trkpt lat="44.84760334561107" lon="4.784359405532868"><ele>434.0</ele><time>2026-04-11T09:29:39.984Z</time></trkpt><trkpt lat="44.84750865572253" lon="4.784418888087379"><ele>434.5</ele><time>2026-04-11T09:29:41.984Z</time></trkpt><trkpt lat="44.84743291792903" lon="4.7844733908037576"><ele>435.0</ele><time>2026-04-11T09:29:43.984Z</time></trkpt><trkpt lat="44.84736527929354" lon="4.784521592492167"><ele>435.50000000000006</ele><time>2026-04-11T09:29:45.984Z</time></trkpt><trkpt lat="44.84730687435356" lon="4.784555274091598"><ele>436.0</ele><time>2026-04-11T09:29:47.984Z</time></trkpt><trkpt lat="44.847250565241445" lon="4.784605788528418"><ele>436.00000000000006</ele><time>2026-04-11T09:29:49.984Z</time></trkpt><trkpt lat="44.84718356739027" lon="4.784644683446124"><ele>436.0</ele><time>2026-04-11T09:29:51.984Z</time></trkpt><trkpt lat="44.847105959730335" lon="4.784676865421467"><ele>436.0</ele><time>2026-04-11T09:29:53.984Z</time></trkpt><trkpt lat="44.84702017003715" lon="4.784717032783456"><ele>436.0</ele><time>2026-04-11T09:29:55.984Z</time></trkpt><trkpt lat="44.84692564762719" lon="4.784764440555257"><ele>436.00000000000006</ele><time>2026-04-11T09:29:57.983Z</time></trkpt><trkpt lat="44.84683581553576" lon="4.784785366916602"><ele>436.0</ele><time>2026-04-11T09:29:59.984Z</time></trkpt><trkpt lat="44.84675120293483" lon="4.784821117309398"><ele>434.6666666666667</ele><time>2026-04-11T09:30:01.984Z</time></trkpt><trkpt lat="44.84668667893431" lon="4.7848505568319455"><ele>433.33333333333337</ele><time>2026-04-11T09:30:03.984Z</time></trkpt><trkpt lat="44.84662600668336" lon="4.7848768520007745"><ele>432.0</ele><time>2026-04-11T09:30:05.983Z</time></trkpt><trkpt lat="44.84654442807003" lon="4.7849012134072915"><ele>430.66666666666663</ele><time>2026-04-11T09:30:08.984Z</time></trkpt><trkpt lat="44.846482151229" lon="4.7849197304445825"><ele>429.3333333333333</ele><time>2026-04-11T09:30:10.983Z</time></trkpt><trkpt lat="44.8463971927347" lon="4.784933071379892"><ele>428.0</ele><time>2026-04-11T09:30:13.983Z</time></trkpt><trkpt lat="44.84631332096888" lon="4.7849830212107"><ele>427.99999999999994</ele><time>2026-04-11T09:30:16.983Z</time></trkpt><trkpt lat="44.846246785278176" lon="4.785015014455687"><ele>428.0</ele><time>2026-04-11T09:30:18.983Z</time></trkpt><trkpt lat="44.846169008598544" lon="4.785045155963"><ele>428.0</ele><time>2026-04-11T09:30:20.983Z</time></trkpt><trkpt lat="44.84609969129196" lon="4.7851013826045055"><ele>428.0</ele><time>2026-04-11T09:30:22.983Z</time></trkpt><trkpt lat="44.84601107704306" lon="4.785160045297027"><ele>427.99999999999994</ele><time>2026-04-11T09:30:24.983Z</time></trkpt><trkpt lat="44.84594445338221" lon="4.7852078014004995"><ele>428.0</ele><time>2026-04-11T09:30:26.983Z</time></trkpt><trkpt lat="44.84584409304207" lon="4.785257275040773"><ele>425.0</ele><time>2026-04-11T09:30:28.983Z</time></trkpt><trkpt lat="44.84576672390793" lon="4.785309341285486"><ele>421.99999999999994</ele><time>2026-04-11T09:30:30.983Z</time></trkpt><trkpt lat="44.84568685580796" lon="4.785380948787446"><ele>419.0</ele><time>2026-04-11T09:30:32.983Z</time></trkpt><trkpt lat="44.84560684242924" lon="4.7854620996282975"><ele>416.0</ele><time>2026-04-11T09:30:34.983Z</time></trkpt><trkpt lat="44.845551454100985" lon="4.785533597113952"><ele>413.0</ele><time>2026-04-11T09:30:36.983Z</time></trkpt><trkpt lat="44.845458786766095" lon="4.785602146674021"><ele>412.99999999999994</ele><time>2026-04-11T09:30:38.983Z</time></trkpt><trkpt lat="44.84534294044465" lon="4.785662978238608"><ele>413.0</ele><time>2026-04-11T09:30:40.983Z</time></trkpt><trkpt lat="44.84527096183784" lon="4.785682682635726"><ele>413.0</ele><time>2026-04-11T09:30:41.983Z</time></trkpt><trkpt lat="44.84520061176557" lon="4.785701081262198"><ele>413.0</ele><time>2026-04-11T09:30:42.983Z</time></trkpt><trkpt lat="44.84513249376474" lon="4.785711115500516"><ele>412.99999999999994</ele><time>2026-04-11T09:30:43.983Z</time></trkpt><trkpt lat="44.84506096235837" lon="4.785716051913751"><ele>413.0</ele><time>2026-04-11T09:30:44.983Z</time></trkpt><trkpt lat="44.844987908992046" lon="4.785718247977253"><ele>413.16666666666663</ele><time>2026-04-11T09:30:45.983Z</time></trkpt><trkpt lat="44.84491595043143" lon="4.785709991198301"><ele>413.3333333333333</ele><time>2026-04-11T09:30:46.983Z</time></trkpt><trkpt lat="44.84484601381088" lon="4.785698891982594"><ele>413.5</ele><time>2026-04-11T09:30:47.983Z</time></trkpt><trkpt lat="44.844779772867064" lon="4.7856836593986305"><ele>413.66666666666663</ele><time>2026-04-11T09:30:48.983Z</time></trkpt><trkpt lat="44.84471468351817" lon="4.785665692475773"><ele>413.8333333333333</ele><time>2026-04-11T09:30:49.983Z</time></trkpt><trkpt lat="44.84461851747271" lon="4.785635707873641"><ele>414.0</ele><time>2026-04-11T09:30:51.983Z</time></trkpt><trkpt lat="44.84452220021793" lon="4.785627719542405"><ele>414.0</ele><time>2026-04-11T09:30:53.983Z</time></trkpt><trkpt lat="44.84441801875263" lon="4.785648821113817"><ele>414.0</ele><time>2026-04-11T09:30:55.983Z</time></trkpt><trkpt lat="44.8443277248772" lon="4.785684290367616"><ele>414.0</ele><time>2026-04-11T09:30:57.983Z</time></trkpt><trkpt lat="44.844246933705236" lon="4.78573097710822"><ele>414.0</ele><time>2026-04-11T09:30:59.983Z</time></trkpt><trkpt lat="44.84417036335938" lon="4.7857743305410425"><ele>414.0</ele><time>2026-04-11T09:31:01.983Z</time></trkpt><trkpt lat="44.84410274741166" lon="4.7858233943720645"><ele>414.0</ele><time>2026-04-11T09:31:03.983Z</time></trkpt><trkpt lat="44.84401827652009" lon="4.7858650495877315"><ele>412.3333333333333</ele><time>2026-04-11T09:31:05.983Z</time></trkpt><trkpt lat="44.843941981055295" lon="4.785901182502376"><ele>410.66666666666663</ele><time>2026-04-11T09:31:07.983Z</time></trkpt><trkpt lat="44.84386500750437" lon="4.785919389805492"><ele>409.0</ele><time>2026-04-11T09:31:09.983Z</time></trkpt><trkpt lat="44.84379162530469" lon="4.785947825168681"><ele>407.3333333333333</ele><time>2026-04-11T09:31:11.983Z</time></trkpt><trkpt lat="44.84372370107695" lon="4.786005564679804"><ele>405.66666666666663</ele><time>2026-04-11T09:31:13.983Z</time></trkpt><trkpt lat="44.84366130480939" lon="4.786078059461729"><ele>404.0</ele><time>2026-04-11T09:31:15.983Z</time></trkpt><trkpt lat="44.84359112707546" lon="4.786158859022722"><ele>402.79999999999995</ele><time>2026-04-11T09:31:17.983Z</time></trkpt><trkpt lat="44.84351168392438" lon="4.786244154926197"><ele>401.59999999999997</ele><time>2026-04-11T09:31:19.983Z</time></trkpt><trkpt lat="44.84344059855824" lon="4.786318503676928"><ele>400.4</ele><time>2026-04-11T09:31:21.983Z</time></trkpt><trkpt lat="44.8433706407113" lon="4.78639829828097"><ele>399.2</ele><time>2026-04-11T09:31:23.983Z</time></trkpt><trkpt lat="44.84330941558085" lon="4.786491560031997"><ele>398.0</ele><time>2026-04-11T09:31:25.983Z</time></trkpt><trkpt lat="44.84325689332073" lon="4.786593018467529"><ele>397.3333333333333</ele><time>2026-04-11T09:31:27.983Z</time></trkpt><trkpt lat="44.84320640899868" lon="4.7866904894634095"><ele>396.66666666666663</ele><time>2026-04-11T09:31:29.983Z</time></trkpt><trkpt lat="44.843162658850915" lon="4.786771664670043"><ele>396.0</ele><time>2026-04-11T09:31:31.983Z</time></trkpt><trkpt lat="44.84311449134262" lon="4.786861433790943"><ele>395.33333333333337</ele><time>2026-04-11T09:31:33.983Z</time></trkpt><trkpt lat="44.84307674154894" lon="4.786934600430308"><ele>394.6666666666667</ele><time>2026-04-11T09:31:35.983Z</time></trkpt><trkpt lat="44.843024327384775" lon="4.787017295875319"><ele>394.0</ele><time>2026-04-11T09:31:37.983Z</time></trkpt><trkpt lat="44.84297568240053" lon="4.787105725043617"><ele>391.6</ele><time>2026-04-11T09:31:39.983Z</time></trkpt><trkpt lat="44.84294062169389" lon="4.787189814347008"><ele>389.2</ele><time>2026-04-11T09:31:41.983Z</time></trkpt><trkpt lat="44.842869508729024" lon="4.787303542222037"><ele>386.8</ele><time>2026-04-11T09:31:43.983Z</time></trkpt><trkpt lat="44.842793436239155" lon="4.7874411085519215"><ele>384.40000000000003</ele><time>2026-04-11T09:31:45.983Z</time></trkpt><trkpt lat="44.84271476084287" lon="4.787578793792886"><ele>382.0</ele><time>2026-04-11T09:31:47.983Z</time></trkpt><trkpt lat="44.842652518105346" lon="4.787693229232116"><ele>383.20000000000005</ele><time>2026-04-11T09:31:49.983Z</time></trkpt><trkpt lat="44.84256865176135" lon="4.787802923554546"><ele>384.4</ele><time>2026-04-11T09:31:51.983Z</time></trkpt><trkpt lat="44.84248401335547" lon="4.787892891784669"><ele>385.6</ele><time>2026-04-11T09:31:53.983Z</time></trkpt><trkpt lat="44.84240605329647" lon="4.787979288754068"><ele>386.79999999999995</ele><time>2026-04-11T09:31:55.983Z</time></trkpt><trkpt lat="44.84233632729967" lon="4.788066859128937"><ele>388.0</ele><time>2026-04-11T09:31:57.983Z</time></trkpt><trkpt lat="44.842275969851954" lon="4.788162811124764"><ele>388.00000000000006</ele><time>2026-04-11T09:31:59.983Z</time></trkpt><trkpt lat="44.84222236634934" lon="4.788242895991784"><ele>388.0</ele><time>2026-04-11T09:32:01.983Z</time></trkpt><trkpt lat="44.84217057458473" lon="4.788334251987765"><ele>388.0</ele><time>2026-04-11T09:32:03.982Z</time></trkpt><trkpt lat="44.84212013261278" lon="4.788424795533097"><ele>388.0</ele><time>2026-04-11T09:32:05.982Z</time></trkpt><trkpt lat="44.84207554654033" lon="4.788506482404321"><ele>388.00000000000006</ele><time>2026-04-11T09:32:07.983Z</time></trkpt><trkpt lat="44.84203610398592" lon="4.788580461485333"><ele>388.0</ele><time>2026-04-11T09:32:09.982Z</time></trkpt><trkpt lat="44.841983731483694" lon="4.788678117157897"><ele>388.7142857142857</ele><time>2026-04-11T09:32:12.983Z</time></trkpt><trkpt lat="44.84193399687899" lon="4.7887792980988815"><ele>389.42857142857144</ele><time>2026-04-11T09:32:16.982Z</time></trkpt><trkpt lat="44.84188967724381" lon="4.788844067366294"><ele>390.14285714285717</ele><time>2026-04-11T09:32:19.982Z</time></trkpt><trkpt lat="44.8418393397364" lon="4.788937389097727"><ele>390.8571428571429</ele><time>2026-04-11T09:32:23.982Z</time></trkpt><trkpt lat="44.84179431033864" lon="4.789000319368854"><ele>391.57142857142856</ele><time>2026-04-11T09:32:26.982Z</time></trkpt><trkpt lat="44.84174618807153" lon="4.789075311115404"><ele>392.28571428571433</ele><time>2026-04-11T09:32:30.982Z</time></trkpt><trkpt lat="44.84169813994321" lon="4.789135646183173"><ele>393.0</ele><time>2026-04-11T09:32:34.982Z</time></trkpt><trkpt lat="44.84164060780947" lon="4.7891762953894546"><ele>393.00000000000006</ele><time>2026-04-11T09:32:38.982Z</time></trkpt><trkpt lat="44.84157473314691" lon="4.789205437010917"><ele>393.0</ele><time>2026-04-11T09:32:42.982Z</time></trkpt><trkpt lat="44.84151425830877" lon="4.789247414108958"><ele>393.0</ele><time>2026-04-11T09:32:46.982Z</time></trkpt><trkpt lat="44.841450902479416" lon="4.789285881368853"><ele>393.0</ele><time>2026-04-11T09:32:50.982Z</time></trkpt><trkpt lat="44.841374538144805" lon="4.789327844086492"><ele>393.0</ele><time>2026-04-11T09:32:54.982Z</time></trkpt><trkpt lat="44.84130266639914" lon="4.789364363736772"><ele>393.00000000000006</ele><time>2026-04-11T09:32:58.982Z</time></trkpt><trkpt lat="44.84122537979685" lon="4.789388648535813"><ele>393.0</ele><time>2026-04-11T09:33:02.982Z</time></trkpt><trkpt lat="44.84114926473022" lon="4.78942316683198"><ele>392.6666666666667</ele><time>2026-04-11T09:33:06.982Z</time></trkpt><trkpt lat="44.841084919056485" lon="4.789463020871641"><ele>392.33333333333337</ele><time>2026-04-11T09:33:10.982Z</time></trkpt><trkpt lat="44.84102032940846" lon="4.7895021906869175"><ele>392.0</ele><time>2026-04-11T09:33:13.982Z</time></trkpt><trkpt lat="44.840946285835365" lon="4.789561976036414"><ele>391.6666666666667</ele><time>2026-04-11T09:33:16.982Z</time></trkpt><trkpt lat="44.84086469576921" lon="4.7896269008949055"><ele>391.33333333333337</ele><time>2026-04-11T09:33:19.982Z</time></trkpt><trkpt lat="44.84080976063863" lon="4.789679534900525"><ele>391.0</ele><time>2026-04-11T09:33:21.982Z</time></trkpt><trkpt lat="44.84075513774756" lon="4.789747777099536"><ele>391.0</ele><time>2026-04-11T09:33:23.982Z</time></trkpt><trkpt lat="44.84069424731854" lon="4.789837472286729"><ele>391.0</ele><time>2026-04-11T09:33:25.982Z</time></trkpt><trkpt lat="44.84063417746864" lon="4.789958268188785"><ele>391.0</ele><time>2026-04-11T09:33:27.982Z</time></trkpt><trkpt lat="44.840573461571374" lon="4.790081348201871"><ele>391.0</ele><time>2026-04-11T09:33:29.982Z</time></trkpt><trkpt lat="44.84051137018343" lon="4.790190837000015"><ele>391.0</ele><time>2026-04-11T09:33:31.982Z</time></trkpt><trkpt lat="44.84043582765678" lon="4.790268906233937"><ele>391.99999999999994</ele><time>2026-04-11T09:33:33.982Z</time></trkpt><trkpt lat="44.84038235034418" lon="4.790322471814901"><ele>393.0</ele><time>2026-04-11T09:33:35.982Z</time></trkpt><trkpt lat="44.84031729838797" lon="4.790387889306531"><ele>394.0</ele><time>2026-04-11T09:33:37.982Z</time></trkpt><trkpt lat="44.84025579892228" lon="4.790446115668928"><ele>395.0</ele><time>2026-04-11T09:33:39.982Z</time></trkpt><trkpt lat="44.84018925914874" lon="4.790502207253427"><ele>396.0</ele><time>2026-04-11T09:33:42.982Z</time></trkpt><trkpt lat="44.84012458879808" lon="4.790529517779406"><ele>396.99999999999994</ele><time>2026-04-11T09:33:45.982Z</time></trkpt><trkpt lat="44.84006218751454" lon="4.79055061257174"><ele>398.0</ele><time>2026-04-11T09:33:48.982Z</time></trkpt><trkpt lat="44.83998517902947" lon="4.790568156722526"><ele>397.99999999999994</ele><time>2026-04-11T09:33:52.982Z</time></trkpt><trkpt lat="44.839926143438895" lon="4.790599580118311"><ele>398.0</ele><time>2026-04-11T09:33:55.982Z</time></trkpt><trkpt lat="44.83985997404805" lon="4.790624796999816"><ele>398.0</ele><time>2026-04-11T09:33:58.982Z</time></trkpt><trkpt lat="44.83978686494666" lon="4.7906452469240195"><ele>398.0</ele><time>2026-04-11T09:34:02.982Z</time></trkpt><trkpt lat="44.83971390121181" lon="4.790681160103172"><ele>398.0</ele><time>2026-04-11T09:34:06.982Z</time></trkpt><trkpt lat="44.83965070977602" lon="4.790711671539971"><ele>397.99999999999994</ele><time>2026-04-11T09:34:09.982Z</time></trkpt><trkpt lat="44.83958388810493" lon="4.79074380322989"><ele>398.0</ele><time>2026-04-11T09:34:12.981Z</time></trkpt><trkpt lat="44.83951943451582" lon="4.790783336850023"><ele>397.99999999999994</ele><time>2026-04-11T09:34:15.981Z</time></trkpt><trkpt lat="44.83945519092285" lon="4.7908228676431035"><ele>398.0</ele><time>2026-04-11T09:34:18.982Z</time></trkpt><trkpt lat="44.839393013277316" lon="4.790865846740584"><ele>398.0</ele><time>2026-04-11T09:34:21.982Z</time></trkpt><trkpt lat="44.839333787396555" lon="4.790916816539576"><ele>398.0</ele><time>2026-04-11T09:34:24.982Z</time></trkpt><trkpt lat="44.83928539922108" lon="4.790982438264503"><ele>398.0</ele><time>2026-04-11T09:34:27.982Z</time></trkpt><trkpt lat="44.839244767693636" lon="4.7910599565522"><ele>397.99999999999994</ele><time>2026-04-11T09:34:30.982Z</time></trkpt><trkpt lat="44.839217673610214" lon="4.7911472678382605"><ele>398.0</ele><time>2026-04-11T09:34:33.982Z</time></trkpt><trkpt lat="44.839201809607026" lon="4.791255210544464"><ele>398.4285714285714</ele><time>2026-04-11T09:34:37.982Z</time></trkpt><trkpt lat="44.83919245723693" lon="4.791343781133055"><ele>398.85714285714283</ele><time>2026-04-11T09:34:39.982Z</time></trkpt><trkpt lat="44.839203531046" lon="4.7914329692068"><ele>399.2857142857143</ele><time>2026-04-11T09:34:41.982Z</time></trkpt><trkpt lat="44.839218174983515" lon="4.791523371218531"><ele>399.71428571428567</ele><time>2026-04-11T09:34:44.982Z</time></trkpt><trkpt lat="44.839207182395015" lon="4.791639356231808"><ele>400.14285714285717</ele><time>2026-04-11T09:34:47.982Z</time></trkpt><trkpt lat="44.83920223296197" lon="4.791740908410789"><ele>400.57142857142856</ele><time>2026-04-11T09:34:49.982Z</time></trkpt><trkpt lat="44.839221929288016" lon="4.791839765618892"><ele>401.0</ele><time>2026-04-11T09:34:51.982Z</time></trkpt><trkpt lat="44.83921203854954" lon="4.7919531293152255"><ele>401.0</ele><time>2026-04-11T09:34:53.982Z</time></trkpt><trkpt lat="44.83919170804484" lon="4.792081718665864"><ele>401.0</ele><time>2026-04-11T09:34:55.982Z</time></trkpt><trkpt lat="44.83915854424234" lon="4.792212859794606"><ele>401.0</ele><time>2026-04-11T09:34:57.982Z</time></trkpt><trkpt lat="44.839107301648895" lon="4.792342831606021"><ele>401.0</ele><time>2026-04-11T09:34:59.982Z</time></trkpt><trkpt lat="44.839039545415126" lon="4.79247572125278"><ele>401.0</ele><time>2026-04-11T09:35:01.982Z</time></trkpt><trkpt lat="44.83897347954007" lon="4.792590032217629"><ele>400.99999999999994</ele><time>2026-04-11T09:35:03.982Z</time></trkpt><trkpt lat="44.83889696523103" lon="4.792660200696553"><ele>401.0</ele><time>2026-04-11T09:35:05.982Z</time></trkpt><trkpt lat="44.83883271103111" lon="4.792742134457118"><ele>401.0</ele><time>2026-04-11T09:35:07.982Z</time></trkpt><trkpt lat="44.83877680028178" lon="4.792818085570552"><ele>401.0</ele><time>2026-04-11T09:35:09.982Z</time></trkpt><trkpt lat="44.8387286628675" lon="4.7928886678394385"><ele>400.99999999999994</ele><time>2026-04-11T09:35:11.982Z</time></trkpt><trkpt lat="44.83868164826034" lon="4.79295162712631"><ele>401.0</ele><time>2026-04-11T09:35:13.982Z</time></trkpt><trkpt lat="44.83862712077647" lon="4.793015164330369"><ele>400.3333333333333</ele><time>2026-04-11T09:35:15.982Z</time></trkpt><trkpt lat="44.83855942812915" lon="4.793111402835436"><ele>399.66666666666663</ele><time>2026-04-11T09:35:18.982Z</time></trkpt><trkpt lat="44.83849560549051" lon="4.793182446166376"><ele>399.0</ele><time>2026-04-11T09:35:20.982Z</time></trkpt><trkpt lat="44.83843247382649" lon="4.793286559270139"><ele>398.33333333333337</ele><time>2026-04-11T09:35:22.982Z</time></trkpt><trkpt lat="44.83839023852377" lon="4.793365657063922"><ele>397.6666666666667</ele><time>2026-04-11T09:35:24.982Z</time></trkpt><trkpt lat="44.83834451117479" lon="4.793428636085678"><ele>397.0</ele><time>2026-04-11T09:35:26.982Z</time></trkpt><trkpt lat="44.83829485003026" lon="4.793518152591083"><ele>394.1666666666667</ele><time>2026-04-11T09:35:28.982Z</time></trkpt><trkpt lat="44.838257405586305" lon="4.793638316116502"><ele>391.33333333333337</ele><time>2026-04-11T09:35:31.982Z</time></trkpt><trkpt lat="44.83822954671684" lon="4.793735831646724"><ele>388.5</ele><time>2026-04-11T09:35:33.982Z</time></trkpt><trkpt lat="44.83817165751349" lon="4.793817931683968"><ele>385.6666666666667</ele><time>2026-04-11T09:35:35.982Z</time></trkpt><trkpt lat="44.83812278510606" lon="4.793892887651303"><ele>382.83333333333337</ele><time>2026-04-11T09:35:37.982Z</time></trkpt><trkpt lat="44.83808303809126" lon="4.793983213620136"><ele>380.0</ele><time>2026-04-11T09:35:39.982Z</time></trkpt><trkpt lat="44.83805756317038" lon="4.79409197926188"><ele>380.0</ele><time>2026-04-11T09:35:41.982Z</time></trkpt><trkpt lat="44.83800834076865" lon="4.794211880717895"><ele>380.0</ele><time>2026-04-11T09:35:43.982Z</time></trkpt><trkpt lat="44.837944960859204" lon="4.794331287459685"><ele>380.0</ele><time>2026-04-11T09:35:45.982Z</time></trkpt><trkpt lat="44.837873989708726" lon="4.794480549764833"><ele>380.0</ele><time>2026-04-11T09:35:47.982Z</time></trkpt><trkpt lat="44.83783034918566" lon="4.794551699773703"><ele>380.0</ele><time>2026-04-11T09:35:48.982Z</time></trkpt><trkpt lat="44.83777640149331" lon="4.794612477964977"><ele>379.0</ele><time>2026-04-11T09:35:49.982Z</time></trkpt><trkpt lat="44.83772728508074" lon="4.794676417519805"><ele>378.0</ele><time>2026-04-11T09:35:50.982Z</time></trkpt><trkpt lat="44.837645110097945" lon="4.794810397649665"><ele>377.0</ele><time>2026-04-11T09:35:52.982Z</time></trkpt><trkpt lat="44.83761203145627" lon="4.794891800216714"><ele>376.0</ele><time>2026-04-11T09:35:53.982Z</time></trkpt><trkpt lat="44.83758362008188" lon="4.794975643028528"><ele>375.0</ele><time>2026-04-11T09:35:54.982Z</time></trkpt><trkpt lat="44.83755245387807" lon="4.795056372336124"><ele>374.0</ele><time>2026-04-11T09:35:55.982Z</time></trkpt><trkpt lat="44.83751444301949" lon="4.795225389012641"><ele>373.5</ele><time>2026-04-11T09:35:57.982Z</time></trkpt><trkpt lat="44.83748760895758" lon="4.795373956135091"><ele>373.0</ele><time>2026-04-11T09:35:59.982Z</time></trkpt><trkpt lat="44.83746461336373" lon="4.795496026196335"><ele>372.5</ele><time>2026-04-11T09:36:01.982Z</time></trkpt><trkpt lat="44.83743787018369" lon="4.79558987473588"><ele>372.0</ele><time>2026-04-11T09:36:03.982Z</time></trkpt><trkpt lat="44.83740731746715" lon="4.795667499445344"><ele>371.5</ele><time>2026-04-11T09:36:06.982Z</time></trkpt><trkpt lat="44.83737134550457" lon="4.79574268150376"><ele>371.0</ele><time>2026-04-11T09:36:09.982Z</time></trkpt><trkpt lat="44.83732196777023" lon="4.795838061359224"><ele>371.0</ele><time>2026-04-11T09:36:13.982Z</time></trkpt><trkpt lat="44.83725749043758" lon="4.795903634026239"><ele>371.0</ele><time>2026-04-11T09:36:16.982Z</time></trkpt><trkpt lat="44.8371958819065" lon="4.795977615613816"><ele>371.0</ele><time>2026-04-11T09:36:19.981Z</time></trkpt><trkpt lat="44.83712046277481" lon="4.796033716628848"><ele>371.0</ele><time>2026-04-11T09:36:22.982Z</time></trkpt><trkpt lat="44.83705926814827" lon="4.796089367423146"><ele>371.0</ele><time>2026-04-11T09:36:24.981Z</time></trkpt><trkpt lat="44.836966620249555" lon="4.796157027482418"><ele>371.0</ele><time>2026-04-11T09:36:26.981Z</time></trkpt><trkpt lat="44.8368647588469" lon="4.796216798662881"><ele>370.5</ele><time>2026-04-11T09:36:28.981Z</time></trkpt><trkpt lat="44.83680529004953" lon="4.796258440579314"><ele>370.0</ele><time>2026-04-11T09:36:29.981Z</time></trkpt><trkpt lat="44.836740240013924" lon="4.796307316540387"><ele>369.5</ele><time>2026-04-11T09:36:30.981Z</time></trkpt><trkpt lat="44.83668084189034" lon="4.796363389575942"><ele>369.0</ele><time>2026-04-11T09:36:31.981Z</time></trkpt><trkpt lat="44.83663325054227" lon="4.796421636834237"><ele>368.5</ele><time>2026-04-11T09:36:32.981Z</time></trkpt><trkpt lat="44.836567020953176" lon="4.7965215214752615"><ele>368.0</ele><time>2026-04-11T09:36:34.981Z</time></trkpt><trkpt lat="44.83647661535236" lon="4.79658039546109"><ele>368.0</ele><time>2026-04-11T09:36:36.981Z</time></trkpt><trkpt lat="44.836377313479844" lon="4.796619771936207"><ele>368.0</ele><time>2026-04-11T09:36:38.981Z</time></trkpt><trkpt lat="44.83625949045455" lon="4.796628908304512"><ele>368.0</ele><time>2026-04-11T09:36:40.98Z</time></trkpt><trkpt lat="44.836198169905664" lon="4.796649552284816"><ele>368.0</ele><time>2026-04-11T09:36:41.98Z</time></trkpt><trkpt lat="44.83622514404246" lon="4.796566800301693"><ele>368.0</ele><time>2026-04-11T09:36:54.98Z</time></trkpt><trkpt lat="44.836215544170386" lon="4.796474296209055"><ele>368.0</ele><time>2026-04-11T09:37:18.979Z</time></trkpt><trkpt lat="44.83621418516375" lon="4.796571613084063"><ele>368.0</ele><time>2026-04-11T09:43:17.974Z</time></trkpt><trkpt lat="44.83618827920168" lon="4.7966577615641945"><ele>368.0</ele><time>2026-04-11T09:43:20.974Z</time></trkpt><trkpt lat="44.836115532445184" lon="4.796730465396541"><ele>368.0</ele><time>2026-04-11T09:43:23.974Z</time></trkpt><trkpt lat="44.83606463823038" lon="4.796806649847534"><ele>368.0</ele><time>2026-04-11T09:43:25.974Z</time></trkpt><trkpt lat="44.836014567037815" lon="4.796885249239724"><ele>368.0</ele><time>2026-04-11T09:43:27.974Z</time></trkpt><trkpt lat="44.835959587121025" lon="4.796969455584861"><ele>368.0</ele><time>2026-04-11T09:43:29.974Z</time></trkpt><trkpt lat="44.835914962141665" lon="4.7970369781026205"><ele>366.5</ele><time>2026-04-11T09:43:31.974Z</time></trkpt><trkpt lat="44.83583659879133" lon="4.797117064190804"><ele>365.0</ele><time>2026-04-11T09:43:33.974Z</time></trkpt><trkpt lat="44.835759136857085" lon="4.797162544101993"><ele>363.5</ele><time>2026-04-11T09:43:35.974Z</time></trkpt><trkpt lat="44.83566701472219" lon="4.7971444954663"><ele>362.0</ele><time>2026-04-11T09:43:37.974Z</time></trkpt><trkpt lat="44.835608313486325" lon="4.797080530845501"><ele>360.5</ele><time>2026-04-11T09:43:39.974Z</time></trkpt><trkpt lat="44.83555640164145" lon="4.79702377438634"><ele>359.0</ele><time>2026-04-11T09:43:41.974Z</time></trkpt><trkpt lat="44.835494830113824" lon="4.796948048870424"><ele>359.0</ele><time>2026-04-11T09:43:44.974Z</time></trkpt><trkpt lat="44.83539547793755" lon="4.7969695983210725"><ele>359.0</ele><time>2026-04-11T09:44:07.974Z</time></trkpt><trkpt lat="44.83531737490359" lon="4.797026820873459"><ele>359.0</ele><time>2026-04-11T09:44:09.974Z</time></trkpt><trkpt lat="44.835260933154096" lon="4.797129527541083"><ele>359.0</ele><time>2026-04-11T09:44:11.974Z</time></trkpt><trkpt lat="44.835202785419" lon="4.797245886829449"><ele>359.0</ele><time>2026-04-11T09:44:13.974Z</time></trkpt><trkpt lat="44.83513823863175" lon="4.7973875434788145"><ele>356.33333333333337</ele><time>2026-04-11T09:44:15.974Z</time></trkpt><trkpt lat="44.83510035979098" lon="4.797459840158719"><ele>353.6666666666667</ele><time>2026-04-11T09:44:16.974Z</time></trkpt><trkpt lat="44.83505246711936" lon="4.797535419665545"><ele>351.0</ele><time>2026-04-11T09:44:17.974Z</time></trkpt><trkpt lat="44.83499925418601" lon="4.797631000337314"><ele>348.3333333333333</ele><time>2026-04-11T09:44:18.974Z</time></trkpt><trkpt lat="44.834935747548926" lon="4.7977221409847335"><ele>345.66666666666663</ele><time>2026-04-11T09:44:19.974Z</time></trkpt><trkpt lat="44.83487483034445" lon="4.797799792010419"><ele>343.0</ele><time>2026-04-11T09:44:20.974Z</time></trkpt><trkpt lat="44.83481486342443" lon="4.797872374611625"><ele>341.0</ele><time>2026-04-11T09:44:21.974Z</time></trkpt><trkpt lat="44.834758798576395" lon="4.7979571433304535"><ele>339.0</ele><time>2026-04-11T09:44:22.974Z</time></trkpt><trkpt lat="44.83468535852053" lon="4.798051635189355"><ele>337.0</ele><time>2026-04-11T09:44:23.974Z</time></trkpt><trkpt lat="44.83461607218333" lon="4.798137923220178"><ele>335.0</ele><time>2026-04-11T09:44:24.974Z</time></trkpt><trkpt lat="44.83456150751288" lon="4.798215911961427"><ele>333.0</ele><time>2026-04-11T09:44:25.974Z</time></trkpt><trkpt lat="44.83451209036026" lon="4.7982785530640095"><ele>331.0</ele><time>2026-04-11T09:44:26.974Z</time></trkpt><trkpt lat="44.83444941262887" lon="4.798340916638441"><ele>331.0</ele><time>2026-04-11T09:44:27.974Z</time></trkpt><trkpt lat="44.834385296949414" lon="4.798392790099261"><ele>331.0</ele><time>2026-04-11T09:44:28.974Z</time></trkpt><trkpt lat="44.83430823497347" lon="4.798455135498104"><ele>331.0</ele><time>2026-04-11T09:44:29.974Z</time></trkpt><trkpt lat="44.834239484972976" lon="4.798503806586776"><ele>331.0</ele><time>2026-04-11T09:44:30.974Z</time></trkpt><trkpt lat="44.834161534043055" lon="4.79855411693037"><ele>331.0</ele><time>2026-04-11T09:44:32.974Z</time></trkpt><trkpt lat="44.83407178461648" lon="4.798610469683826"><ele>331.0</ele><time>2026-04-11T09:44:34.974Z</time></trkpt><trkpt lat="44.83396360757205" lon="4.798687263275195"><ele>330.8</ele><time>2026-04-11T09:44:36.974Z</time></trkpt><trkpt lat="44.83386087919829" lon="4.798771137452481"><ele>330.6</ele><time>2026-04-11T09:44:38.973Z</time></trkpt><trkpt lat="44.8337727868514" lon="4.798814710242203"><ele>330.4</ele><time>2026-04-11T09:44:40.973Z</time></trkpt><trkpt lat="44.83367158294439" lon="4.798770109212895"><ele>330.2</ele><time>2026-04-11T09:44:42.974Z</time></trkpt><trkpt lat="44.83360324405559" lon="4.798633028109716"><ele>330.0</ele><time>2026-04-11T09:44:44.974Z</time></trkpt><trkpt lat="44.833599600067394" lon="4.798462640620807"><ele>330.0</ele><time>2026-04-11T09:44:46.973Z</time></trkpt><trkpt lat="44.83361515408748" lon="4.798350893191044"><ele>330.0</ele><time>2026-04-11T09:44:47.973Z</time></trkpt><trkpt lat="44.83364037805117" lon="4.7982392664477125"><ele>330.0</ele><time>2026-04-11T09:44:48.973Z</time></trkpt><trkpt lat="44.83368385831923" lon="4.798137890478581"><ele>330.0</ele><time>2026-04-11T09:44:49.973Z</time></trkpt><trkpt lat="44.83373333025947" lon="4.798028645336892"><ele>330.0</ele><time>2026-04-11T09:44:50.972Z</time></trkpt><trkpt lat="44.8337919359439" lon="4.797916561817309"><ele>330.0</ele><time>2026-04-11T09:44:51.973Z</time></trkpt><trkpt lat="44.8338547876001" lon="4.7978069788929325"><ele>330.0</ele><time>2026-04-11T09:44:52.973Z</time></trkpt><trkpt lat="44.83391130756134" lon="4.797699291341545"><ele>330.0</ele><time>2026-04-11T09:44:53.973Z</time></trkpt><trkpt lat="44.833978029815036" lon="4.797596889462152"><ele>330.0</ele><time>2026-04-11T09:44:54.973Z</time></trkpt><trkpt lat="44.834038953540094" lon="4.797508108486067"><ele>330.0</ele><time>2026-04-11T09:44:55.973Z</time></trkpt><trkpt lat="44.8340881705521" lon="4.797427389591262"><ele>330.0</ele><time>2026-04-11T09:44:56.973Z</time></trkpt><trkpt lat="44.83413065047385" lon="4.797352679833055"><ele>330.0</ele><time>2026-04-11T09:44:57.973Z</time></trkpt><trkpt lat="44.8341694477905" lon="4.797275917827372"><ele>328.4</ele><time>2026-04-11T09:44:58.973Z</time></trkpt><trkpt lat="44.834196646060555" lon="4.797194020541303"><ele>326.8</ele><time>2026-04-11T09:44:59.973Z</time></trkpt><trkpt lat="44.83421066256878" lon="4.797058873377778"><ele>325.20000000000005</ele><time>2026-04-11T09:45:01.973Z</time></trkpt><trkpt lat="44.83415447288852" lon="4.796932344564967"><ele>323.6</ele><time>2026-04-11T09:45:03.973Z</time></trkpt><trkpt lat="44.834069668866334" lon="4.796811532413366"><ele>322.0</ele><time>2026-04-11T09:45:05.973Z</time></trkpt><trkpt lat="44.833965704791" lon="4.796697583043397"><ele>320.8333333333333</ele><time>2026-04-11T09:45:07.973Z</time></trkpt><trkpt lat="44.83392025454571" lon="4.7966300055402"><ele>319.66666666666663</ele><time>2026-04-11T09:45:08.973Z</time></trkpt><trkpt lat="44.8338686879891" lon="4.796554479587464"><ele>318.5</ele><time>2026-04-11T09:45:09.973Z</time></trkpt><trkpt lat="44.833818227691424" lon="4.796487912258769"><ele>317.3333333333333</ele><time>2026-04-11T09:45:10.973Z</time></trkpt><trkpt lat="44.833735239061895" lon="4.796377423868899"><ele>316.1666666666667</ele><time>2026-04-11T09:45:12.973Z</time></trkpt><trkpt lat="44.83365454146339" lon="4.796305446701164"><ele>315.0</ele><time>2026-04-11T09:45:14.973Z</time></trkpt><trkpt lat="44.83355192982565" lon="4.796228481627835"><ele>315.0</ele><time>2026-04-11T09:45:16.973Z</time></trkpt><trkpt lat="44.83349224584434" lon="4.796180096614518"><ele>315.0</ele><time>2026-04-11T09:45:17.973Z</time></trkpt><trkpt lat="44.833406263904465" lon="4.796092804409273"><ele>315.0</ele><time>2026-04-11T09:45:19.973Z</time></trkpt><trkpt lat="44.83331854930882" lon="4.795985936251248"><ele>315.0</ele><time>2026-04-11T09:45:21.973Z</time></trkpt><trkpt lat="44.83326477022604" lon="4.795935811184771"><ele>315.0</ele><time>2026-04-11T09:45:22.973Z</time></trkpt><trkpt lat="44.833200786998255" lon="4.795888101404037"><ele>315.0</ele><time>2026-04-11T09:45:23.973Z</time></trkpt><trkpt lat="44.83312533164302" lon="4.795839951402254"><ele>311.0</ele><time>2026-04-11T09:45:24.973Z</time></trkpt><trkpt lat="44.83304413990989" lon="4.79578941392275"><ele>307.0</ele><time>2026-04-11T09:45:25.973Z</time></trkpt><trkpt lat="44.832971657093985" lon="4.79574709112814"><ele>303.0</ele><time>2026-04-11T09:45:26.973Z</time></trkpt><trkpt lat="44.83290499280685" lon="4.795705392152627"><ele>299.0</ele><time>2026-04-11T09:45:27.973Z</time></trkpt><trkpt lat="44.83284149067642" lon="4.795664871873293"><ele>295.0</ele><time>2026-04-11T09:45:28.973Z</time></trkpt><trkpt lat="44.83274473686648" lon="4.79560091943471"><ele>291.0</ele><time>2026-04-11T09:45:30.973Z</time></trkpt><trkpt lat="44.832715351151606" lon="4.795450750805902"><ele>291.0</ele><time>2026-04-11T09:45:32.973Z</time></trkpt><trkpt lat="44.83273720964612" lon="4.795365377862561"><ele>291.0</ele><time>2026-04-11T09:45:33.973Z</time></trkpt><trkpt lat="44.83279174075681" lon="4.795300264785969"><ele>291.0</ele><time>2026-04-11T09:45:34.973Z</time></trkpt><trkpt lat="44.83286926436584" lon="4.795270545899789"><ele>291.0</ele><time>2026-04-11T09:45:35.973Z</time></trkpt><trkpt lat="44.832940258916686" lon="4.795252076595701"><ele>291.0</ele><time>2026-04-11T09:45:36.973Z</time></trkpt><trkpt lat="44.83300657261952" lon="4.79525870916721"><ele>291.0</ele><time>2026-04-11T09:45:37.973Z</time></trkpt><trkpt lat="44.83308992954407" lon="4.795252050741976"><ele>291.0</ele><time>2026-04-11T09:45:39.973Z</time></trkpt><trkpt lat="44.83308819027445" lon="4.795140801297025"><ele>288.8333333333333</ele><time>2026-04-11T09:45:41.973Z</time></trkpt><trkpt lat="44.83302992827419" lon="4.795097112700397"><ele>286.6666666666667</ele><time>2026-04-11T09:45:42.973Z</time></trkpt><trkpt lat="44.83290532131237" lon="4.795087879623253"><ele>284.5</ele><time>2026-04-11T09:45:44.973Z</time></trkpt><trkpt lat="44.83283920189854" lon="4.795076504174125"><ele>282.33333333333337</ele><time>2026-04-11T09:45:45.973Z</time></trkpt><trkpt lat="44.83276798940977" lon="4.795077745163558"><ele>280.1666666666667</ele><time>2026-04-11T09:45:46.973Z</time></trkpt><trkpt lat="44.83269485893921" lon="4.795064785391488"><ele>278.0</ele><time>2026-04-11T09:45:47.973Z</time></trkpt><trkpt lat="44.83260858452363" lon="4.795041447954961"><ele>277.0</ele><time>2026-04-11T09:45:48.973Z</time></trkpt><trkpt lat="44.832526002858955" lon="4.795034171403308"><ele>276.0</ele><time>2026-04-11T09:45:49.973Z</time></trkpt><trkpt lat="44.83244607353717" lon="4.7950256003047445"><ele>275.0</ele><time>2026-04-11T09:45:50.973Z</time></trkpt><trkpt lat="44.832365440484374" lon="4.795013198004266"><ele>274.0</ele><time>2026-04-11T09:45:51.973Z</time></trkpt><trkpt lat="44.832285787658975" lon="4.79501580569398"><ele>273.0</ele><time>2026-04-11T09:45:52.973Z</time></trkpt><trkpt lat="44.83220674982977" lon="4.7950195277958"><ele>272.0</ele><time>2026-04-11T09:45:53.973Z</time></trkpt><trkpt lat="44.8321380991452" lon="4.795043143769618"><ele>272.0</ele><time>2026-04-11T09:45:54.973Z</time></trkpt><trkpt lat="44.83206951477696" lon="4.795066856772368"><ele>272.0</ele><time>2026-04-11T09:45:55.973Z</time></trkpt><trkpt lat="44.83199050682859" lon="4.7951062407323715"><ele>272.0</ele><time>2026-04-11T09:45:56.973Z</time></trkpt><trkpt lat="44.8319106664048" lon="4.795137975743562"><ele>272.0</ele><time>2026-04-11T09:45:57.973Z</time></trkpt><trkpt lat="44.83184444478244" lon="4.7951736074011295"><ele>272.0</ele><time>2026-04-11T09:45:58.973Z</time></trkpt><trkpt lat="44.831774603933255" lon="4.795289718749634"><ele>272.0</ele><time>2026-04-11T09:46:00.973Z</time></trkpt><trkpt lat="44.83173841431898" lon="4.795456550716374"><ele>272.4</ele><time>2026-04-11T09:46:02.973Z</time></trkpt><trkpt lat="44.831776486712606" lon="4.795607217861907"><ele>272.79999999999995</ele><time>2026-04-11T09:46:04.973Z</time></trkpt><trkpt lat="44.83182175792932" lon="4.79567921311664"><ele>273.2</ele><time>2026-04-11T09:46:05.973Z</time></trkpt><trkpt lat="44.8318774136559" lon="4.795741059679421"><ele>273.59999999999997</ele><time>2026-04-11T09:46:06.973Z</time></trkpt><trkpt lat="44.831975890392805" lon="4.795820831264776"><ele>274.0</ele><time>2026-04-11T09:46:08.973Z</time></trkpt><trkpt lat="44.83207221984959" lon="4.795887024578508"><ele>274.0</ele><time>2026-04-11T09:46:10.973Z</time></trkpt><trkpt lat="44.832157951302825" lon="4.795959681991952"><ele>274.0</ele><time>2026-04-11T09:46:12.973Z</time></trkpt><trkpt lat="44.83222913709604" lon="4.796101157338962"><ele>274.0</ele><time>2026-04-11T09:46:14.973Z</time></trkpt><trkpt lat="44.83231031657826" lon="4.796235026043723"><ele>274.0</ele><time>2026-04-11T09:46:16.973Z</time></trkpt><trkpt lat="44.83237215942618" lon="4.796286720277423"><ele>274.0</ele><time>2026-04-11T09:46:17.973Z</time></trkpt><trkpt lat="44.832472744714494" lon="4.796362273633484"><ele>272.0</ele><time>2026-04-11T09:46:19.973Z</time></trkpt><trkpt lat="44.83249561310836" lon="4.7964637146825995"><ele>270.0</ele><time>2026-04-11T09:46:21.973Z</time></trkpt><trkpt lat="44.83243747693318" lon="4.796564482542333"><ele>268.0</ele><time>2026-04-11T09:46:23.973Z</time></trkpt><trkpt lat="44.83232571596181" lon="4.7965740194638595"><ele>266.0</ele><time>2026-04-11T09:46:25.973Z</time></trkpt><trkpt lat="44.83222378441233" lon="4.796594735301886"><ele>264.0</ele><time>2026-04-11T09:46:27.973Z</time></trkpt><trkpt lat="44.83211808301763" lon="4.796676558968232"><ele>264.0</ele><time>2026-04-11T09:46:29.973Z</time></trkpt><trkpt lat="44.83204752687836" lon="4.796728123595914"><ele>264.0</ele><time>2026-04-11T09:46:30.973Z</time></trkpt><trkpt lat="44.831982068261816" lon="4.796742508391638"><ele>264.0</ele><time>2026-04-11T09:46:31.973Z</time></trkpt><trkpt lat="44.831899232336376" lon="4.79675438795604"><ele>264.0</ele><time>2026-04-11T09:46:32.973Z</time></trkpt><trkpt lat="44.831815938772145" lon="4.796759587980706"><ele>264.0</ele><time>2026-04-11T09:46:33.973Z</time></trkpt><trkpt lat="44.831725525220925" lon="4.79676721300254"><ele>264.0</ele><time>2026-04-11T09:46:34.973Z</time></trkpt><trkpt lat="44.831641685641486" lon="4.79679154976645"><ele>264.1666666666667</ele><time>2026-04-11T09:46:35.973Z</time></trkpt><trkpt lat="44.83156549482603" lon="4.796841414885693"><ele>264.3333333333333</ele><time>2026-04-11T09:46:36.973Z</time></trkpt><trkpt lat="44.83148315638308" lon="4.7968845514304395"><ele>264.5</ele><time>2026-04-11T09:46:37.973Z</time></trkpt><trkpt lat="44.83140012836737" lon="4.796908243357817"><ele>264.66666666666663</ele><time>2026-04-11T09:46:38.973Z</time></trkpt><trkpt lat="44.83131973100926" lon="4.796925664217602"><ele>264.8333333333333</ele><time>2026-04-11T09:46:39.973Z</time></trkpt><trkpt lat="44.831222430572126" lon="4.796926596561931"><ele>265.0</ele><time>2026-04-11T09:46:40.973Z</time></trkpt><trkpt lat="44.83113625332032" lon="4.796915721125483"><ele>264.99999999999994</ele><time>2026-04-11T09:46:41.973Z</time></trkpt><trkpt lat="44.83105568552477" lon="4.7968885263596714"><ele>265.0</ele><time>2026-04-11T09:46:42.973Z</time></trkpt><trkpt lat="44.83098632466043" lon="4.7968626036944775"><ele>265.0</ele><time>2026-04-11T09:46:43.973Z</time></trkpt><trkpt lat="44.83091662384379" lon="4.796852728873964"><ele>265.0</ele><time>2026-04-11T09:46:44.972Z</time></trkpt><trkpt lat="44.830852643525056" lon="4.79687284624556"><ele>265.0</ele><time>2026-04-11T09:46:45.972Z</time></trkpt><trkpt lat="44.83078737116289" lon="4.796934973429141"><ele>264.99999999999994</ele><time>2026-04-11T09:46:46.972Z</time></trkpt><trkpt lat="44.83073011990221" lon="4.797011856105149"><ele>265.0</ele><time>2026-04-11T09:46:47.972Z</time></trkpt><trkpt lat="44.830669318318556" lon="4.797093094292646"><ele>262.16666666666663</ele><time>2026-04-11T09:46:48.971Z</time></trkpt><trkpt lat="44.83060531345187" lon="4.7971840779690185"><ele>259.3333333333333</ele><time>2026-04-11T09:46:49.971Z</time></trkpt><trkpt lat="44.830546122323234" lon="4.797274039646241"><ele>256.5</ele><time>2026-04-11T09:46:50.971Z</time></trkpt><trkpt lat="44.8304928274919" lon="4.797373913239794"><ele>253.66666666666669</ele><time>2026-04-11T09:46:51.972Z</time></trkpt><trkpt lat="44.83044344072771" lon="4.797457364674252"><ele>250.83333333333334</ele><time>2026-04-11T09:46:52.972Z</time></trkpt><trkpt lat="44.83039017078865" lon="4.7975108965289355"><ele>248.0</ele><time>2026-04-11T09:46:53.972Z</time></trkpt><trkpt lat="44.83032309776346" lon="4.797529636292859"><ele>248.00000000000003</ele><time>2026-04-11T09:46:54.972Z</time></trkpt><trkpt lat="44.83024229698434" lon="4.797520843781218"><ele>248.0</ele><time>2026-04-11T09:46:55.972Z</time></trkpt><trkpt lat="44.830166233629306" lon="4.797514587981748"><ele>248.0</ele><time>2026-04-11T09:46:56.971Z</time></trkpt><trkpt lat="44.83007973611206" lon="4.797520162356836"><ele>248.0</ele><time>2026-04-11T09:46:57.972Z</time></trkpt><trkpt lat="44.82999299250022" lon="4.797537577800011"><ele>248.00000000000003</ele><time>2026-04-11T09:46:58.972Z</time></trkpt><trkpt lat="44.82989843289019" lon="4.797557783119506"><ele>248.0</ele><time>2026-04-11T09:46:59.972Z</time></trkpt><trkpt lat="44.82980444927748" lon="4.797589597152443"><ele>247.16666666666669</ele><time>2026-04-11T09:47:00.972Z</time></trkpt><trkpt lat="44.82971205719412" lon="4.797622564040784"><ele>246.33333333333334</ele><time>2026-04-11T09:47:01.972Z</time></trkpt><trkpt lat="44.82962215634644" lon="4.797663381266114"><ele>245.5</ele><time>2026-04-11T09:47:02.972Z</time></trkpt><trkpt lat="44.829545410145826" lon="4.797716720785231"><ele>244.66666666666669</ele><time>2026-04-11T09:47:03.972Z</time></trkpt><trkpt lat="44.8294771216282" lon="4.797778686167132"><ele>243.83333333333334</ele><time>2026-04-11T09:47:04.972Z</time></trkpt><trkpt lat="44.82941061238354" lon="4.797860063397829"><ele>243.0</ele><time>2026-04-11T09:47:05.972Z</time></trkpt><trkpt lat="44.829351527498886" lon="4.7979577591357"><ele>238.0</ele><time>2026-04-11T09:47:06.972Z</time></trkpt><trkpt lat="44.829291002140394" lon="4.79806243485321"><ele>233.0</ele><time>2026-04-11T09:47:07.972Z</time></trkpt><trkpt lat="44.829227672442684" lon="4.798165439059195"><ele>228.0</ele><time>2026-04-11T09:47:08.972Z</time></trkpt><trkpt lat="44.82915748615695" lon="4.79826072091726"><ele>223.0</ele><time>2026-04-11T09:47:09.972Z</time></trkpt><trkpt lat="44.82908577108887" lon="4.798350448680998"><ele>218.0</ele><time>2026-04-11T09:47:10.972Z</time></trkpt><trkpt lat="44.82901736086817" lon="4.79844524320087"><ele>219.66666666666669</ele><time>2026-04-11T09:47:11.972Z</time></trkpt><trkpt lat="44.82896500326179" lon="4.798537856458854"><ele>221.33333333333334</ele><time>2026-04-11T09:47:12.972Z</time></trkpt><trkpt lat="44.82891825091526" lon="4.798639026209531"><ele>223.0</ele><time>2026-04-11T09:47:13.972Z</time></trkpt><trkpt lat="44.82888307466101" lon="4.798758726109619"><ele>224.66666666666669</ele><time>2026-04-11T09:47:14.972Z</time></trkpt><trkpt lat="44.82886241059735" lon="4.798894583645578"><ele>226.33333333333334</ele><time>2026-04-11T09:47:15.972Z</time></trkpt><trkpt lat="44.828850543990065" lon="4.799017648253704"><ele>228.0</ele><time>2026-04-11T09:47:16.972Z</time></trkpt><trkpt lat="44.82883295232376" lon="4.799128029572927"><ele>228.0</ele><time>2026-04-11T09:47:17.972Z</time></trkpt><trkpt lat="44.82880627056291" lon="4.799276689026076"><ele>228.0</ele><time>2026-04-11T09:47:19.972Z</time></trkpt><trkpt lat="44.82871894725611" lon="4.799391749116973"><ele>228.0</ele><time>2026-04-11T09:47:21.972Z</time></trkpt><trkpt lat="44.82864633354808" lon="4.799413128495075"><ele>228.0</ele><time>2026-04-11T09:47:22.972Z</time></trkpt><trkpt lat="44.8285631901268" lon="4.799448676392149"><ele>228.0</ele><time>2026-04-11T09:47:23.972Z</time></trkpt><trkpt lat="44.828493933097526" lon="4.799473158177453"><ele>226.0</ele><time>2026-04-11T09:47:24.972Z</time></trkpt><trkpt lat="44.828422183995166" lon="4.799480702013995"><ele>224.0</ele><time>2026-04-11T09:47:25.972Z</time></trkpt><trkpt lat="44.82835582767159" lon="4.799461310249404"><ele>222.0</ele><time>2026-04-11T09:47:26.972Z</time></trkpt><trkpt lat="44.82827312582778" lon="4.7994315843795645"><ele>220.0</ele><time>2026-04-11T09:47:27.972Z</time></trkpt><trkpt lat="44.82819308982023" lon="4.799393268794617"><ele>218.0</ele><time>2026-04-11T09:47:28.972Z</time></trkpt><trkpt lat="44.828120221907696" lon="4.799350011764171"><ele>216.0</ele><time>2026-04-11T09:47:29.972Z</time></trkpt><trkpt lat="44.82800231172813" lon="4.799337408402839"><ele>216.0</ele><time>2026-04-11T09:47:31.972Z</time></trkpt><trkpt lat="44.82793376154338" lon="4.799351560264654"><ele>216.0</ele><time>2026-04-11T09:47:32.972Z</time></trkpt><trkpt lat="44.82787236326422" lon="4.79938341362086"><ele>216.0</ele><time>2026-04-11T09:47:33.972Z</time></trkpt><trkpt lat="44.827815404687875" lon="4.799430439709587"><ele>216.0</ele><time>2026-04-11T09:47:34.972Z</time></trkpt><trkpt lat="44.82776552897751" lon="4.799503237084679"><ele>216.0</ele><time>2026-04-11T09:47:35.972Z</time></trkpt><trkpt lat="44.82773245896575" lon="4.79959477686187"><ele>216.0</ele><time>2026-04-11T09:47:36.972Z</time></trkpt><trkpt lat="44.82771320071779" lon="4.799693902067272"><ele>216.0</ele><time>2026-04-11T09:47:37.972Z</time></trkpt><trkpt lat="44.82770094110592" lon="4.799800129536454"><ele>216.0</ele><time>2026-04-11T09:47:38.972Z</time></trkpt><trkpt lat="44.827691880794696" lon="4.7999081561978025"><ele>216.00000000000003</ele><time>2026-04-11T09:47:39.972Z</time></trkpt><trkpt lat="44.827678183566654" lon="4.800001804492593"><ele>216.00000000000003</ele><time>2026-04-11T09:47:40.972Z</time></trkpt><trkpt lat="44.82767270491624" lon="4.800136609818106"><ele>216.0</ele><time>2026-04-11T09:47:42.972Z</time></trkpt><trkpt lat="44.82772837100453" lon="4.800253011033214"><ele>216.0</ele><time>2026-04-11T09:47:44.972Z</time></trkpt><trkpt lat="44.827844411438996" lon="4.800285469336161"><ele>212.75</ele><time>2026-04-11T09:47:46.972Z</time></trkpt><trkpt lat="44.82795656547466" lon="4.8002806732033685"><ele>209.5</ele><time>2026-04-11T09:47:48.972Z</time></trkpt><trkpt lat="44.82804989459271" lon="4.800307294722354"><ele>206.25</ele><time>2026-04-11T09:47:50.972Z</time></trkpt><trkpt lat="44.82810865210552" lon="4.800432208658105"><ele>203.0</ele><time>2026-04-11T09:47:52.972Z</time></trkpt><trkpt lat="44.82812938906145" lon="4.8006296234567145"><ele>203.00000000000003</ele><time>2026-04-11T09:47:54.972Z</time></trkpt><trkpt lat="44.828136857132584" lon="4.80073781464288"><ele>203.0</ele><time>2026-04-11T09:47:55.972Z</time></trkpt><trkpt lat="44.82814202709604" lon="4.800837677050251"><ele>203.0</ele><time>2026-04-11T09:47:56.972Z</time></trkpt><trkpt lat="44.82814274798676" lon="4.800945568592178"><ele>203.0</ele><time>2026-04-11T09:47:57.972Z</time></trkpt><trkpt lat="44.828126696620075" lon="4.801053424235928"><ele>203.00000000000003</ele><time>2026-04-11T09:47:58.972Z</time></trkpt><trkpt lat="44.82810438588372" lon="4.8011650510351345"><ele>203.0</ele><time>2026-04-11T09:47:59.972Z</time></trkpt><trkpt lat="44.82809038973326" lon="4.801267918024219"><ele>201.50000000000003</ele><time>2026-04-11T09:48:00.972Z</time></trkpt><trkpt lat="44.8280698235633" lon="4.801447398838938"><ele>200.0</ele><time>2026-04-11T09:48:02.972Z</time></trkpt><trkpt lat="44.82807982508595" lon="4.801539587517031"><ele>198.5</ele><time>2026-04-11T09:48:03.972Z</time></trkpt><trkpt lat="44.82810429976596" lon="4.801644242054577"><ele>197.0</ele><time>2026-04-11T09:48:04.972Z</time></trkpt><trkpt lat="44.82813272448863" lon="4.80174435774432"><ele>195.50000000000003</ele><time>2026-04-11T09:48:05.972Z</time></trkpt><trkpt lat="44.82816726311891" lon="4.801834872274337"><ele>194.0</ele><time>2026-04-11T09:48:06.972Z</time></trkpt><trkpt lat="44.82820866585768" lon="4.801917376131732"><ele>193.50000000000003</ele><time>2026-04-11T09:48:07.972Z</time></trkpt><trkpt lat="44.82825819186537" lon="4.801993121034409"><ele>193.0</ele><time>2026-04-11T09:48:08.972Z</time></trkpt><trkpt lat="44.828324145730164" lon="4.802058804889534"><ele>192.5</ele><time>2026-04-11T09:48:09.972Z</time></trkpt><trkpt lat="44.828402648091505" lon="4.80210563108266"><ele>192.0</ele><time>2026-04-11T09:48:10.972Z</time></trkpt><trkpt lat="44.828484658609334" lon="4.802150030859824"><ele>191.5</ele><time>2026-04-11T09:48:11.972Z</time></trkpt><trkpt lat="44.82856422974434" lon="4.802204185948064"><ele>191.0</ele><time>2026-04-11T09:48:12.972Z</time></trkpt><trkpt lat="44.82863821680959" lon="4.802272357805825"><ele>191.0</ele><time>2026-04-11T09:48:13.972Z</time></trkpt><trkpt lat="44.82871857837298" lon="4.802331480198914"><ele>191.0</ele><time>2026-04-11T09:48:14.972Z</time></trkpt><trkpt lat="44.82879681280614" lon="4.802405998137511"><ele>191.0</ele><time>2026-04-11T09:48:15.972Z</time></trkpt><trkpt lat="44.82886912695178" lon="4.802483600932593"><ele>191.0</ele><time>2026-04-11T09:48:16.972Z</time></trkpt><trkpt lat="44.82894798396539" lon="4.802558526807641"><ele>191.0</ele><time>2026-04-11T09:48:17.972Z</time></trkpt><trkpt lat="44.829035180576795" lon="4.802631553604658"><ele>188.0</ele><time>2026-04-11T09:48:18.972Z</time></trkpt><trkpt lat="44.82910418753799" lon="4.802695126279964"><ele>185.0</ele><time>2026-04-11T09:48:19.972Z</time></trkpt><trkpt lat="44.829172992991765" lon="4.80275975143383"><ele>182.0</ele><time>2026-04-11T09:48:20.972Z</time></trkpt><trkpt lat="44.829250972671524" lon="4.802819691239184"><ele>179.0</ele><time>2026-04-11T09:48:21.972Z</time></trkpt><trkpt lat="44.82933269251897" lon="4.802853296589777"><ele>176.0</ele><time>2026-04-11T09:48:22.972Z</time></trkpt><trkpt lat="44.829423896785606" lon="4.802885838689888"><ele>173.0</ele><time>2026-04-11T09:48:23.972Z</time></trkpt><trkpt lat="44.82951821180523" lon="4.802924557673207"><ele>173.0</ele><time>2026-04-11T09:48:24.972Z</time></trkpt><trkpt lat="44.82961140848494" lon="4.802956444103807"><ele>173.0</ele><time>2026-04-11T09:48:25.972Z</time></trkpt><trkpt lat="44.82970558966853" lon="4.80300754724738"><ele>173.0</ele><time>2026-04-11T09:48:26.972Z</time></trkpt><trkpt lat="44.82979190246904" lon="4.803064257906773"><ele>173.0</ele><time>2026-04-11T09:48:27.972Z</time></trkpt><trkpt lat="44.829878185080936" lon="4.803102665893784"><ele>173.0</ele><time>2026-04-11T09:48:28.972Z</time></trkpt><trkpt lat="44.82995581120223" lon="4.803143155626605"><ele>173.0</ele><time>2026-04-11T09:48:29.972Z</time></trkpt><trkpt lat="44.83002930719734" lon="4.803169759734542"><ele>173.0</ele><time>2026-04-11T09:48:30.972Z</time></trkpt><trkpt lat="44.83009612351724" lon="4.803202096065735"><ele>173.0</ele><time>2026-04-11T09:48:31.972Z</time></trkpt><trkpt lat="44.83020981582641" lon="4.803272336492294"><ele>173.0</ele><time>2026-04-11T09:48:33.972Z</time></trkpt><trkpt lat="44.830262184742494" lon="4.80332650896843"><ele>173.0</ele><time>2026-04-11T09:48:34.972Z</time></trkpt><trkpt lat="44.83031642058513" lon="4.803393366604858"><ele>173.0</ele><time>2026-04-11T09:48:35.972Z</time></trkpt><trkpt lat="44.83036770420464" lon="4.803466084229785"><ele>171.66666666666666</ele><time>2026-04-11T09:48:36.972Z</time></trkpt><trkpt lat="44.8304169142178" lon="4.803541569474884"><ele>170.33333333333331</ele><time>2026-04-11T09:48:37.972Z</time></trkpt><trkpt lat="44.830472341135824" lon="4.803600631020995"><ele>169.0</ele><time>2026-04-11T09:48:38.972Z</time></trkpt><trkpt lat="44.830535530329605" lon="4.803618968231205"><ele>167.66666666666666</ele><time>2026-04-11T09:48:39.972Z</time></trkpt><trkpt lat="44.830640699289184" lon="4.803578326289067"><ele>166.33333333333334</ele><time>2026-04-11T09:48:41.972Z</time></trkpt><trkpt lat="44.83074615241981" lon="4.803488289891925"><ele>165.0</ele><time>2026-04-11T09:48:43.972Z</time></trkpt><trkpt lat="44.8308440750296" lon="4.803491795158741"><ele>165.0</ele><time>2026-04-11T09:48:45.972Z</time></trkpt><trkpt lat="44.8309225792123" lon="4.803617775613529"><ele>165.0</ele><time>2026-04-11T09:48:47.972Z</time></trkpt><trkpt lat="44.831020860778295" lon="4.803694603815833"><ele>165.0</ele><time>2026-04-11T09:48:49.972Z</time></trkpt><trkpt lat="44.831138223073005" lon="4.803647577221205"><ele>165.0</ele><time>2026-04-11T09:48:51.97Z</time></trkpt><trkpt lat="44.83120240825551" lon="4.803599241612125"><ele>165.0</ele><time>2026-04-11T09:48:52.97Z</time></trkpt><trkpt lat="44.831266232200264" lon="4.803558428389953"><ele>164.0</ele><time>2026-04-11T09:48:53.971Z</time></trkpt><trkpt lat="44.83137419854585" lon="4.803573024227032"><ele>163.0</ele><time>2026-04-11T09:48:55.971Z</time></trkpt><trkpt lat="44.831439505933496" lon="4.8036367738148495"><ele>162.0</ele><time>2026-04-11T09:48:56.971Z</time></trkpt><trkpt lat="44.8314972473493" lon="4.803714407901614"><ele>161.0</ele><time>2026-04-11T09:48:57.97Z</time></trkpt><trkpt lat="44.831554702706725" lon="4.803772293663546"><ele>160.0</ele><time>2026-04-11T09:48:58.97Z</time></trkpt><trkpt lat="44.831606718930644" lon="4.8038401583830606"><ele>159.0</ele><time>2026-04-11T09:48:59.971Z</time></trkpt><trkpt lat="44.83166083144046" lon="4.80390090353329"><ele>159.0</ele><time>2026-04-11T09:49:00.97Z</time></trkpt><trkpt lat="44.831714522571275" lon="4.803962128894466"><ele>159.0</ele><time>2026-04-11T09:49:01.97Z</time></trkpt><trkpt lat="44.83176710296529" lon="4.804021383305041"><ele>159.0</ele><time>2026-04-11T09:49:02.97Z</time></trkpt><trkpt lat="44.8318271648649" lon="4.8040803673851755"><ele>159.0</ele><time>2026-04-11T09:49:03.971Z</time></trkpt><trkpt lat="44.83187889723008" lon="4.804151428497795"><ele>159.0</ele><time>2026-04-11T09:49:04.971Z</time></trkpt><trkpt lat="44.83193126092021" lon="4.804200919592787"><ele>159.0</ele><time>2026-04-11T09:49:05.971Z</time></trkpt><trkpt lat="44.8320422853937" lon="4.8042371405045206"><ele>159.6</ele><time>2026-04-11T09:49:07.971Z</time></trkpt><trkpt lat="44.83213093488059" lon="4.804112990990899"><ele>160.2</ele><time>2026-04-11T09:49:09.971Z</time></trkpt><trkpt lat="44.832145526137104" lon="4.804022266550608"><ele>160.79999999999998</ele><time>2026-04-11T09:49:10.971Z</time></trkpt><trkpt lat="44.832199020714526" lon="4.803876861081267"><ele>161.4</ele><time>2026-04-11T09:49:12.971Z</time></trkpt><trkpt lat="44.83230270362856" lon="4.803827763130611"><ele>162.0</ele><time>2026-04-11T09:49:14.971Z</time></trkpt><trkpt lat="44.83239713543064" lon="4.803906910088791"><ele>162.0</ele><time>2026-04-11T09:49:16.971Z</time></trkpt><trkpt lat="44.83243166773949" lon="4.804056044162055"><ele>162.0</ele><time>2026-04-11T09:49:18.971Z</time></trkpt><trkpt lat="44.83247149939977" lon="4.804213205258316"><ele>162.0</ele><time>2026-04-11T09:49:20.971Z</time></trkpt><trkpt lat="44.832520317867015" lon="4.804385493259253"><ele>162.0</ele><time>2026-04-11T09:49:22.971Z</time></trkpt><trkpt lat="44.83255129569987" lon="4.804469755973985"><ele>162.0</ele><time>2026-04-11T09:49:23.971Z</time></trkpt><trkpt lat="44.832599931515546" lon="4.804568514786909"><ele>159.71428571428572</ele><time>2026-04-11T09:49:24.971Z</time></trkpt><trkpt lat="44.83265461132577" lon="4.804651602232362"><ele>157.42857142857142</ele><time>2026-04-11T09:49:25.971Z</time></trkpt><trkpt lat="44.83271306755142" lon="4.8047121595538265"><ele>155.14285714285714</ele><time>2026-04-11T09:49:26.971Z</time></trkpt><trkpt lat="44.83278006719873" lon="4.804741279044748"><ele>152.85714285714286</ele><time>2026-04-11T09:49:27.971Z</time></trkpt><trkpt lat="44.832842426947906" lon="4.804771425131928"><ele>150.57142857142858</ele><time>2026-04-11T09:49:28.971Z</time></trkpt><trkpt lat="44.832904093776726" lon="4.804790795129141"><ele>148.28571428571428</ele><time>2026-04-11T09:49:29.971Z</time></trkpt><trkpt lat="44.83295805752651" lon="4.8048379910298795"><ele>146.0</ele><time>2026-04-11T09:49:30.971Z</time></trkpt><trkpt lat="44.83299152403562" lon="4.804944518945969"><ele>146.0</ele><time>2026-04-11T09:49:31.971Z</time></trkpt><trkpt lat="44.83300443164674" lon="4.805055950409061"><ele>146.0</ele><time>2026-04-11T09:49:32.971Z</time></trkpt><trkpt lat="44.832996889745495" lon="4.805201340714483"><ele>146.0</ele><time>2026-04-11T09:49:33.971Z</time></trkpt><trkpt lat="44.83301432062154" lon="4.805299330057757"><ele>146.0</ele><time>2026-04-11T09:49:34.971Z</time></trkpt><trkpt lat="44.83302286279978" lon="4.805394980232524"><ele>146.0</ele><time>2026-04-11T09:49:35.971Z</time></trkpt><trkpt lat="44.83301172488744" lon="4.805495840560424"><ele>146.0</ele><time>2026-04-11T09:49:36.971Z</time></trkpt><trkpt lat="44.83294974789189" lon="4.8056334988423455"><ele>145.0</ele><time>2026-04-11T09:49:38.971Z</time></trkpt><trkpt lat="44.83289173805294" lon="4.805683513946224"><ele>144.0</ele><time>2026-04-11T09:49:39.971Z</time></trkpt><trkpt lat="44.83282273116032" lon="4.805702261069749"><ele>143.0</ele><time>2026-04-11T09:49:40.971Z</time></trkpt><trkpt lat="44.832759368518786" lon="4.805726030334025"><ele>142.0</ele><time>2026-04-11T09:49:41.971Z</time></trkpt><trkpt lat="44.83269103696033" lon="4.8057561862086065"><ele>141.0</ele><time>2026-04-11T09:49:42.971Z</time></trkpt><trkpt lat="44.83261856051508" lon="4.805788084475388"><ele>140.0</ele><time>2026-04-11T09:49:43.971Z</time></trkpt><trkpt lat="44.83255142053964" lon="4.805813692944739"><ele>139.0</ele><time>2026-04-11T09:49:44.971Z</time></trkpt><trkpt lat="44.83248498875069" lon="4.805848191102027"><ele>139.0</ele><time>2026-04-11T09:49:45.971Z</time></trkpt><trkpt lat="44.83242096405628" lon="4.805879080411352"><ele>139.0</ele><time>2026-04-11T09:49:46.971Z</time></trkpt><trkpt lat="44.83234799932495" lon="4.805908829697591"><ele>139.0</ele><time>2026-04-11T09:49:47.971Z</time></trkpt><trkpt lat="44.83224349572442" lon="4.805948052311154"><ele>139.0</ele><time>2026-04-11T09:49:49.971Z</time></trkpt><trkpt lat="44.83216467160966" lon="4.8059251223118045"><ele>139.0</ele><time>2026-04-11T09:49:51.971Z</time></trkpt><trkpt lat="44.83211664286564" lon="4.8058652534682045"><ele>139.0</ele><time>2026-04-11T09:49:53.971Z</time></trkpt><trkpt lat="44.832065656267005" lon="4.805753562935182"><ele>139.0</ele><time>2026-04-11T09:49:55.971Z</time></trkpt><trkpt lat="44.83202225620449" lon="4.805619906219581"><ele>139.0</ele><time>2026-04-11T09:49:57.971Z</time></trkpt><trkpt lat="44.83197750297782" lon="4.805472302054874"><ele>139.0</ele><time>2026-04-11T09:49:59.971Z</time></trkpt><trkpt lat="44.83190761058209" lon="4.805402933464642"><ele>139.0</ele><time>2026-04-11T09:50:01.971Z</time></trkpt><trkpt lat="44.83184799149568" lon="4.80543725093397"><ele>139.0</ele><time>2026-04-11T09:50:02.971Z</time></trkpt><trkpt lat="44.83178024952992" lon="4.8055028049614075"><ele>138.28571428571428</ele><time>2026-04-11T09:50:03.971Z</time></trkpt><trkpt lat="44.831730436242424" lon="4.805567590510525"><ele>137.57142857142858</ele><time>2026-04-11T09:50:04.971Z</time></trkpt><trkpt lat="44.83169206022159" lon="4.805647078277259"><ele>136.85714285714286</ele><time>2026-04-11T09:50:05.971Z</time></trkpt><trkpt lat="44.83165358857308" lon="4.8057231358760495"><ele>136.14285714285714</ele><time>2026-04-11T09:50:06.971Z</time></trkpt><trkpt lat="44.831597145524015" lon="4.805777951359531"><ele>135.42857142857142</ele><time>2026-04-11T09:50:07.971Z</time></trkpt><trkpt lat="44.8315446457626" lon="4.8058346028853105"><ele>134.71428571428572</ele><time>2026-04-11T09:50:08.971Z</time></trkpt><trkpt lat="44.831474066844166" lon="4.805867957439789"><ele>134.0</ele><time>2026-04-11T09:50:09.971Z</time></trkpt><trkpt lat="44.83140289529846" lon="4.805893315012384"><ele>134.0</ele><time>2026-04-11T09:50:10.971Z</time></trkpt><trkpt lat="44.831336061318225" lon="4.805926898386746"><ele>134.0</ele><time>2026-04-11T09:50:11.971Z</time></trkpt><trkpt lat="44.83127500065904" lon="4.805962675346356"><ele>134.0</ele><time>2026-04-11T09:50:12.971Z</time></trkpt><trkpt lat="44.831206089151955" lon="4.805984994972115"><ele>134.0</ele><time>2026-04-11T09:50:13.971Z</time></trkpt><trkpt lat="44.83113798834815" lon="4.806006604670104"><ele>134.0</ele><time>2026-04-11T09:50:14.971Z</time></trkpt><trkpt lat="44.83106481911299" lon="4.80602867625709"><ele>134.0</ele><time>2026-04-11T09:50:15.971Z</time></trkpt><trkpt lat="44.83099145668788" lon="4.8060553642915265"><ele>134.0</ele><time>2026-04-11T09:50:16.971Z</time></trkpt><trkpt lat="44.830920732741724" lon="4.806088729953779"><ele>129.83333333333331</ele><time>2026-04-11T09:50:17.971Z</time></trkpt><trkpt lat="44.830798577270954" lon="4.80611652821338"><ele>125.66666666666666</ele><time>2026-04-11T09:50:19.971Z</time></trkpt><trkpt lat="44.830733909200426" lon="4.806116684150258"><ele>121.5</ele><time>2026-04-11T09:50:20.971Z</time></trkpt><trkpt lat="44.83066145837428" lon="4.806089629625634"><ele>117.33333333333334</ele><time>2026-04-11T09:50:21.971Z</time></trkpt><trkpt lat="44.830596665630196" lon="4.806076039985446"><ele>113.16666666666667</ele><time>2026-04-11T09:50:22.971Z</time></trkpt><trkpt lat="44.830528828455066" lon="4.8060413730245015"><ele>109.0</ele><time>2026-04-11T09:50:23.971Z</time></trkpt><trkpt lat="44.83045962322876" lon="4.806014373943745"><ele>109.00000000000001</ele><time>2026-04-11T09:50:24.971Z</time></trkpt><trkpt lat="44.830390235783334" lon="4.805997233641131"><ele>109.0</ele><time>2026-04-11T09:50:25.971Z</time></trkpt><trkpt lat="44.8303161394657" lon="4.805981123352489"><ele>109.0</ele><time>2026-04-11T09:50:26.971Z</time></trkpt><trkpt lat="44.830237303096155" lon="4.80596820945551"><ele>109.0</ele><time>2026-04-11T09:50:27.971Z</time></trkpt><trkpt lat="44.83016444583881" lon="4.805947071114008"><ele>109.00000000000001</ele><time>2026-04-11T09:50:28.971Z</time></trkpt><trkpt lat="44.830084875125976" lon="4.805913599731342"><ele>109.0</ele><time>2026-04-11T09:50:29.971Z</time></trkpt><trkpt lat="44.83000603238341" lon="4.805865596844528"><ele>110.66666666666667</ele><time>2026-04-11T09:50:30.971Z</time></trkpt><trkpt lat="44.829933559530545" lon="4.805814322988337"><ele>112.33333333333334</ele><time>2026-04-11T09:50:31.971Z</time></trkpt><trkpt lat="44.82985159116407" lon="4.805771368421399"><ele>114.0</ele><time>2026-04-11T09:50:32.971Z</time></trkpt><trkpt lat="44.829773798183254" lon="4.805714744717325"><ele>115.66666666666666</ele><time>2026-04-11T09:50:33.971Z</time></trkpt><trkpt lat="44.82969663080958" lon="4.805660115046723"><ele>117.33333333333333</ele><time>2026-04-11T09:50:34.971Z</time></trkpt><trkpt lat="44.82961624542672" lon="4.805609022376685"><ele>119.0</ele><time>2026-04-11T09:50:35.971Z</time></trkpt><trkpt lat="44.82953407582426" lon="4.80555987693843"><ele>118.99999999999999</ele><time>2026-04-11T09:50:36.971Z</time></trkpt><trkpt lat="44.82945743544481" lon="4.805504479193427"><ele>119.0</ele><time>2026-04-11T09:50:37.971Z</time></trkpt><trkpt lat="44.82937749020227" lon="4.805448857521495"><ele>119.0</ele><time>2026-04-11T09:50:38.971Z</time></trkpt><trkpt lat="44.82929441995136" lon="4.805393999236946"><ele>119.0</ele><time>2026-04-11T09:50:39.971Z</time></trkpt><trkpt lat="44.82921306771989" lon="4.8053560658943715"><ele>118.99999999999999</ele><time>2026-04-11T09:50:40.971Z</time></trkpt><trkpt lat="44.82913004970814" lon="4.805316391029917"><ele>119.0</ele><time>2026-04-11T09:50:41.971Z</time></trkpt><trkpt lat="44.82904319788038" lon="4.805300331220539"><ele>120.66666666666666</ele><time>2026-04-11T09:50:42.971Z</time></trkpt><trkpt lat="44.82895722084811" lon="4.805275465985782"><ele>122.33333333333333</ele><time>2026-04-11T09:50:43.971Z</time></trkpt><trkpt lat="44.82887821179353" lon="4.805241108543573"><ele>124.0</ele><time>2026-04-11T09:50:44.971Z</time></trkpt><trkpt lat="44.82880296911858" lon="4.805179783803688"><ele>125.66666666666666</ele><time>2026-04-11T09:50:45.971Z</time></trkpt><trkpt lat="44.828737930684" lon="4.8051179756479785"><ele>127.33333333333333</ele><time>2026-04-11T09:50:46.971Z</time></trkpt><trkpt lat="44.828674010354455" lon="4.805057928103682"><ele>129.0</ele><time>2026-04-11T09:50:47.971Z</time></trkpt><trkpt lat="44.828611532588965" lon="4.80499582889595"><ele>129.0</ele><time>2026-04-11T09:50:48.971Z</time></trkpt><trkpt lat="44.828557329036514" lon="4.804920271732392"><ele>129.0</ele><time>2026-04-11T09:50:49.971Z</time></trkpt><trkpt lat="44.8285060719868" lon="4.80485117061068"><ele>129.0</ele><time>2026-04-11T09:50:50.971Z</time></trkpt><trkpt lat="44.828423585667075" lon="4.804756079044378"><ele>129.0</ele><time>2026-04-11T09:50:52.971Z</time></trkpt><trkpt lat="44.828344648671155" lon="4.804670635605358"><ele>129.0</ele><time>2026-04-11T09:50:54.971Z</time></trkpt><trkpt lat="44.82824254023061" lon="4.804625535487432"><ele>125.4</ele><time>2026-04-11T09:50:56.969Z</time></trkpt><trkpt lat="44.828132747192655" lon="4.80461894439965"><ele>121.80000000000001</ele><time>2026-04-11T09:50:58.969Z</time></trkpt><trkpt lat="44.82802984271199" lon="4.804585816785923"><ele>118.19999999999999</ele><time>2026-04-11T09:51:00.97Z</time></trkpt><trkpt lat="44.82791405204827" lon="4.8045417646984045"><ele>114.6</ele><time>2026-04-11T09:51:02.969Z</time></trkpt><trkpt lat="44.827809625982404" lon="4.804486485723504"><ele>111.0</ele><time>2026-04-11T09:51:04.97Z</time></trkpt><trkpt lat="44.82773734946398" lon="4.804426497808661"><ele>111.0</ele><time>2026-04-11T09:51:06.969Z</time></trkpt><trkpt lat="44.827660356068925" lon="4.804360816222761"><ele>111.0</ele><time>2026-04-11T09:51:08.969Z</time></trkpt><trkpt lat="44.827576929729624" lon="4.804281068649538"><ele>111.0</ele><time>2026-04-11T09:51:10.969Z</time></trkpt><trkpt lat="44.82747713009553" lon="4.804211886652416"><ele>111.0</ele><time>2026-04-11T09:51:12.969Z</time></trkpt><trkpt lat="44.82738344155224" lon="4.8041225577382525"><ele>111.0</ele><time>2026-04-11T09:51:14.969Z</time></trkpt><trkpt lat="44.82729472600321" lon="4.804018197729474"><ele>110.75</ele><time>2026-04-11T09:51:16.969Z</time></trkpt><trkpt lat="44.82721161355559" lon="4.8039097631796865"><ele>110.5</ele><time>2026-04-11T09:51:18.969Z</time></trkpt><trkpt lat="44.82712391335541" lon="4.8037992297840715"><ele>110.25</ele><time>2026-04-11T09:51:20.969Z</time></trkpt><trkpt lat="44.82704030644248" lon="4.803690820550347"><ele>110.0</ele><time>2026-04-11T09:51:22.969Z</time></trkpt><trkpt lat="44.826951976857664" lon="4.803590735575821"><ele>109.99999999999999</ele><time>2026-04-11T09:51:24.969Z</time></trkpt><trkpt lat="44.82690165825831" lon="4.803532547994372"><ele>110.0</ele><time>2026-04-11T09:51:25.969Z</time></trkpt><trkpt lat="44.826850286825874" lon="4.803471495519361"><ele>110.0</ele><time>2026-04-11T09:51:26.969Z</time></trkpt><trkpt lat="44.82679365032867" lon="4.803409445989681"><ele>110.0</ele><time>2026-04-11T09:51:27.969Z</time></trkpt><trkpt lat="44.82674110491572" lon="4.803342370439028"><ele>109.99999999999999</ele><time>2026-04-11T09:51:28.969Z</time></trkpt><trkpt lat="44.82665493886837" lon="4.8032307034402475"><ele>110.0</ele><time>2026-04-11T09:51:30.969Z</time></trkpt><trkpt lat="44.82659207136492" lon="4.803136263401825"><ele>108.8</ele><time>2026-04-11T09:51:32.969Z</time></trkpt><trkpt lat="44.82656029242289" lon="4.803056448592246"><ele>107.6</ele><time>2026-04-11T09:51:34.969Z</time></trkpt><trkpt lat="44.82649538297275" lon="4.803067024532671"><ele>106.4</ele><time>2026-04-11T09:51:41.969Z</time></trkpt><trkpt lat="44.82650426154564" lon="4.803218159680273"><ele>105.2</ele><time>2026-04-11T09:51:46.969Z</time></trkpt><trkpt lat="44.82658777162766" lon="4.8033436699727305"><ele>104.0</ele><time>2026-04-11T09:51:48.969Z</time></trkpt><trkpt lat="44.826675331176666" lon="4.803469944051552"><ele>103.16666666666666</ele><time>2026-04-11T09:51:50.969Z</time></trkpt><trkpt lat="44.82677397474702" lon="4.803584204067584"><ele>102.33333333333333</ele><time>2026-04-11T09:51:52.969Z</time></trkpt><trkpt lat="44.82682196745013" lon="4.803645248708061"><ele>101.5</ele><time>2026-04-11T09:51:53.969Z</time></trkpt><trkpt lat="44.82687505043751" lon="4.803702338389117"><ele>100.66666666666666</ele><time>2026-04-11T09:51:54.969Z</time></trkpt><trkpt lat="44.826923020565225" lon="4.803771053536561"><ele>99.83333333333333</ele><time>2026-04-11T09:51:55.969Z</time></trkpt><trkpt lat="44.82696654494209" lon="4.80383633232886"><ele>99.0</ele><time>2026-04-11T09:51:56.969Z</time></trkpt><trkpt lat="44.82700694303071" lon="4.803909208148889"><ele>100.57142857142857</ele><time>2026-04-11T09:51:57.969Z</time></trkpt><trkpt lat="44.82706321031781" lon="4.8039594476921605"><ele>102.14285714285714</ele><time>2026-04-11T09:51:58.969Z</time></trkpt><trkpt lat="44.82712052463125" lon="4.804015762643167"><ele>103.71428571428571</ele><time>2026-04-11T09:51:59.969Z</time></trkpt><trkpt lat="44.82717406717888" lon="4.804076577967245"><ele>105.28571428571428</ele><time>2026-04-11T09:52:00.969Z</time></trkpt><trkpt lat="44.82722922824619" lon="4.804135647493156"><ele>106.85714285714286</ele><time>2026-04-11T09:52:01.969Z</time></trkpt><trkpt lat="44.8272794875982" lon="4.8041941726907575"><ele>108.42857142857142</ele><time>2026-04-11T09:52:02.969Z</time></trkpt><trkpt lat="44.82732419792664" lon="4.80425978549669"><ele>110.0</ele><time>2026-04-11T09:52:03.969Z</time></trkpt><trkpt lat="44.827374127635906" lon="4.804321054483223"><ele>110.14285714285714</ele><time>2026-04-11T09:52:04.969Z</time></trkpt><trkpt lat="44.82743053672263" lon="4.8043727593236305"><ele>110.28571428571428</ele><time>2026-04-11T09:52:05.969Z</time></trkpt><trkpt lat="44.827483402519846" lon="4.804429387068307"><ele>110.42857142857142</ele><time>2026-04-11T09:52:06.969Z</time></trkpt><trkpt lat="44.827536676619" lon="4.804489005354377"><ele>110.57142857142857</ele><time>2026-04-11T09:52:07.969Z</time></trkpt><trkpt lat="44.8275906776278" lon="4.804547775491894"><ele>110.71428571428572</ele><time>2026-04-11T09:52:08.969Z</time></trkpt><trkpt lat="44.82764350668282" lon="4.804605317395357"><ele>110.85714285714285</ele><time>2026-04-11T09:52:09.969Z</time></trkpt><trkpt lat="44.827701409386414" lon="4.804654311944919"><ele>111.0</ele><time>2026-04-11T09:52:10.969Z</time></trkpt><trkpt lat="44.827759193709525" lon="4.804708543511145"><ele>111.0</ele><time>2026-04-11T09:52:11.969Z</time></trkpt><trkpt lat="44.82782013106387" lon="4.8047597113971525"><ele>111.0</ele><time>2026-04-11T09:52:12.969Z</time></trkpt><trkpt lat="44.82788586377431" lon="4.804802390697987"><ele>111.0</ele><time>2026-04-11T09:52:13.969Z</time></trkpt><trkpt lat="44.82795585233849" lon="4.804838498069805"><ele>111.0</ele><time>2026-04-11T09:52:14.969Z</time></trkpt><trkpt lat="44.828020312657074" lon="4.8048863658923775"><ele>111.0</ele><time>2026-04-11T09:52:15.969Z</time></trkpt><trkpt lat="44.828078969074866" lon="4.804935302373536"><ele>111.0</ele><time>2026-04-11T09:52:16.969Z</time></trkpt><trkpt lat="44.82813602947944" lon="4.804984892820751"><ele>111.0</ele><time>2026-04-11T09:52:17.969Z</time></trkpt><trkpt lat="44.82819302699299" lon="4.805040562858252"><ele>111.0</ele><time>2026-04-11T09:52:18.969Z</time></trkpt><trkpt lat="44.8282519438025" lon="4.805087872388271"><ele>111.0</ele><time>2026-04-11T09:52:19.969Z</time></trkpt><trkpt lat="44.82831195502826" lon="4.80513498931157"><ele>111.0</ele><time>2026-04-11T09:52:20.969Z</time></trkpt><trkpt lat="44.82837286316455" lon="4.805191551098638"><ele>111.0</ele><time>2026-04-11T09:52:21.969Z</time></trkpt><trkpt lat="44.82843322378458" lon="4.805248927189465"><ele>111.0</ele><time>2026-04-11T09:52:22.969Z</time></trkpt><trkpt lat="44.828491441051135" lon="4.805304833728591"><ele>111.0</ele><time>2026-04-11T09:52:23.969Z</time></trkpt><trkpt lat="44.82855782549567" lon="4.805359557356875"><ele>111.0</ele><time>2026-04-11T09:52:24.969Z</time></trkpt><trkpt lat="44.828618314030344" lon="4.805411310830812"><ele>110.42857142857143</ele><time>2026-04-11T09:52:25.969Z</time></trkpt><trkpt lat="44.82868516389106" lon="4.805467401354983"><ele>109.85714285714286</ele><time>2026-04-11T09:52:26.969Z</time></trkpt><trkpt lat="44.82874688445193" lon="4.805523248373089"><ele>109.28571428571429</ele><time>2026-04-11T09:52:27.969Z</time></trkpt><trkpt lat="44.828808122692976" lon="4.805582074909266"><ele>108.71428571428572</ele><time>2026-04-11T09:52:28.969Z</time></trkpt><trkpt lat="44.82887425863773" lon="4.805635280496809"><ele>108.14285714285714</ele><time>2026-04-11T09:52:29.969Z</time></trkpt><trkpt lat="44.828941278828104" lon="4.805681928508932"><ele>107.57142857142858</ele><time>2026-04-11T09:52:30.969Z</time></trkpt><trkpt lat="44.829005220688764" lon="4.805732652070273"><ele>107.0</ele><time>2026-04-11T09:52:31.969Z</time></trkpt><trkpt lat="44.82907051226039" lon="4.80578061288239"><ele>107.00000000000001</ele><time>2026-04-11T09:52:32.969Z</time></trkpt><trkpt lat="44.82913799700951" lon="4.805825531702156"><ele>107.0</ele><time>2026-04-11T09:52:33.969Z</time></trkpt><trkpt lat="44.82920338446431" lon="4.805871311380804"><ele>107.0</ele><time>2026-04-11T09:52:34.969Z</time></trkpt><trkpt lat="44.82927260903963" lon="4.805905248739996"><ele>107.0</ele><time>2026-04-11T09:52:35.969Z</time></trkpt><trkpt lat="44.82933940695337" lon="4.805946703664047"><ele>107.0</ele><time>2026-04-11T09:52:36.969Z</time></trkpt><trkpt lat="44.829406334260234" lon="4.80598624100031"><ele>107.00000000000001</ele><time>2026-04-11T09:52:37.969Z</time></trkpt><trkpt lat="44.829462177210424" lon="4.806043701856067"><ele>107.0</ele><time>2026-04-11T09:52:38.969Z</time></trkpt><trkpt lat="44.829524805252994" lon="4.806088136312632"><ele>106.14285714285715</ele><time>2026-04-11T09:52:39.969Z</time></trkpt><trkpt lat="44.82958558626938" lon="4.806119086091163"><ele>105.28571428571429</ele><time>2026-04-11T09:52:40.969Z</time></trkpt><trkpt lat="44.82963959692817" lon="4.806175804150654"><ele>104.42857142857143</ele><time>2026-04-11T09:52:41.969Z</time></trkpt><trkpt lat="44.82969224541046" lon="4.806224728446801"><ele>103.57142857142858</ele><time>2026-04-11T09:52:42.969Z</time></trkpt><trkpt lat="44.829749731794976" lon="4.806270055440185"><ele>102.71428571428571</ele><time>2026-04-11T09:52:43.969Z</time></trkpt><trkpt lat="44.829802694488976" lon="4.806325505538262"><ele>101.85714285714286</ele><time>2026-04-11T09:52:44.969Z</time></trkpt><trkpt lat="44.82985765986624" lon="4.806374621272657"><ele>101.0</ele><time>2026-04-11T09:52:45.969Z</time></trkpt><trkpt lat="44.829964144436715" lon="4.806456558429038"><ele>101.0</ele><time>2026-04-11T09:52:47.969Z</time></trkpt><trkpt lat="44.83005383895592" lon="4.806546358389537"><ele>101.0</ele><time>2026-04-11T09:52:49.969Z</time></trkpt><trkpt lat="44.8301486052373" lon="4.806633581760299"><ele>101.0</ele><time>2026-04-11T09:52:51.969Z</time></trkpt><trkpt lat="44.83024109415126" lon="4.806712384080335"><ele>101.0</ele><time>2026-04-11T09:52:53.969Z</time></trkpt><trkpt lat="44.83033868094543" lon="4.806798720791235"><ele>101.0</ele><time>2026-04-11T09:52:55.969Z</time></trkpt><trkpt lat="44.830437905392266" lon="4.806895931729778"><ele>100.49999999999999</ele><time>2026-04-11T09:52:57.969Z</time></trkpt><trkpt lat="44.830493861327774" lon="4.806943190076458"><ele>100.0</ele><time>2026-04-11T09:52:58.969Z</time></trkpt><trkpt lat="44.830551069959135" lon="4.806985310113509"><ele>99.5</ele><time>2026-04-11T09:52:59.969Z</time></trkpt><trkpt lat="44.830608684529004" lon="4.807029890873415"><ele>99.0</ele><time>2026-04-11T09:53:00.969Z</time></trkpt><trkpt lat="44.8307166535894" lon="4.807115558298402"><ele>98.49999999999999</ele><time>2026-04-11T09:53:02.968Z</time></trkpt><trkpt lat="44.83077122066522" lon="4.8071655188814875"><ele>98.0</ele><time>2026-04-11T09:53:03.969Z</time></trkpt><trkpt lat="44.830830669528694" lon="4.807207014706705"><ele>97.99999999999999</ele><time>2026-04-11T09:53:04.969Z</time></trkpt><trkpt lat="44.8309276823436" lon="4.807294676694556"><ele>98.0</ele><time>2026-04-11T09:53:06.968Z</time></trkpt><trkpt lat="44.83102510591386" lon="4.807383999991822"><ele>98.0</ele><time>2026-04-11T09:53:08.969Z</time></trkpt><trkpt lat="44.831082675642826" lon="4.807431620754335"><ele>98.0</ele><time>2026-04-11T09:53:09.968Z</time></trkpt><trkpt lat="44.83114110587389" lon="4.807484082218694"><ele>97.99999999999999</ele><time>2026-04-11T09:53:10.968Z</time></trkpt><trkpt lat="44.831195337916654" lon="4.807550163623491"><ele>98.0</ele><time>2026-04-11T09:53:11.968Z</time></trkpt><trkpt lat="44.831254912287754" lon="4.807597242628106"><ele>98.14285714285714</ele><time>2026-04-11T09:53:12.968Z</time></trkpt><trkpt lat="44.83131372491275" lon="4.807654076675652"><ele>98.28571428571428</ele><time>2026-04-11T09:53:13.968Z</time></trkpt><trkpt lat="44.831369931696116" lon="4.807708922559862"><ele>98.42857142857143</ele><time>2026-04-11T09:53:14.968Z</time></trkpt><trkpt lat="44.83142315532471" lon="4.807761188917398"><ele>98.57142857142857</ele><time>2026-04-11T09:53:15.968Z</time></trkpt><trkpt lat="44.83147766573838" lon="4.807825246351771"><ele>98.71428571428571</ele><time>2026-04-11T09:53:16.968Z</time></trkpt><trkpt lat="44.83152549087286" lon="4.80788406164133"><ele>98.85714285714286</ele><time>2026-04-11T09:53:17.968Z</time></trkpt><trkpt lat="44.83157108592683" lon="4.807956021746843"><ele>99.0</ele><time>2026-04-11T09:53:18.968Z</time></trkpt><trkpt lat="44.83164870585863" lon="4.80809763953675"><ele>99.0</ele><time>2026-04-11T09:53:20.968Z</time></trkpt><trkpt lat="44.831712330899805" lon="4.808220513962767"><ele>99.0</ele><time>2026-04-11T09:53:22.968Z</time></trkpt><trkpt lat="44.831744332883254" lon="4.80832303887837"><ele>99.0</ele><time>2026-04-11T09:53:24.968Z</time></trkpt><trkpt lat="44.83169690671714" lon="4.80840757278132"><ele>99.0</ele><time>2026-04-11T09:53:26.968Z</time></trkpt><trkpt lat="44.831586225115736" lon="4.808500139848945"><ele>99.0</ele><time>2026-04-11T09:53:28.968Z</time></trkpt><trkpt lat="44.83152612601734" lon="4.808563053907753"><ele>98.6</ele><time>2026-04-11T09:53:29.968Z</time></trkpt><trkpt lat="44.83147600643896" lon="4.80862144013823"><ele>98.2</ele><time>2026-04-11T09:53:30.968Z</time></trkpt><trkpt lat="44.831373755212795" lon="4.808714868292689"><ele>97.8</ele><time>2026-04-11T09:53:32.968Z</time></trkpt><trkpt lat="44.831281411539265" lon="4.808814827270879"><ele>97.39999999999999</ele><time>2026-04-11T09:53:34.968Z</time></trkpt><trkpt lat="44.83118624906047" lon="4.808893227286016"><ele>97.0</ele><time>2026-04-11T09:53:36.968Z</time></trkpt><trkpt lat="44.8311206323811" lon="4.8089708788324526"><ele>97.0</ele><time>2026-04-11T09:53:38.968Z</time></trkpt><trkpt lat="44.83103777231577" lon="4.809017964744901"><ele>97.0</ele><time>2026-04-11T09:53:40.968Z</time></trkpt><trkpt lat="44.830955279525895" lon="4.809010883844738"><ele>97.0</ele><time>2026-04-11T09:53:42.968Z</time></trkpt><trkpt lat="44.830872493170126" lon="4.809072322225508"><ele>97.0</ele><time>2026-04-11T09:53:44.968Z</time></trkpt><trkpt lat="44.83079288379753" lon="4.809135811608605"><ele>97.0</ele><time>2026-04-11T09:53:46.968Z</time></trkpt><trkpt lat="44.83071306385703" lon="4.80920605566665"><ele>96.0</ele><time>2026-04-11T09:53:48.968Z</time></trkpt><trkpt lat="44.830633147591755" lon="4.8092729513220975"><ele>96.0</ele><time>2026-04-11T09:53:50.968Z</time></trkpt><trkpt lat="44.83055109852451" lon="4.8093454720366555"><ele>97.0</ele><time>2026-04-11T09:53:52.968Z</time></trkpt></trkseg></trk></gpx>